Provisional Data: Catatonk Creek near Spencer, NY


Please select a monitoring station.
Please select start date.
Please select start date.

Toggle Unit: C/F Toggle Unit: C/F
Sample Time Temperature (C) Temperature (F) Specific Conductivity (mS/cm) pH   Turbidity (NTU+) DO (mg/L)
9/6/2021 12:00:00 AM 17.14 62.852 0.383 7.65 8.81 7.31
9/6/2021 12:15:00 AM 17.11 62.798 0.383 7.65 8.76 7.3
9/6/2021 12:30:00 AM 17.07 62.726 0.383 7.65 8.59 7.28
9/6/2021 12:45:00 AM 17.04 62.672 0.383 7.64 8.45 7.28
9/6/2021 1:00:00 AM 17.01 62.618 0.383 7.64 8.2 7.27
9/6/2021 1:15:00 AM 16.97 62.546 0.382 7.64 8.26 7.27
9/6/2021 1:30:00 AM 16.95 62.51 0.382 7.64 8.74 7.29
9/6/2021 1:45:00 AM 16.9 62.42 0.382 7.64 9.08 7.27
9/6/2021 2:00:00 AM 16.88 62.384 0.381 7.64 8.78 7.3
9/6/2021 2:15:00 AM 16.88 62.384 0.379 7.64 8.74 7.34
9/6/2021 2:30:00 AM 16.88 62.384 0.375 7.64 9.7 7.4
9/6/2021 2:45:00 AM 16.89 62.402 0.372 7.65 9.78 7.46
9/6/2021 3:00:00 AM 16.89 62.402 0.369 7.66 10.01 7.51
9/6/2021 3:15:00 AM 16.88 62.384 0.366 7.66 10.55 7.55
9/6/2021 3:30:00 AM 16.84 62.312 0.363 7.66 10.9 7.58
9/6/2021 3:45:00 AM 16.79 62.222 0.362 7.66 11.02 7.61
9/6/2021 4:00:00 AM 16.75 62.15 0.358 7.66 11.83 7.62
9/6/2021 4:15:00 AM 16.7 62.06 0.356 7.66 12.06 7.64
9/6/2021 4:30:00 AM 16.67 62.006 0.352 7.66 12.45 7.64
9/6/2021 4:45:00 AM 16.65 61.97 0.348 7.66 12.79 7.67
9/6/2021 5:00:00 AM 16.61 61.898 0.346 7.66 12.46 7.68
9/6/2021 5:15:00 AM 16.59 61.862 0.343 7.66 12.47 7.69
9/6/2021 5:30:00 AM 16.55 61.79 0.341 7.66 12.52 7.71
9/6/2021 5:45:00 AM 16.5 61.7 0.339 7.66 13.03 7.72
9/6/2021 6:00:00 AM 16.45 61.61 0.336 7.66 13.1 7.7
9/6/2021 6:15:00 AM 16.38 61.484 0.333 7.65 12.72 7.68
9/6/2021 6:30:00 AM 16.3 61.34 0.329 7.65 12.59 7.74
9/6/2021 6:45:00 AM 16.22 61.196 0.326 7.64 12.28 7.77
9/6/2021 7:00:00 AM 16.13 61.034 0.323 7.64 11.67 7.78
9/6/2021 7:15:00 AM 16.05 60.89 0.321 7.63 11.44 7.83
9/6/2021 7:30:00 AM 15.98 60.764 0.32 7.63 11.32 7.86
9/6/2021 7:45:00 AM 15.91 60.638 0.319 7.63 10.91 7.91
9/6/2021 8:00:00 AM 15.86 60.548 0.318 7.63 10.5 7.94
9/6/2021 8:15:00 AM 15.82 60.476 0.318 7.64 10.02 7.95
9/6/2021 8:30:00 AM 15.78 60.404 0.318 7.64 9.89 8.05
9/6/2021 8:45:00 AM 15.74 60.332 0.318 7.65 9.85 8.12
9/6/2021 9:00:00 AM 15.72 60.296 0.319 7.65 9.33 8.17
9/6/2021 9:15:00 AM 15.74 60.332 0.319 7.66 9.24 8.27
9/6/2021 9:30:00 AM 15.75 60.35 0.32 7.67 9.03 8.39
9/6/2021 9:45:00 AM 15.75 60.35 0.321 7.68 8.81 8.47
9/6/2021 10:00:00 AM 15.75 60.35 0.321 7.68 8.68 8.52
9/6/2021 10:15:00 AM 15.77 60.386 0.322 7.69 8.64 8.6
9/6/2021 10:30:00 AM 15.8 60.44 0.322 7.71 8.35 8.73
9/6/2021 10:45:00 AM 15.84 60.512 0.322 7.71 8.36 8.79
9/6/2021 11:00:00 AM 15.91 60.638 0.323 7.73 8.39 8.86
9/6/2021 11:15:00 AM 15.99 60.782 0.323 7.74 8.26 8.88
9/6/2021 11:30:00 AM 16.09 60.962 0.323 7.75 7.95 8.99
9/6/2021 11:45:00 AM 16.23 61.214 0.323 7.77 8.11 9.11
9/6/2021 12:00:00 PM 16.39 61.502 0.323 7.79 7.97 9.29
9/6/2021 12:15:00 PM 16.55 61.79 0.323 7.81 7.91 9.39
9/6/2021 12:30:00 PM 16.65 61.97 0.323 7.83 7.87 9.54
9/6/2021 12:45:00 PM 16.75 62.15 0.323 7.84 7.86 9.61
9/6/2021 1:00:00 PM 16.81 62.258 0.323 7.86 8.03 9.61
9/6/2021 1:15:00 PM 16.79 62.222 0.321 7.85 7.93 9.61
9/6/2021 1:30:00 PM 16.84 62.312 0.321 7.87 8.92 9.65
9/6/2021 1:45:00 PM 16.93 62.474 0.321 7.88 7.82 9.65
9/6/2021 2:00:00 PM 17.01 62.618 0.322 7.89 7.59 9.69
9/6/2021 2:15:00 PM 17.14 62.852 0.322 7.89 7.58 9.73
9/6/2021 2:30:00 PM 17.24 63.032 0.322 7.9 7.55 9.75
9/6/2021 2:45:00 PM 17.31 63.158 0.321 7.91 7.3 9.79
9/6/2021 3:00:00 PM 17.37 63.266 0.322 7.92 7.42 9.8
9/6/2021 3:15:00 PM 17.46 63.428 0.322 7.93 8.24 9.82
9/6/2021 3:30:00 PM 17.56 63.608 0.323 7.94 7.6 9.83
9/6/2021 3:45:00 PM 17.68 63.824 0.323 7.95 7.28 9.82
9/6/2021 4:00:00 PM 17.77 63.986 0.323 7.95 7.31 9.79
9/6/2021 4:15:00 PM 17.84 64.112 0.322 7.96 7.28 9.75
9/6/2021 4:30:00 PM 17.91 64.238 0.322 7.96 7.96 9.59
9/6/2021 4:45:00 PM 17.96 64.328 0.321 7.95 7.68 9.65
9/6/2021 5:00:00 PM 18 64.4 0.321 7.95 7.37 9.62
9/6/2021 5:15:00 PM 18.04 64.472 0.321 7.96 7.47 9.57
9/6/2021 5:30:00 PM 18.07 64.526 0.322 7.96 7.51 9.54
9/6/2021 5:45:00 PM 18.08 64.544 0.322 7.96 7.51 9.49
9/6/2021 6:00:00 PM 18.07 64.526 0.322 7.95 7.46 9.39
9/6/2021 6:15:00 PM 18.03 64.454 0.323 7.94 7.41 9.28
9/6/2021 6:30:00 PM 18 64.4 0.324 7.93 7.35 9.14
9/6/2021 6:45:00 PM 17.97 64.346 0.324 7.91 7.58 9.06
9/6/2021 7:00:00 PM 17.94 64.292 0.325 7.9 7.57 8.92
9/6/2021 7:15:00 PM 17.9 64.22 0.326 7.89 7.62 8.73
9/6/2021 7:30:00 PM 17.87 64.166 0.327 7.87 7.84 8.57
9/6/2021 7:45:00 PM 17.85 64.13 0.328 7.86 7.8 8.58
9/6/2021 8:00:00 PM 17.82 64.076 0.33 7.84 8.07 8.48
9/6/2021 8:15:00 PM 17.79 64.022 0.331 7.83 8.42 8.36
9/6/2021 8:30:00 PM 17.75 63.95 0.332 7.81 8.41 8.25
9/6/2021 8:45:00 PM 17.7 63.86 0.334 7.8 8.36 8.16
9/6/2021 9:00:00 PM 17.66 63.788 0.334 7.78 8.34 8.06
9/6/2021 9:15:00 PM 17.61 63.698 0.335 7.77 8.76 7.98
9/6/2021 9:30:00 PM 17.58 63.644 0.335 7.76 8.8 7.9
9/6/2021 9:45:00 PM 17.54 63.572 0.336 7.75 9.05 7.86
9/6/2021 10:00:00 PM 17.48 63.464 0.337 7.74 8.91 7.8
9/6/2021 10:15:00 PM 17.42 63.356 0.338 7.73 9.02 7.74
9/6/2021 10:30:00 PM 17.38 63.284 0.337 7.72 9.23 7.73
9/6/2021 10:45:00 PM 17.32 63.176 0.338 7.71 9.13 7.71
9/6/2021 11:00:00 PM 17.26 63.068 0.339 7.71 9.09 7.67
9/6/2021 11:15:00 PM 17.2 62.96 0.339 7.7 9.14 7.65
9/6/2021 11:30:00 PM 17.14 62.852 0.338 7.69 9.22 7.63
9/6/2021 11:45:00 PM 17.07 62.726 0.338 7.69 9.31 7.6
9/7/2021 12:00:00 AM 17 62.6 0.339 7.68 9.43 7.59
9/7/2021 12:15:00 AM 16.92 62.456 0.339 7.67 9.34 7.58
9/7/2021 12:30:00 AM 16.85 62.33 0.34 7.67 9.51 7.57
9/7/2021 12:45:00 AM 16.76 62.168 0.341 7.67 9.2 7.57
9/7/2021 1:00:00 AM 16.69 62.042 0.341 7.66 9.61 7.56
9/7/2021 1:15:00 AM 16.61 61.898 0.342 7.66 9.96 7.57
9/7/2021 1:30:00 AM 16.54 61.772 0.342 7.65 9.9 7.57
9/7/2021 1:45:00 AM 16.46 61.628 0.343 7.65 10.03 7.51
9/7/2021 2:00:00 AM 16.4 61.52 0.343 7.65 10.05 7.53
9/7/2021 2:15:00 AM 16.32 61.376 0.343 7.65 10.04 7.56
9/7/2021 2:30:00 AM 16.26 61.268 0.343 7.64 10.43 7.58
9/7/2021 2:45:00 AM 16.19 61.142 0.343 7.64 10.19 7.59
9/7/2021 3:00:00 AM 16.12 61.016 0.343 7.63 10.14 7.59
9/7/2021 3:15:00 AM 16.06 60.908 0.343 7.64 9.9 7.59
9/7/2021 3:30:00 AM 15.99 60.782 0.342 7.63 9.86 7.61
9/7/2021 3:45:00 AM 15.93 60.674 0.342 7.63 9.9 7.62
9/7/2021 4:00:00 AM 15.87 60.566 0.342 7.63 10 7.64
9/7/2021 4:15:00 AM 15.82 60.476 0.341 7.63 10.42 7.66
9/7/2021 4:30:00 AM 15.75 60.35 0.342 7.63 10.22 7.66
9/7/2021 4:45:00 AM 15.68 60.224 0.343 7.63 10.64 7.6
9/7/2021 5:00:00 AM 15.62 60.116 0.343 7.62 10.09 7.65
9/7/2021 5:15:00 AM 15.56 60.008 0.343 7.63 10.42 7.67
9/7/2021 5:30:00 AM 15.5 59.9 0.344 7.63 10.54 7.61
9/7/2021 5:45:00 AM 15.44 59.792 0.345 7.62 10.4 7.66
9/7/2021 6:00:00 AM 15.38 59.684 0.346 7.63 10.27 7.69
9/7/2021 6:15:00 AM 15.32 59.576 0.346 7.63 10.12 7.7
9/7/2021 6:30:00 AM 15.26 59.468 0.347 7.63 10.54 7.73
9/7/2021 6:45:00 AM 15.2 59.36 0.347 7.63 10.63 7.69
9/7/2021 7:00:00 AM 15.15 59.27 0.348 7.63 10.53 7.75
9/7/2021 7:15:00 AM 15.09 59.162 0.349 7.62 9.96 7.76
9/7/2021 7:30:00 AM 15.05 59.09 0.35 7.63 10.85 7.79
9/7/2021 7:45:00 AM 15.01 59.018 0.35 7.63 9.8 7.86
9/7/2021 8:00:00 AM 14.99 58.982 0.35 7.64 9.65 7.92
9/7/2021 8:15:00 AM 14.96 58.928 0.35 7.64 9.5 8
9/7/2021 8:30:00 AM 14.94 58.892 0.35 7.65 9.23 8.02
9/7/2021 8:45:00 AM 14.93 58.874 0.35 7.65 9.51 8.07
9/7/2021 9:00:00 AM 14.92 58.856 0.35 7.66 9.08 8.15
9/7/2021 9:15:00 AM 14.93 58.874 0.35 7.67 8.91 8.23
9/7/2021 9:30:00 AM 14.96 58.928 0.35 7.68 8.86 8.33
9/7/2021 9:45:00 AM 15.02 59.036 0.35 7.69 8.85 8.39
9/7/2021 10:00:00 AM 15.08 59.144 0.35 7.7 8.89 8.54
9/7/2021 10:15:00 AM 15.16 59.288 0.35 7.71 9.32 8.62
9/7/2021 10:30:00 AM 15.25 59.45 0.35 7.72 8.75 8.78
9/7/2021 10:45:00 AM 15.36 59.648 0.349 7.73 10.3 8.9
9/7/2021 11:00:00 AM 15.47 59.846 0.349 7.75 9.62 8.99
9/7/2021 11:15:00 AM 15.59 60.062 0.349 7.76 8.77 9.09
9/7/2021 11:30:00 AM 15.73 60.314 0.35 7.78 8.39 9.21
9/7/2021 11:45:00 AM 15.88 60.584 0.349 7.8 8.07 9.3
9/7/2021 12:00:00 PM 16.03 60.854 0.349 7.81 8.47 9.42
9/7/2021 12:15:00 PM 16.19 61.142 0.35 7.83 8.05 9.48
9/7/2021 12:30:00 PM 16.33 61.394 0.35 7.84 8.12 9.6
9/7/2021 12:45:00 PM 16.51 61.718 0.35 7.86 8.04 9.7
9/7/2021 1:00:00 PM 16.69 62.042 0.35 7.88 7.71 9.8
9/7/2021 1:15:00 PM 16.88 62.384 0.35 7.9 7.68 9.9
9/7/2021 1:30:00 PM 17.06 62.708 0.35 7.91 8.04 9.97
9/7/2021 1:45:00 PM 17.22 62.996 0.351 7.92 7.72 9.97
9/7/2021 2:00:00 PM 17.39 63.302 0.35 7.94 7.63 10.06
9/7/2021 2:15:00 PM 17.56 63.608 0.35 7.95 7.55 10.12
9/7/2021 2:30:00 PM 17.71 63.878 0.35 7.97 7.24 10.13
9/7/2021 2:45:00 PM 17.84 64.112 0.351 7.98 7.46 10.11
9/7/2021 3:00:00 PM 17.98 64.364 0.351 7.99 7.17 10.13
9/7/2021 3:15:00 PM 18.12 64.616 0.352 8.01 6.96 10.18
9/7/2021 3:30:00 PM 18.22 64.796 0.352 8.02 7.15 10.17
9/7/2021 3:45:00 PM 18.32 64.976 0.353 8.02 7.16 10.15
9/7/2021 4:00:00 PM 18.41 65.138 0.353 8.03 7.29 10.04
9/7/2021 4:15:00 PM 18.48 65.264 0.352 8.04 7.2 10
9/7/2021 4:30:00 PM 18.55 65.39 0.353 8.03 7.04 9.95
9/7/2021 4:45:00 PM 18.63 65.534 0.353 8.03 7.15 9.89
9/7/2021 5:00:00 PM 18.67 65.606 0.353 8.04 6.93 9.82
9/7/2021 5:15:00 PM 18.7 65.66 0.354 8.04 6.92 9.73
9/7/2021 5:30:00 PM 18.74 65.732 0.355 8.03 7.01 9.6
9/7/2021 5:45:00 PM 18.78 65.804 0.354 8.03 7.01 9.53
9/7/2021 6:00:00 PM 18.79 65.82201 0.354 8.02 6.97 9.4
9/7/2021 6:15:00 PM 18.81 65.858 0.355 8.01 6.78 9.3
9/7/2021 6:30:00 PM 18.8 65.84 0.355 8 6.65 9.21
9/7/2021 6:45:00 PM 18.77 65.786 0.356 7.99 6.88 9.03
9/7/2021 7:00:00 PM 18.74 65.732 0.356 7.96 6.65 8.86
9/7/2021 7:15:00 PM 18.71 65.67799 0.356 7.95 6.72 8.71
9/7/2021 7:30:00 PM 18.67 65.606 0.356 7.93 6.78 8.61
9/7/2021 7:45:00 PM 18.63 65.534 0.357 7.92 6.87 8.5
9/7/2021 8:00:00 PM 18.59 65.462 0.357 7.9 6.72 8.38
9/7/2021 8:15:00 PM 18.56 65.408 0.356 7.88 7.02 8.27
9/7/2021 8:30:00 PM 18.51 65.318 0.357 7.86 7.35 8.13
9/7/2021 8:45:00 PM 18.47 65.246 0.356 7.85 7.42 8.04
9/7/2021 9:00:00 PM 18.44 65.192 0.357 7.84 7.37 7.96
9/7/2021 9:15:00 PM 18.38 65.084 0.358 7.82 7.39 7.86
9/7/2021 9:30:00 PM 18.34 65.012 0.359 7.81 7.57 7.78
9/7/2021 9:45:00 PM 18.29 64.922 0.36 7.8 7.37 7.68
9/7/2021 10:00:00 PM 18.25 64.85 0.36 7.78 7.34 7.62
9/7/2021 10:15:00 PM 18.22 64.796 0.361 7.78 7.61 7.55
9/7/2021 10:30:00 PM 18.18 64.724 0.362 7.76 7.77 7.5
9/7/2021 10:45:00 PM 18.15 64.67 0.362 7.76 7.6 7.46
9/7/2021 11:00:00 PM 18.11 64.598 0.364 7.75 7.46 7.38
9/7/2021 11:15:00 PM 18.08 64.544 0.364 7.74 7.46 7.38
9/7/2021 11:30:00 PM 18.04 64.472 0.364 7.73 7.53 7.31
9/7/2021 11:45:00 PM 18 64.4 0.365 7.73 7.26 7.33
9/8/2021 12:00:00 AM 17.96 64.328 0.365 7.72 7.47 7.31
9/8/2021 12:15:00 AM 17.92 64.256 0.365 7.71 7.5 7.29
9/8/2021 12:30:00 AM 17.89 64.202 0.365 7.71 7.65 7.28
9/8/2021 12:45:00 AM 17.84 64.112 0.365 7.7 7.99 7.25
9/8/2021 1:00:00 AM 17.79 64.022 0.366 7.69 7.78 7.25
9/8/2021 1:15:00 AM 17.73 63.914 0.366 7.69 7.59 7.24
9/8/2021 1:30:00 AM 17.67 63.806 0.367 7.68 7.64 7.22
9/8/2021 1:45:00 AM 17.63 63.734 0.366 7.68 7.74 7.23
9/8/2021 2:00:00 AM 17.56 63.608 0.367 7.67 8.1 7.2
9/8/2021 2:15:00 AM 17.49 63.482 0.367 7.67 7.61 7.21
9/8/2021 2:30:00 AM 17.44 63.392 0.366 7.66 7.72 7.2
9/8/2021 2:45:00 AM 17.38 63.284 0.366 7.66 7.84 7.22
9/8/2021 3:00:00 AM 17.32 63.176 0.367 7.66 7.77 7.21
9/8/2021 3:15:00 AM 17.26 63.068 0.366 7.66 7.75 7.23
9/8/2021 3:30:00 AM 17.21 62.978 0.366 7.65 7.77 7.24
9/8/2021 3:45:00 AM 17.14 62.852 0.366 7.65 7.84 7.25
9/8/2021 4:00:00 AM 17.08 62.744 0.366 7.64 7.95 7.24
9/8/2021 4:15:00 AM 17.02 62.636 0.366 7.64 8.25 7.24
9/8/2021 4:30:00 AM 16.96 62.528 0.366 7.64 8.35 7.25
9/8/2021 4:45:00 AM 16.9 62.42 0.366 7.64 8.26 7.25
9/8/2021 5:00:00 AM 16.86 62.348 0.365 7.64 8.71 7.27
9/8/2021 5:15:00 AM 16.8 62.24 0.366 7.63 8.28 7.23
9/8/2021 5:30:00 AM 16.76 62.168 0.366 7.63 8.39 7.26
9/8/2021 5:45:00 AM 16.69 62.042 0.367 7.62 8.3 7.27
9/8/2021 6:00:00 AM 16.65 61.97 0.367 7.63 8.42 7.26
9/8/2021 6:15:00 AM 16.61 61.898 0.368 7.62 8.64 7.3
9/8/2021 6:30:00 AM 16.56 61.808 0.368 7.63 8.42 7.28
9/8/2021 6:45:00 AM 16.51 61.718 0.369 7.63 8.64 7.25
9/8/2021 7:00:00 AM 16.48 61.664 0.37 7.62 8.44 7.25
9/8/2021 7:15:00 AM 16.47 61.646 0.369 7.63 8.7 7.27
9/8/2021 7:30:00 AM 16.44 61.592 0.371 7.63 9.21 7.36
9/8/2021 7:45:00 AM 16.44 61.592 0.372 7.63 8.42 7.36
9/8/2021 8:00:00 AM 16.43 61.574 0.372 7.64 9.5 7.47
9/8/2021 8:15:00 AM 16.43 61.574 0.373 7.64 7.91 7.51
9/8/2021 8:30:00 AM 16.43 61.574 0.373 7.65 7.87 7.6
9/8/2021 8:45:00 AM 16.45 61.61 0.374 7.66 7.36 7.71
9/8/2021 9:00:00 AM 16.47 61.646 0.374 7.67 7.21 7.81
9/8/2021 9:15:00 AM 16.48 61.664 0.374 7.68 7.24 7.88
9/8/2021 9:30:00 AM 16.52 61.736 0.374 7.7 7.06 7.99
9/8/2021 9:45:00 AM 16.6 61.88 0.373 7.71 7.04 8.21
9/8/2021 10:00:00 AM 16.66 61.988 0.374 7.73 7.31 8.38
9/8/2021 10:15:00 AM 16.72 62.096 0.375 7.74 6.93 8.43
9/8/2021 10:30:00 AM 16.83 62.294 0.374 7.76 6.9 8.61
9/8/2021 10:45:00 AM 16.92 62.456 0.374 7.78 6.93 8.84
9/8/2021 11:00:00 AM 17.04 62.672 0.374 7.81 6.99 9.02
9/8/2021 11:15:00 AM 17.15 62.87 0.374 7.83 6.98 9.19
9/8/2021 11:30:00 AM 17.24 63.032 0.373 7.84 6.77 9.33
9/8/2021 11:45:00 AM 17.33 63.194 0.374 7.87 6.66 9.44
9/8/2021 12:00:00 PM 17.43 63.374 0.374 7.88 6.7 9.57
9/8/2021 12:15:00 PM 17.56 63.608 0.374 7.9 6.83 9.69
9/8/2021 12:30:00 PM 17.7 63.86 0.374 7.92 6.56 9.82
9/8/2021 12:45:00 PM 17.8 64.04 0.374 7.94 6.63 9.92
9/8/2021 1:00:00 PM 17.85 64.13 0.375 7.94 6.64 9.89
9/8/2021 1:15:00 PM 17.88 64.184 0.374 7.94 6.64 9.8
9/8/2021 1:30:00 PM 17.95 64.31 0.375 7.96 6.44 9.89
9/8/2021 1:45:00 PM 18.02 64.436 0.374 7.98 6.37 9.96
9/8/2021 2:00:00 PM 18.09 64.562 0.375 7.98 6.4 10.04
9/8/2021 2:15:00 PM 18.14 64.652 0.375 7.99 6.27 10.01
9/8/2021 2:30:00 PM 18.17 64.706 0.375 7.99 6.13 9.89
9/8/2021 2:45:00 PM 18.19 64.742 0.374 7.98 6.12 9.77
9/8/2021 3:00:00 PM 18.19 64.742 0.376 7.97 6.17 9.59
9/8/2021 3:15:00 PM 18.18 64.724 0.373 7.97 6.48 9.45
9/8/2021 3:30:00 PM 18.13 64.634 0.366 7.97 8.42 9.17
9/8/2021 3:45:00 PM 18.14 64.652 0.357 7.98 12.61 9.07
9/8/2021 4:00:00 PM 18.19 64.742 0.357 7.97 12.8 8.97
9/8/2021 4:15:00 PM 18.22 64.796 0.359 7.96 12.38 8.8
9/8/2021 4:30:00 PM 18.24 64.832 0.358 7.95 12.67 8.73
9/8/2021 4:45:00 PM 18.28 64.904 0.355 7.93 12.37 8.59
9/8/2021 5:00:00 PM 18.29 64.922 0.352 7.91 12.18 8.41
9/8/2021 5:15:00 PM 18.29 64.922 0.349 7.89 11.69 8.31
9/8/2021 5:30:00 PM 18.3 64.94 0.35 7.88 10.69 8.27
9/8/2021 5:45:00 PM 18.32 64.976 0.352 7.87 10.06 8.22
9/8/2021 6:00:00 PM 18.33 64.994 0.355 7.86 9.74 8.17
9/8/2021 6:15:00 PM 18.33 64.994 0.356 7.85 9.38 8.04
9/8/2021 6:30:00 PM 18.33 64.994 0.354 7.82 9.62 7.97
9/8/2021 6:45:00 PM 18.34 65.012 0.35 7.8 10.06 7.88
9/8/2021 7:00:00 PM 18.35 65.03 0.348 7.77 10.52 7.73
9/8/2021 7:15:00 PM 18.31 64.958 0.349 7.75 12 7.63
9/8/2021 7:30:00 PM 18.27 64.886 0.352 7.73 11.45 7.56
9/8/2021 7:45:00 PM 18.21 64.778 0.355 7.72 11.63 7.5
9/8/2021 8:00:00 PM 18.14 64.652 0.357 7.71 11.83 7.42
9/8/2021 8:15:00 PM 18.07 64.526 0.36 7.7 11.25 7.38
9/8/2021 8:30:00 PM 17.99 64.382 0.362 7.69 11 7.37
9/8/2021 8:45:00 PM 17.91 64.238 0.363 7.68 10.61 7.26
9/8/2021 9:00:00 PM 17.84 64.112 0.364 7.68 9.92 7.23
9/8/2021 9:15:00 PM 17.77 63.986 0.365 7.66 9.7 7.17
9/8/2021 9:30:00 PM 17.71 63.878 0.364 7.66 11.17 7.22
9/8/2021 9:45:00 PM 17.67 63.806 0.364 7.65 9.69 7.19
9/8/2021 10:00:00 PM 17.61 63.698 0.364 7.65 9.43 7.13
9/8/2021 10:15:00 PM 17.56 63.608 0.364 7.64 9.02 7.13
9/8/2021 10:30:00 PM 17.53 63.554 0.362 7.65 9.7 7.16
9/8/2021 10:45:00 PM 17.5 63.5 0.362 7.64 9.07 7.11
9/8/2021 11:00:00 PM 17.46 63.428 0.362 7.64 8.65 7.12
9/8/2021 11:15:00 PM 17.44 63.392 0.362 7.63 8.81 7.14
9/8/2021 11:30:00 PM 17.41 63.338 0.359 7.64 9.2 7.11
9/8/2021 11:45:00 PM 17.4 63.32 0.362 7.63 8.93 7.1
9/9/2021 12:00:00 AM 17.38 63.284 0.362 7.63 8.95 7.12
9/9/2021 12:15:00 AM 17.38 63.284 0.363 7.63 9.06 7.17
9/9/2021 12:30:00 AM 17.36 63.248 0.363 7.62 9.1 7.18
9/9/2021 12:45:00 AM 17.36 63.248 0.363 7.62 9.28 7.14
9/9/2021 1:00:00 AM 17.33 63.194 0.364 7.62 9.17 7.17
9/9/2021 1:15:00 AM 17.32 63.176 0.364 7.62 9.09 7.17
9/9/2021 1:30:00 AM 17.3 63.14 0.363 7.62 9.19 7.16
9/9/2021 1:45:00 AM 17.28 63.104 0.364 7.62 9.5 7.11
9/9/2021 2:00:00 AM 17.26 63.068 0.363 7.61 9.55 7.13
9/9/2021 2:15:00 AM 17.22 62.996 0.362 7.62 9.48 7.13
9/9/2021 2:30:00 AM 17.19 62.942 0.362 7.61 10.41 7.15
9/9/2021 2:45:00 AM 17.15 62.87 0.362 7.61 9.97 7.15
9/9/2021 3:00:00 AM 17.12 62.816 0.361 7.61 10.28 7.15
9/9/2021 3:15:00 AM 17.08 62.744 0.36 7.61 9.63 7.18
9/9/2021 3:30:00 AM 17.03 62.654 0.359 7.61 9.16 7.16
9/9/2021 3:45:00 AM 17 62.6 0.359 7.6 9.48 7.15
9/9/2021 4:00:00 AM 16.97 62.546 0.359 7.6 10.91 7.11
9/9/2021 4:15:00 AM 16.93 62.474 0.358 7.61 9.56 7.25
9/9/2021 4:30:00 AM 16.9 62.42 0.359 7.61 9.1 7.26
9/9/2021 4:45:00 AM 16.88 62.384 0.357 7.61 9.45 7.27
9/9/2021 5:00:00 AM 16.85 62.33 0.356 7.61 9.39 7.28
9/9/2021 5:15:00 AM 16.82 62.276 0.357 7.61 9.11 7.25
9/9/2021 5:30:00 AM 16.79 62.222 0.357 7.61 9.14 7.27
9/9/2021 5:45:00 AM 16.76 62.168 0.357 7.61 9.15 7.29
9/9/2021 6:00:00 AM 16.73 62.114 0.357 7.61 9.17 7.24
9/9/2021 6:15:00 AM 16.71 62.078 0.356 7.61 11.2 7.3
9/9/2021 6:30:00 AM 16.68 62.024 0.356 7.61 9.64 7.34
9/9/2021 6:45:00 AM 16.65 61.97 0.356 7.61 10.73 7.35
9/9/2021 7:00:00 AM 16.62 61.916 0.356 7.61 9.13 7.38
9/9/2021 7:15:00 AM 16.59 61.862 0.356 7.61 8.6 7.38
9/9/2021 7:30:00 AM 16.56 61.808 0.356 7.61 8.44 7.37
9/9/2021 7:45:00 AM 16.54 61.772 0.355 7.61 8.37 7.42
9/9/2021 8:00:00 AM 16.52 61.736 0.355 7.62 8.08 7.44
9/9/2021 8:15:00 AM 16.5 61.7 0.356 7.62 8.07 7.46
9/9/2021 8:30:00 AM 16.49 61.682 0.356 7.62 8.04 7.52
9/9/2021 8:45:00 AM 16.49 61.682 0.356 7.62 7.85 7.6
9/9/2021 9:00:00 AM 16.54 61.772 0.355 7.64 7.7 7.74
9/9/2021 9:15:00 AM 16.53 61.754 0.355 7.65 7.66 7.82
9/9/2021 9:30:00 AM 16.53 61.754 0.355 7.66 7.62 7.9
9/9/2021 9:45:00 AM 16.53 61.754 0.356 7.66 7.71 8
9/9/2021 10:00:00 AM 16.57 61.826 0.355 7.68 7.8 8.11
9/9/2021 10:15:00 AM 16.63 61.934 0.355 7.69 7.48 8.25
9/9/2021 10:30:00 AM 16.69 62.042 0.355 7.71 7.58 8.39
9/9/2021 10:45:00 AM 16.73 62.114 0.355 7.72 7.46 8.54
9/9/2021 11:00:00 AM 16.79 62.222 0.355 7.74 7.55 8.67
9/9/2021 11:15:00 AM 16.86 62.348 0.354 7.76 7.38 8.83
9/9/2021 11:30:00 AM 16.93 62.474 0.354 7.77 7.38 8.95
9/9/2021 11:45:00 AM 17.01 62.618 0.354 7.79 7.4 9.04
9/9/2021 12:00:00 PM 17.09 62.762 0.354 7.81 7.69 9.17
9/9/2021 12:15:00 PM 17.17 62.906 0.354 7.82 7.75 9.28
9/9/2021 12:30:00 PM 17.25 63.05 0.355 7.84 7.38 9.43
9/9/2021 12:45:00 PM 17.34 63.212 0.354 7.86 7.31 9.57
9/9/2021 1:00:00 PM 17.42 63.356 0.355 7.87 7.49 9.64
9/9/2021 1:15:00 PM 17.52 63.536 0.355 7.89 7.91 9.77
9/9/2021 1:30:00 PM 17.59 63.662 0.355 7.9 7.3 9.8
9/9/2021 1:45:00 PM 17.66 63.788 0.354 7.91 7.27 9.85
9/9/2021 2:00:00 PM 17.72 63.896 0.354 7.93 7.26 9.89
9/9/2021 2:15:00 PM 17.77 63.986 0.354 7.93 7.35 9.88
9/9/2021 2:30:00 PM 17.83 64.094 0.353 7.95 7.27 9.99
9/9/2021 2:45:00 PM 17.9 64.22 0.354 7.96 7.14 10.05
9/9/2021 3:00:00 PM 17.99 64.382 0.354 7.98 7.09 10.11
9/9/2021 3:15:00 PM 18.07 64.526 0.354 7.99 7.31 10.07
9/9/2021 3:30:00 PM 18.16 64.688 0.354 8 8.84 10.09
9/9/2021 3:45:00 PM 18.26 64.868 0.354 8 7.51 10.12
9/9/2021 4:00:00 PM 18.28 64.904 0.354 8.01 6.96 9.97
9/9/2021 4:15:00 PM 18.28 64.904 0.354 8 7.06 9.91
9/9/2021 4:30:00 PM 18.3 64.94 0.355 8 7.05 9.87
9/9/2021 4:45:00 PM 18.34 65.012 0.354 8 7.07 9.77
9/9/2021 5:00:00 PM 18.4 65.12 0.353 8.01 12.35 9.71
9/9/2021 5:15:00 PM 18.42 65.156 0.355 8 14.7 9.66
9/9/2021 5:30:00 PM 18.44 65.192 0.355 8 8.37 9.56
9/9/2021 5:45:00 PM 18.45 65.21 0.355 7.99 6.9 9.44
9/9/2021 6:00:00 PM 18.44 65.192 0.355 7.98 6.7 9.33
9/9/2021 6:15:00 PM 18.44 65.192 0.356 7.97 6.8 9.27
9/9/2021 6:30:00 PM 18.42 65.156 0.357 7.97 6.78 9.14
9/9/2021 6:45:00 PM 18.4 65.12 0.357 7.96 6.5 9.04
9/9/2021 7:00:00 PM 18.38 65.084 0.357 7.94 6.62 8.89
9/9/2021 7:15:00 PM 18.34 65.012 0.358 7.93 6.55 8.78
9/9/2021 7:30:00 PM 18.32 64.976 0.359 7.91 6.98 8.56
9/9/2021 7:45:00 PM 18.29 64.922 0.36 7.9 6.8 8.47
9/9/2021 8:00:00 PM 18.24 64.832 0.36 7.89 6.93 8.39
9/9/2021 8:15:00 PM 18.21 64.778 0.36 7.87 7.34 8.31
9/9/2021 8:30:00 PM 18.17 64.706 0.361 7.85 7.85 8.19
9/9/2021 8:45:00 PM 18.11 64.598 0.361 7.84 7.39 8.06
9/9/2021 9:00:00 PM 18.05 64.49 0.362 7.82 7.92 7.97
9/9/2021 9:15:00 PM 17.99 64.382 0.363 7.8 7.39 7.88
9/9/2021 9:30:00 PM 17.92 64.256 0.363 7.79 7.38 7.79
9/9/2021 9:45:00 PM 17.85 64.13 0.365 7.77 7.11 7.7
9/9/2021 10:00:00 PM 17.79 64.022 0.365 7.76 7.24 7.65
9/9/2021 10:15:00 PM 17.73 63.914 0.365 7.75 6.92 7.61
9/9/2021 10:30:00 PM 17.66 63.788 0.366 7.74 6.99 7.54
9/9/2021 10:45:00 PM 17.61 63.698 0.367 7.74 7.29 7.5
9/9/2021 11:00:00 PM 17.54 63.572 0.367 7.73 7.31 7.47
9/9/2021 11:15:00 PM 17.47 63.446 0.368 7.71 7.39 7.44
9/9/2021 11:30:00 PM 17.41 63.338 0.368 7.71 7.15 7.43
9/9/2021 11:45:00 PM 17.34 63.212 0.367 7.7 7.32 7.39
9/10/2021 12:00:00 AM 17.29 63.122 0.368 7.7 7.35 7.39
9/10/2021 12:15:00 AM 17.23 63.014 0.368 7.69 7.38 7.34
9/10/2021 12:30:00 AM 17.18 62.924 0.369 7.68 7.37 7.33
9/10/2021 12:45:00 AM 17.13 62.834 0.367 7.68 7.7 7.33
9/10/2021 1:00:00 AM 17.06 62.708 0.367 7.67 7.74 7.31
9/10/2021 1:15:00 AM 17.01 62.618 0.367 7.66 7.62 7.29
9/10/2021 1:30:00 AM 16.95 62.51 0.367 7.66 7.56 7.26
9/10/2021 1:45:00 AM 16.88 62.384 0.368 7.65 7.9 7.25
9/10/2021 2:00:00 AM 16.84 62.312 0.368 7.65 7.97 7.26
9/10/2021 2:15:00 AM 16.79 62.222 0.368 7.65 7.99 7.25
9/10/2021 2:30:00 AM 16.74 62.132 0.369 7.65 8.09 7.25
9/10/2021 2:45:00 AM 16.7 62.06 0.37 7.64 8.39 7.26
9/10/2021 3:00:00 AM 16.62 61.916 0.371 7.64 8.06 7.24
9/10/2021 3:15:00 AM 16.57 61.826 0.372 7.64 8.05 7.24
9/10/2021 3:30:00 AM 16.53 61.754 0.372 7.64 7.87 7.28
9/10/2021 3:45:00 AM 16.47 61.646 0.373 7.64 7.59 7.28
9/10/2021 4:00:00 AM 16.4 61.52 0.374 7.63 7.62 7.27
9/10/2021 4:15:00 AM 16.34 61.412 0.375 7.63 7.78 7.29
9/10/2021 4:30:00 AM 16.27 61.286 0.375 7.63 7.73 7.28
9/10/2021 4:45:00 AM 16.22 61.196 0.376 7.63 7.83 7.3
9/10/2021 5:00:00 AM 16.17 61.106 0.375 7.63 7.7 7.32
9/10/2021 5:15:00 AM 16.11 60.998 0.376 7.63 7.69 7.32
9/10/2021 5:30:00 AM 16.05 60.89 0.375 7.62 7.81 7.35
9/10/2021 5:45:00 AM 15.99 60.782 0.375 7.63 8.3 7.35
9/10/2021 6:00:00 AM 15.91 60.638 0.376 7.62 8.65 7.35
9/10/2021 6:15:00 AM 15.86 60.548 0.375 7.62 8.55 7.36
9/10/2021 6:30:00 AM 15.79 60.422 0.376 7.62 8.87 7.37
9/10/2021 6:45:00 AM 15.72 60.296 0.376 7.62 8.66 7.4
9/10/2021 7:00:00 AM 15.67 60.206 0.377 7.62 8.75 7.4
9/10/2021 7:15:00 AM 15.61 60.098 0.377 7.62 8.88 7.43
9/10/2021 7:30:00 AM 15.56 60.008 0.378 7.62 8.59 7.43
9/10/2021 7:45:00 AM 15.51 59.918 0.378 7.62 8.37 7.47
9/10/2021 8:00:00 AM 15.48 59.864 0.378 7.62 7.91 7.51
9/10/2021 8:15:00 AM 15.47 59.846 0.378 7.63 7.53 7.56
9/10/2021 8:30:00 AM 15.46 59.828 0.379 7.64 7.05 7.62
9/10/2021 8:45:00 AM 15.49 59.882 0.379 7.65 7.64 7.74
9/10/2021 9:00:00 AM 15.52 59.936 0.379 7.66 6.99 7.85
9/10/2021 9:15:00 AM 15.53 59.954 0.379 7.67 7.45 7.96
9/10/2021 9:30:00 AM 15.53 59.954 0.38 7.68 6.74 8.05
9/10/2021 9:45:00 AM 15.56 60.008 0.38 7.69 6.84 8.16
9/10/2021 10:00:00 AM 15.58 60.044 0.38 7.7 6.48 8.26
9/10/2021 10:15:00 AM 15.66 60.188 0.38 7.72 6.52 8.41
9/10/2021 10:30:00 AM 15.72 60.296 0.38 7.73 6.35 8.57
9/10/2021 10:45:00 AM 15.77 60.386 0.38 7.74 6.35 8.66
9/10/2021 11:00:00 AM 15.84 60.512 0.381 7.75 6.24 8.73
9/10/2021 11:15:00 AM 15.92 60.656 0.38 7.77 6.41 8.85
9/10/2021 11:30:00 AM 16.02 60.836 0.379 7.78 6.18 8.99
9/10/2021 11:45:00 AM 16.08 60.944 0.38 7.79 6.2 9.06
9/10/2021 12:00:00 PM 16.17 61.106 0.38 7.81 6.13 9.2
9/10/2021 12:15:00 PM 16.26 61.268 0.379 7.83 6.21 9.3
9/10/2021 12:30:00 PM 16.36 61.448 0.379 7.84 7.48 9.42
9/10/2021 12:45:00 PM 16.42 61.556 0.379 7.85 6.17 9.48
9/10/2021 1:00:00 PM 16.52 61.736 0.378 7.87 5.88 9.6
9/10/2021 1:15:00 PM 16.6 61.88 0.378 7.88 5.95 9.64
9/10/2021 1:30:00 PM 16.66 61.988 0.378 7.88 5.97 9.7
9/10/2021 1:45:00 PM 16.78 62.204 0.377 7.91 5.82 9.79
9/10/2021 2:00:00 PM 16.89 62.402 0.377 7.92 5.89 9.88
9/10/2021 2:15:00 PM 16.93 62.474 0.378 7.93 5.83 9.89
9/10/2021 2:30:00 PM 17.03 62.654 0.378 7.94 5.9 9.95
9/10/2021 2:45:00 PM 17.11 62.798 0.377 7.95 5.77 9.93
9/10/2021 3:00:00 PM 17.15 62.87 0.378 7.95 6.02 9.93
9/10/2021 3:15:00 PM 17.22 62.996 0.376 7.96 5.76 9.98
9/10/2021 3:30:00 PM 17.27 63.086 0.377 7.97 5.73 9.87
9/10/2021 3:45:00 PM 17.34 63.212 0.376 7.98 6.15 9.97
9/10/2021 4:00:00 PM 17.4 63.32 0.376 7.99 5.64 9.99
9/10/2021 4:15:00 PM 17.43 63.374 0.376 7.99 5.73 9.94
9/10/2021 4:30:00 PM 17.5 63.5 0.376 8 5.68 9.93
9/10/2021 4:45:00 PM 17.59 63.662 0.375 8.01 5.69 9.93
9/10/2021 5:00:00 PM 17.66 63.788 0.376 8.01 6.15 9.92
9/10/2021 5:15:00 PM 17.69 63.842 0.376 8.01 6.01 9.8
9/10/2021 5:30:00 PM 17.7 63.86 0.376 8 5.73 9.66
9/10/2021 5:45:00 PM 17.74 63.932 0.376 8 5.74 9.61
9/10/2021 6:00:00 PM 17.76 63.968 0.376 8 5.56 9.5
9/10/2021 6:15:00 PM 17.75 63.95 0.377 7.99 5.81 9.36
9/10/2021 6:30:00 PM 17.73 63.914 0.377 7.98 6.2 9.24
9/10/2021 6:45:00 PM 17.7 63.86 0.378 7.96 5.61 9.08
9/10/2021 7:00:00 PM 17.67 63.806 0.377 7.95 5.73 8.95
9/10/2021 7:15:00 PM 17.62 63.716 0.379 7.94 5.52 8.8
9/10/2021 7:30:00 PM 17.58 63.644 0.378 7.92 5.73 8.66
9/10/2021 7:45:00 PM 17.51 63.518 0.378 7.9 5.72 8.51
9/10/2021 8:00:00 PM 17.46 63.428 0.38 7.89 5.76 8.45
9/10/2021 8:15:00 PM 17.39 63.302 0.379 7.87 5.98 8.3
9/10/2021 8:30:00 PM 17.35 63.23 0.378 7.86 6.19 8.25
9/10/2021 8:45:00 PM 17.27 63.086 0.379 7.84 6.24 8.1
9/10/2021 9:00:00 PM 17.22 62.996 0.379 7.83 6.28 8.03
9/10/2021 9:15:00 PM 17.15 62.87 0.379 7.82 6.3 7.97
9/10/2021 9:30:00 PM 17.09 62.762 0.378 7.81 6.37 7.91
9/10/2021 9:45:00 PM 17.02 62.636 0.38 7.8 6.21 7.85
9/10/2021 10:00:00 PM 16.92 62.456 0.381 7.78 6.32 7.78
9/10/2021 10:15:00 PM 16.86 62.348 0.381 7.77 6.56 7.71
9/10/2021 10:30:00 PM 16.8 62.24 0.38 7.77 6.54 7.7
9/10/2021 10:45:00 PM 16.72 62.096 0.381 7.76 6.42 7.65
9/10/2021 11:00:00 PM 16.66 61.988 0.38 7.75 6.44 7.64
9/10/2021 11:15:00 PM 16.57 61.826 0.381 7.74 6.75 7.61
9/10/2021 11:30:00 PM 16.5 61.7 0.382 7.73 6.89 7.6
9/10/2021 11:45:00 PM 16.42 61.556 0.382 7.73 7.05 7.56
9/11/2021 12:00:00 AM 16.35 61.43 0.382 7.72 6.61 7.56
9/11/2021 12:15:00 AM 16.27 61.286 0.381 7.71 6.82 7.55
9/11/2021 12:30:00 AM 16.18 61.124 0.382 7.71 6.64 7.53
9/11/2021 12:45:00 AM 16.09 60.962 0.382 7.7 7.03 7.52
9/11/2021 1:00:00 AM 15.99 60.782 0.383 7.69 6.99 7.49
9/11/2021 1:15:00 AM 15.93 60.674 0.383 7.69 7.58 7.51
9/11/2021 1:30:00 AM 15.85 60.53 0.383 7.68 8.89 7.51
9/11/2021 1:45:00 AM 15.75 60.35 0.384 7.67 7.45 7.47
9/11/2021 2:00:00 AM 15.68 60.224 0.384 7.67 7.14 7.49
9/11/2021 2:15:00 AM 15.61 60.098 0.384 7.67 7.21 7.5
9/11/2021 2:30:00 AM 15.54 59.972 0.385 7.66 6.85 7.51
9/11/2021 2:45:00 AM 15.46 59.828 0.386 7.66 6.74 7.52
9/11/2021 3:00:00 AM 15.4 59.72 0.386 7.66 6.84 7.51
9/11/2021 3:15:00 AM 15.32 59.576 0.387 7.65 7.47 7.5
9/11/2021 3:30:00 AM 15.27 59.486 0.387 7.65 7.11 7.52
9/11/2021 3:45:00 AM 15.21 59.378 0.387 7.65 7.16 7.54
9/11/2021 4:00:00 AM 15.15 59.27 0.388 7.65 6.88 7.56
9/11/2021 4:15:00 AM 15.09 59.162 0.388 7.65 7.26 7.58
9/11/2021 4:30:00 AM 15.03 59.054 0.388 7.65 6.91 7.57
9/11/2021 4:45:00 AM 14.97 58.946 0.389 7.65 6.98 7.6
9/11/2021 5:00:00 AM 14.92 58.856 0.388 7.65 7.08 7.61
9/11/2021 5:15:00 AM 14.86 58.748 0.39 7.64 7.1 7.61
9/11/2021 5:30:00 AM 14.81 58.658 0.389 7.64 7.81 7.61
9/11/2021 5:45:00 AM 14.75 58.55 0.39 7.64 7.52 7.6
9/11/2021 6:00:00 AM 14.71 58.478 0.39 7.64 7.03 7.63
9/11/2021 6:15:00 AM 14.65 58.37 0.391 7.64 6.97 7.63
9/11/2021 6:30:00 AM 14.6 58.28 0.391 7.64 8.14 7.58
9/11/2021 6:45:00 AM 14.55 58.19 0.39 7.64 7.43 7.64
9/11/2021 7:00:00 AM 14.51 58.118 0.391 7.64 7.21 7.66
9/11/2021 7:15:00 AM 14.46 58.028 0.391 7.64 12.9 7.68
9/11/2021 7:30:00 AM 14.41 57.938 0.391 7.64 8.02 7.73
9/11/2021 7:45:00 AM 14.37 57.866 0.392 7.64 7.03 7.76
9/11/2021 8:00:00 AM 14.33 57.794 0.392 7.64 6.8 7.76
9/11/2021 8:15:00 AM 14.32 57.776 0.391 7.65 6.64 7.88
9/11/2021 8:30:00 AM 14.3 57.74 0.391 7.66 6.08 7.97
9/11/2021 8:45:00 AM 14.3 57.74 0.391 7.66 6.13 8.06
9/11/2021 9:00:00 AM 14.3 57.74 0.392 7.67 6.1 8.16
9/11/2021 9:15:00 AM 14.3 57.74 0.393 7.68 5.99 8.19
9/11/2021 9:30:00 AM 14.33 57.794 0.392 7.69 6.89 8.32
9/11/2021 9:45:00 AM 14.36 57.848 0.393 7.7 5.99 8.46
9/11/2021 10:00:00 AM 14.42 57.956 0.393 7.71 6.52 8.58
9/11/2021 10:15:00 AM 14.5 58.1 0.392 7.73 6.19 8.67
9/11/2021 10:30:00 AM 14.59 58.262 0.393 7.74 6.08 8.71
9/11/2021 10:45:00 AM 14.7 58.46 0.392 7.76 6.25 8.9
9/11/2021 11:00:00 AM 14.8 58.64 0.393 7.77 6.2 9.04
9/11/2021 11:15:00 AM 14.93 58.874 0.392 7.78 6.19 9.19
9/11/2021 11:30:00 AM 15.07 59.126 0.392 7.8 5.94 9.31
9/11/2021 11:45:00 AM 15.22 59.396 0.391 7.81 6.19 9.43
9/11/2021 12:00:00 PM 15.38 59.684 0.392 7.82 6.27 9.52
9/11/2021 12:15:00 PM 15.55 59.99 0.392 7.84 6.1 9.62
9/11/2021 12:30:00 PM 15.72 60.296 0.391 7.85 5.93 9.71
9/11/2021 12:45:00 PM 15.91 60.638 0.392 7.87 5.73 9.8
9/11/2021 1:00:00 PM 16.1 60.98 0.39 7.89 5.7 9.86
9/11/2021 1:15:00 PM 16.24 61.232 0.391 7.9 5.77 9.94
9/11/2021 1:30:00 PM 16.4 61.52 0.39 7.91 5.67 10.01
9/11/2021 1:45:00 PM 16.56 61.808 0.39 7.93 5.65 10.11
9/11/2021 2:00:00 PM 16.73 62.114 0.39 7.94 5.44 10.2
9/11/2021 2:15:00 PM 16.89 62.402 0.389 7.95 5.54 10.27
9/11/2021 2:30:00 PM 17.04 62.672 0.387 7.97 5.58 10.33
9/11/2021 2:45:00 PM 17.15 62.87 0.387 7.98 5.53 10.27
9/11/2021 3:00:00 PM 17.26 63.068 0.387 7.99 5.7 10.33
9/11/2021 3:15:00 PM 17.37 63.266 0.387 8 5.72 10.38
9/11/2021 3:30:00 PM 17.45 63.41 0.387 8.01 5.62 10.37
9/11/2021 3:45:00 PM 17.49 63.482 0.388 8.01 5.69 10.28
9/11/2021 4:00:00 PM 17.56 63.608 0.386 8.02 5.56 10.26
9/11/2021 4:15:00 PM 17.61 63.698 0.388 8.02 5.62 10.28
9/11/2021 4:30:00 PM 17.68 63.824 0.386 8.03 5.61 10.25
9/11/2021 4:45:00 PM 17.76 63.968 0.387 8.04 5.86 10.23
9/11/2021 5:00:00 PM 17.76 63.968 0.39 8.02 5.49 10.17
9/11/2021 5:15:00 PM 17.79 64.022 0.39 8.03 5.35 10.01
9/11/2021 5:30:00 PM 17.83 64.094 0.388 8.03 5.42 9.94
9/11/2021 5:45:00 PM 17.83 64.094 0.389 8.02 5.41 9.79
9/11/2021 6:00:00 PM 17.84 64.112 0.391 8.01 5.29 9.65
9/11/2021 6:15:00 PM 17.86 64.148 0.39 8 5.26 9.49
9/11/2021 6:30:00 PM 17.88 64.184 0.389 8 5.5 9.44
9/11/2021 6:45:00 PM 17.86 64.148 0.39 7.99 5.48 9.28
9/11/2021 7:00:00 PM 17.84 64.112 0.39 7.98 5.45 9.1
9/11/2021 7:15:00 PM 17.84 64.112 0.39 7.97 5.75 8.98
9/11/2021 7:30:00 PM 17.8 64.04 0.39 7.95 5.6 8.77
9/11/2021 7:45:00 PM 17.77 63.986 0.391 7.94 5.64 8.67
9/11/2021 8:00:00 PM 17.73 63.914 0.392 7.92 5.75 8.49
9/11/2021 8:15:00 PM 17.66 63.788 0.393 7.89 5.55 8.33
9/11/2021 8:30:00 PM 17.66 63.788 0.392 7.89 6.02 8.26
9/11/2021 8:45:00 PM 17.59 63.662 0.392 7.87 5.52 8.12
9/11/2021 9:00:00 PM 17.53 63.554 0.392 7.85 5.59 8.03
9/11/2021 9:15:00 PM 17.47 63.446 0.394 7.84 5.73 7.87
9/11/2021 9:30:00 PM 17.45 63.41 0.394 7.83 6.36 7.86
9/11/2021 9:45:00 PM 17.39 63.302 0.394 7.82 5.99 7.79
9/11/2021 10:00:00 PM 17.34 63.212 0.395 7.81 6.12 7.73
9/11/2021 10:15:00 PM 17.28 63.104 0.394 7.8 6.58 7.66
9/11/2021 10:30:00 PM 17.22 62.996 0.395 7.79 6.28 7.58
9/11/2021 10:45:00 PM 17.16 62.888 0.395 7.78 5.9 7.56
9/11/2021 11:00:00 PM 17.09 62.762 0.396 7.77 5.9 7.48
9/11/2021 11:15:00 PM 17.04 62.672 0.396 7.76 6.07 7.47
9/11/2021 11:30:00 PM 16.99 62.582 0.395 7.76 5.94 7.46
9/11/2021 11:45:00 PM 16.92 62.456 0.399 7.75 6.31 7.41
9/12/2021 12:00:00 AM 16.85 62.33 0.398 7.74 6.11 7.36
9/12/2021 12:15:00 AM 16.79 62.222 0.399 7.73 6.02 7.34
9/12/2021 12:30:00 AM 16.72 62.096 0.399 7.72 6.15 7.32
9/12/2021 12:45:00 AM 16.66 61.988 0.401 7.72 6.34 7.26
9/12/2021 1:00:00 AM 16.55 61.79 0.403 7.71 6.12 7.21
9/12/2021 1:15:00 AM 16.51 61.718 0.403 7.71 6.37 7.22
9/12/2021 1:30:00 AM 16.44 61.592 0.403 7.69 6.19 7.19
9/12/2021 1:45:00 AM 16.39 61.502 0.402 7.69 6.49 7.2
9/12/2021 2:00:00 AM 16.37 61.466 0.402 7.69 6.32 7.22
9/12/2021 2:15:00 AM 16.33 61.394 0.401 7.69 6.19 7.22
9/12/2021 2:30:00 AM 16.27 61.286 0.402 7.68 6.36 7.18
9/12/2021 2:45:00 AM 16.23 61.214 0.401 7.68 6.38 7.16
9/12/2021 3:00:00 AM 16.18 61.124 0.402 7.67 6.31 7.17
9/12/2021 3:15:00 AM 16.15 61.07 0.402 7.67 7 7.18
9/12/2021 3:30:00 AM 16.08 60.944 0.405 7.66 8 7.15
9/12/2021 3:45:00 AM 16.06 60.908 0.405 7.66 6.78 7.17
9/12/2021 4:00:00 AM 16.02 60.836 0.403 7.65 6.41 7.17
9/12/2021 4:15:00 AM 16.01 60.818 0.403 7.66 6.41 7.21
9/12/2021 4:30:00 AM 15.98 60.764 0.401 7.66 6.45 7.22
9/12/2021 4:45:00 AM 15.93 60.674 0.402 7.65 6.57 7.21
9/12/2021 5:00:00 AM 15.89 60.602 0.402 7.65 6.73 7.2
9/12/2021 5:15:00 AM 15.84 60.512 0.403 7.65 6.68 7.22
9/12/2021 5:30:00 AM 15.79 60.422 0.405 7.65 6.64 7.23
9/12/2021 5:45:00 AM 15.77 60.386 0.404 7.65 6.59 7.21
9/12/2021 6:00:00 AM 15.7 60.26 0.405 7.64 6.59 7.17
9/12/2021 6:15:00 AM 15.67 60.206 0.405 7.64 6.73 7.21
9/12/2021 6:30:00 AM 15.66 60.188 0.405 7.64 10.27 7.25
9/12/2021 6:45:00 AM 15.62 60.116 0.405 7.64 7.26 7.22
9/12/2021 7:00:00 AM 15.59 60.062 0.406 7.64 6.72 7.22
9/12/2021 7:15:00 AM 15.59 60.062 0.404 7.64 6.81 7.27
9/12/2021 7:30:00 AM 15.58 60.044 0.404 7.64 7 7.28
9/12/2021 7:45:00 AM 15.57 60.026 0.405 7.64 6.49 7.33
9/12/2021 8:00:00 AM 15.57 60.026 0.399 7.66 6.12 7.39
9/12/2021 8:15:00 AM 15.57 60.026 0.404 7.65 6.29 7.43
9/12/2021 8:30:00 AM 15.57 60.026 0.406 7.65 6.02 7.48
9/12/2021 8:45:00 AM 15.61 60.098 0.405 7.66 6.06 7.56
9/12/2021 9:00:00 AM 15.62 60.116 0.405 7.67 5.89 7.65
9/12/2021 9:15:00 AM 15.67 60.206 0.405 7.68 5.88 7.84
9/12/2021 9:30:00 AM 15.75 60.35 0.404 7.7 5.91 7.99
9/12/2021 9:45:00 AM 15.81 60.458 0.405 7.71 5.76 8.08
9/12/2021 10:00:00 AM 15.89 60.602 0.404 7.73 5.47 8.28
9/12/2021 10:15:00 AM 15.95 60.71 0.404 7.74 5.62 8.34
9/12/2021 10:30:00 AM 16.03 60.854 0.405 7.75 5.58 8.54
9/12/2021 10:45:00 AM 16.13 61.034 0.403 7.78 5.8 8.73
9/12/2021 11:00:00 AM 16.2 61.16 0.405 7.79 5.57 8.88
9/12/2021 11:15:00 AM 16.27 61.286 0.404 7.8 5.37 8.99
9/12/2021 11:30:00 AM 16.32 61.376 0.403 7.82 5.34 9.03
9/12/2021 11:45:00 AM 16.36 61.448 0.403 7.82 5.46 9.09
9/12/2021 12:00:00 PM 16.41 61.538 0.403 7.83 5.42 9.11
9/12/2021 12:15:00 PM 16.46 61.628 0.404 7.84 5.33 9.21
9/12/2021 12:30:00 PM 16.52 61.736 0.404 7.85 5.36 9.31
9/12/2021 12:45:00 PM 16.58 61.844 0.404 7.86 5.38 9.42
9/12/2021 1:00:00 PM 16.62 61.916 0.403 7.87 5.36 9.46
9/12/2021 1:15:00 PM 16.64 61.952 0.404 7.87 5.29 9.45
9/12/2021 1:30:00 PM 16.72 62.096 0.403 7.88 5.13 9.6
9/12/2021 1:45:00 PM 16.77 62.186 0.402 7.9 5.21 9.59
9/12/2021 2:00:00 PM 16.79 62.222 0.403 7.9 5.26 9.6
9/12/2021 2:15:00 PM 16.83 62.294 0.404 7.9 5.13 9.66
9/12/2021 2:30:00 PM 16.87 62.366 0.403 7.91 5.08 9.71
9/12/2021 2:45:00 PM 16.97 62.546 0.402 7.93 5.16 9.77
9/12/2021 3:00:00 PM 17.11 62.798 0.402 7.95 12.31 9.93
9/12/2021 3:15:00 PM 17.22 62.996 0.401 7.96 6.08 10.06
9/12/2021 3:30:00 PM 17.34 63.212 0.4 7.98 5.21 10.13
9/12/2021 3:45:00 PM 17.41 63.338 0.401 7.99 4.96 10.15
9/12/2021 4:00:00 PM 17.42 63.356 0.402 7.98 5.2 10.08
9/12/2021 4:15:00 PM 17.49 63.482 0.401 7.99 5.03 10.11
9/12/2021 4:30:00 PM 17.58 63.644 0.399 8.01 5 10.13
9/12/2021 4:45:00 PM 17.63 63.734 0.4 8.01 4.92 10.1
9/12/2021 5:00:00 PM 17.69 63.842 0.4 8.02 4.95 10.07
9/12/2021 5:15:00 PM 17.72 63.896 0.399 8.01 4.85 9.91
9/12/2021 5:30:00 PM 17.76 63.968 0.399 8 5.09 9.81
9/12/2021 5:45:00 PM 17.81 64.058 0.399 8 5.04 9.7
9/12/2021 6:00:00 PM 17.85 64.13 0.398 7.99 5.02 9.61
9/12/2021 6:15:00 PM 17.86 64.148 0.398 7.98 4.98 9.49
9/12/2021 6:30:00 PM 17.87 64.166 0.397 7.98 5.17 9.32
9/12/2021 6:45:00 PM 17.82 64.076 0.399 7.95 5.06 9.14
9/12/2021 7:00:00 PM 17.8 64.04 0.401 7.94 4.97 8.93
9/12/2021 7:15:00 PM 17.77 63.986 0.401 7.92 4.94 8.79
9/12/2021 7:30:00 PM 17.75 63.95 0.401 7.89 6.21 8.66
9/12/2021 7:45:00 PM 17.71 63.878 0.402 7.87 5.45 8.38
9/12/2021 8:00:00 PM 17.7 63.86 0.401 7.86 5.21 8.33
9/12/2021 8:15:00 PM 17.7 63.86 0.402 7.85 5.34 8.22
9/12/2021 8:30:00 PM 17.69 63.842 0.401 7.84 5.35 8.07
9/12/2021 8:45:00 PM 17.71 63.878 0.401 7.83 5.45 7.98
9/12/2021 9:00:00 PM 17.69 63.842 0.403 7.82 5.42 7.92
9/12/2021 9:15:00 PM 17.69 63.842 0.403 7.8 5.21 7.83
9/12/2021 9:30:00 PM 17.67 63.806 0.403 7.79 5.55 7.7
9/12/2021 9:45:00 PM 16.5 61.7 0.375 7.26 5.23 7.07
9/12/2021 10:00:00 PM 17.5 63.5 0.4 7.7 5.45 7.49
9/12/2021 10:15:00 PM 17.64 63.752 0.402 7.75 6.32 7.46
9/12/2021 10:30:00 PM 17.64 63.752 0.403 7.75 5.98 7.37
9/12/2021 10:45:00 PM 17.63 63.734 0.404 7.74 6.06 7.33
9/12/2021 11:00:00 PM 17.63 63.734 0.404 7.73 5.59 7.32
9/12/2021 11:15:00 PM 17.62 63.716 0.405 7.72 5.55 7.3
9/12/2021 11:30:00 PM 17.57 63.626 0.405 7.71 5.71 7.23
9/12/2021 11:45:00 PM 17.58 63.644 0.405 7.7 5.68 7.19
9/13/2021 12:00:00 AM 17.58 63.644 0.404 7.7 5.45 7.16
9/13/2021 12:15:00 AM 17.57 63.626 0.405 7.69 5.56 7.06
9/13/2021 12:30:00 AM 17.6 63.68 0.405 7.69 5.61 7.08
9/13/2021 12:45:00 AM 17.58 63.644 0.406 7.68 5.45 7.06
9/13/2021 1:00:00 AM 17.56 63.608 0.407 7.67 5.58 7.03
9/13/2021 1:15:00 AM 17.58 63.644 0.407 7.67 5.76 7.02
9/13/2021 1:30:00 AM 17.55 63.59 0.407 7.66 5.6 6.98
9/13/2021 1:45:00 AM 17.53 63.554 0.406 7.66 5.6 6.96
9/13/2021 2:00:00 AM 17.33 63.194 0.412 7.62 6.03 6.68
9/13/2021 2:15:00 AM 17.44 63.392 0.408 7.64 5.95 6.82
9/13/2021 2:30:00 AM 17.52 63.536 0.406 7.65 6.16 6.94
9/13/2021 2:45:00 AM 17.53 63.554 0.405 7.65 6.07 6.95
9/13/2021 3:00:00 AM 17.52 63.536 0.405 7.65 5.91 6.94
9/13/2021 3:15:00 AM 17.5 63.5 0.406 7.65 6.89 6.94
9/13/2021 3:30:00 AM 17.48 63.464 0.405 7.64 6.62 6.93
9/13/2021 3:45:00 AM 17.46 63.428 0.405 7.64 6.34 6.94
9/13/2021 4:00:00 AM 17.43 63.374 0.405 7.64 6.51 6.89
9/13/2021 4:15:00 AM 17.4 63.32 0.404 7.63 6.5 6.86
9/13/2021 4:30:00 AM 17.38 63.284 0.405 7.63 6.47 6.86
9/13/2021 4:45:00 AM 17.36 63.248 0.404 7.63 6.5 6.88
9/13/2021 5:00:00 AM 17.33 63.194 0.406 7.63 6.35 6.86
9/13/2021 5:15:00 AM 17.31 63.158 0.404 7.63 6.11 6.86
9/13/2021 5:30:00 AM 17.26 63.068 0.406 7.62 5.87 6.82
9/13/2021 5:45:00 AM 17.24 63.032 0.404 7.63 6.2 6.86
9/13/2021 6:00:00 AM 17.2 62.96 0.406 7.62 6.34 6.88
9/13/2021 6:15:00 AM 17.18 62.924 0.406 7.62 6.69 6.85
9/13/2021 6:30:00 AM 17.17 62.906 0.405 7.62 6.66 6.86
9/13/2021 6:45:00 AM 17.11 62.798 0.407 7.61 6.61 6.81
9/13/2021 7:00:00 AM 17.1 62.78 0.406 7.61 6.81 6.8
9/13/2021 7:15:00 AM 17.05 62.69 0.408 7.61 6.49 6.76
9/13/2021 7:30:00 AM 17.07 62.726 0.406 7.61 6.56 6.85
9/13/2021 7:45:00 AM 17.04 62.672 0.406 7.62 6.69 6.88
9/13/2021 8:00:00 AM 17.02 62.636 0.407 7.62 6.08 6.91
9/13/2021 8:15:00 AM 17.04 62.672 0.406 7.63 5.97 6.99
9/13/2021 8:30:00 AM 17.03 62.654 0.407 7.64 5.83 7.08
9/13/2021 8:45:00 AM 17.02 62.636 0.407 7.64 5.6 7.14
9/13/2021 9:00:00 AM 17.03 62.654 0.406 7.64 5.6 7.21
9/13/2021 9:15:00 AM 17.03 62.654 0.408 7.65 5.46 7.3
9/13/2021 9:30:00 AM 17.02 62.636 0.409 7.66 5.23 7.38
9/13/2021 9:45:00 AM 17.05 62.69 0.407 7.67 5.43 7.48
9/13/2021 10:00:00 AM 17.04 62.672 0.407 7.68 5.26 7.59
9/13/2021 10:15:00 AM 17.05 62.69 0.407 7.69 5.16 7.7
9/13/2021 10:30:00 AM 17.08 62.744 0.409 7.71 5 7.86
9/13/2021 10:45:00 AM 17.09 62.762 0.408 7.72 5.08 8
9/13/2021 11:00:00 AM 17.15 62.87 0.407 7.74 5.08 8.23
9/13/2021 11:15:00 AM 17.21 62.978 0.407 7.76 5.05 8.41
9/13/2021 11:30:00 AM 17.27 63.086 0.405 7.78 5.15 8.6
9/13/2021 11:45:00 AM 17.31 63.158 0.406 7.79 5.33 8.7
9/13/2021 12:00:00 PM 17.38 63.284 0.406 7.8 5.08 8.85
9/13/2021 12:15:00 PM 17.47 63.446 0.405 7.82 5.14 8.98
9/13/2021 12:30:00 PM 17.56 63.608 0.404 7.84 5.04 9.14
9/13/2021 12:45:00 PM 17.67 63.806 0.404 7.86 5.03 9.32
9/13/2021 1:00:00 PM 17.74 63.932 0.404 7.88 5.21 9.46
9/13/2021 1:15:00 PM 17.86 64.148 0.403 7.9 5.13 9.66
9/13/2021 1:30:00 PM 17.96 64.328 0.402 7.92 5 9.8
9/13/2021 1:45:00 PM 18.1 64.58 0.402 7.95 4.95 9.94
9/13/2021 2:00:00 PM 18.23 64.814 0.401 7.97 4.99 10.01
9/13/2021 2:15:00 PM 18.35 65.03 0.401 7.98 5.36 10.09
9/13/2021 2:30:00 PM 18.45 65.21 0.401 7.99 5.42 10.15
9/13/2021 2:45:00 PM 18.53 65.354 0.403 8 5.17 10.19
9/13/2021 3:00:00 PM 18.59 65.462 0.401 8.01 4.82 10.27
9/13/2021 3:15:00 PM 18.68 65.624 0.401 8.02 4.82 10.3
9/13/2021 3:30:00 PM 18.77 65.786 0.401 8.04 4.99 10.41
9/13/2021 3:45:00 PM 18.85 65.93 0.4 8.05 5.09 10.44
9/13/2021 4:00:00 PM 18.87 65.966 0.402 8.05 4.9 10.41
9/13/2021 4:15:00 PM 18.92 66.056 0.4 8.06 4.88 10.42
9/13/2021 4:30:00 PM 18.97 66.146 0.4 8.07 4.85 10.37
9/13/2021 4:45:00 PM 18.97 66.146 0.4 8.06 4.86 10.3
9/13/2021 5:00:00 PM 18.99 66.182 0.4 8.06 4.9 10.26
9/13/2021 5:15:00 PM 18.98 66.164 0.4 8.06 4.9 10.14
9/13/2021 5:30:00 PM 19.01 66.218 0.4 8.07 4.84 10.08
9/13/2021 5:45:00 PM 18.95 66.11 0.401 8.05 4.74 9.86
9/13/2021 6:00:00 PM 18.94 66.092 0.4 8.04 4.76 9.79
9/13/2021 6:15:00 PM 18.93 66.074 0.402 8.04 4.68 9.66
9/13/2021 6:30:00 PM 18.93 66.074 0.4 8.03 4.72 9.52
9/13/2021 6:45:00 PM 18.9 66.02 0.4 8.02 4.81 9.37
9/13/2021 7:00:00 PM 18.85 65.93 0.4 8 4.78 9.2
9/13/2021 7:15:00 PM 18.8 65.84 0.4 7.98 4.78 8.98
9/13/2021 7:30:00 PM 18.77 65.786 0.4 7.97 5.07 8.82
9/13/2021 7:45:00 PM 18.73 65.714 0.402 7.95 4.86 8.62
9/13/2021 8:00:00 PM 18.66 65.588 0.401 7.92 4.91 8.4
9/13/2021 8:15:00 PM 18.63 65.534 0.401 7.91 5.01 8.24
9/13/2021 8:30:00 PM 18.62 65.516 0.4 7.89 5.49 8.17
9/13/2021 8:45:00 PM 18.6 65.48 0.401 7.89 5.13 8.04
9/13/2021 9:00:00 PM 18.59 65.462 0.4 7.87 5.24 7.91
9/13/2021 9:15:00 PM 18.56 65.408 0.401 7.86 5.16 7.79
9/13/2021 9:30:00 PM 18.52 65.336 0.402 7.84 5.15 7.66
9/13/2021 9:45:00 PM 18.53 65.354 0.401 7.83 5.47 7.59
9/13/2021 10:00:00 PM 18.48 65.264 0.401 7.82 5.32 7.48
9/13/2021 10:15:00 PM 18.45 65.21 0.401 7.8 5.77 7.38
9/13/2021 10:30:00 PM 18.4 65.12 0.402 7.79 5.88 7.28
9/13/2021 10:45:00 PM 18.38 65.084 0.402 7.78 5.46 7.25
9/13/2021 11:00:00 PM 18.34 65.012 0.404 7.78 5.37 7.19
9/13/2021 11:15:00 PM 18.3 64.94 0.404 7.77 6.36 7.16
9/13/2021 11:30:00 PM 18.26 64.868 0.399 7.76 5.6 7.07
9/13/2021 11:45:00 PM 18.2 64.76 0.405 7.75 5.36 7.02
9/14/2021 12:00:00 AM 18.16 64.688 0.405 7.74 5.24 7.02
9/14/2021 12:15:00 AM 18.1 64.58 0.405 7.73 5.66 6.99
9/14/2021 12:30:00 AM 18.05 64.49 0.404 7.73 5.78 7
9/14/2021 12:45:00 AM 17.92 64.256 0.405 7.71 5.65 6.92
9/14/2021 1:00:00 AM 17.92 64.256 0.404 7.71 5.62 6.91
9/14/2021 1:15:00 AM 17.92 64.256 0.403 7.71 5.48 6.92
9/14/2021 1:30:00 AM 17.84 64.112 0.404 7.7 5.6 6.9
9/14/2021 1:45:00 AM 17.81 64.058 0.404 7.7 5.6 6.9
9/14/2021 2:00:00 AM 17.78 64.004 0.403 7.7 5.63 6.94
9/14/2021 2:15:00 AM 17.71 63.878 0.402 7.68 5.98 6.9
9/14/2021 2:30:00 AM 17.69 63.842 0.402 7.68 6.57 6.9
9/14/2021 2:45:00 AM 17.64 63.752 0.402 7.68 6.07 6.86
9/14/2021 3:00:00 AM 17.61 63.698 0.402 7.67 5.68 6.84
9/14/2021 3:15:00 AM 17.56 63.608 0.402 7.66 5.78 6.82
9/14/2021 3:30:00 AM 17.53 63.554 0.402 7.66 5.86 6.87
9/14/2021 3:45:00 AM 17.5 63.5 0.402 7.66 6.04 6.83
9/14/2021 4:00:00 AM 17.44 63.392 0.402 7.65 6.06 6.83
9/14/2021 4:15:00 AM 17.4 63.32 0.402 7.65 6.35 6.81
9/14/2021 4:30:00 AM 17.37 63.266 0.403 7.65 6.26 6.8
9/14/2021 4:45:00 AM 17.33 63.194 0.404 7.64 6.19 6.82
9/14/2021 5:00:00 AM 17.29 63.122 0.403 7.64 6.14 6.79
9/14/2021 5:15:00 AM 17.27 63.086 0.402 7.63 5.91 6.79
9/14/2021 5:30:00 AM 17.24 63.032 0.402 7.63 6.2 6.78
9/14/2021 5:45:00 AM 17.2 62.96 0.403 7.62 6.46 6.76
9/14/2021 6:00:00 AM 17.18 62.924 0.402 7.62 6.19 6.77
9/14/2021 6:15:00 AM 17.16 62.888 0.402 7.62 6 6.74
9/14/2021 6:30:00 AM 17.15 62.87 0.401 7.62 14.32 6.78
9/14/2021 6:45:00 AM 17.11 62.798 0.402 7.61 7.97 6.75
9/14/2021 7:00:00 AM 17.09 62.762 0.403 7.61 6.55 6.75
9/14/2021 7:15:00 AM 17.08 62.744 0.402 7.61 6.22 6.76
9/14/2021 7:30:00 AM 17.07 62.726 0.403 7.61 6.21 6.78
9/14/2021 7:45:00 AM 17.07 62.726 0.401 7.62 6.38 6.84
9/14/2021 8:00:00 AM 17.07 62.726 0.401 7.62 5.9 6.9
9/14/2021 8:15:00 AM 17.07 62.726 0.401 7.62 6.14 6.93
9/14/2021 8:30:00 AM 17.08 62.744 0.402 7.63 5.78 7.01
9/14/2021 8:45:00 AM 17.09 62.762 0.402 7.64 5.58 7.11
9/14/2021 9:00:00 AM 17.11 62.798 0.402 7.65 5.65 7.23
9/14/2021 9:15:00 AM 17.14 62.852 0.402 7.66 5.51 7.36
9/14/2021 9:30:00 AM 17.18 62.924 0.4 7.67 5.62 7.49
9/14/2021 9:45:00 AM 17.23 63.014 0.4 7.68 5.89 7.67
9/14/2021 10:00:00 AM 17.29 63.122 0.399 7.7 5.36 7.83
9/14/2021 10:15:00 AM 17.36 63.248 0.399 7.71 5.41 7.96
9/14/2021 10:30:00 AM 17.41 63.338 0.399 7.73 5.63 8.09
9/14/2021 10:45:00 AM 17.46 63.428 0.398 7.75 5.48 8.27
9/14/2021 11:00:00 AM 17.53 63.554 0.399 7.76 5.14 8.43
9/14/2021 11:15:00 AM 17.63 63.734 0.398 7.79 5.29 8.65
9/14/2021 11:30:00 AM 17.7 63.86 0.398 7.81 5.17 8.82
9/14/2021 11:45:00 AM 17.76 63.968 0.398 7.82 5.17 8.93
9/14/2021 12:00:00 PM 17.83 64.094 0.398 7.83 5.07 9.04
9/14/2021 12:15:00 PM 17.93 64.274 0.398 7.86 5.02 9.19
9/14/2021 12:30:00 PM 18.06 64.508 0.399 7.88 5.07 9.35
9/14/2021 12:45:00 PM 18.21 64.778 0.398 7.9 4.87 9.5
9/14/2021 1:00:00 PM 18.36 65.048 0.398 7.92 4.84 9.66
9/14/2021 1:15:00 PM 18.53 65.354 0.397 7.93 4.96 9.75
9/14/2021 1:30:00 PM 18.69 65.642 0.396 7.95 4.78 9.82
9/14/2021 1:45:00 PM 18.88 65.984 0.395 7.98 5.48 10
9/14/2021 2:00:00 PM 19.07 66.326 0.393 8.01 5.09 10.11
9/14/2021 2:15:00 PM 19.22 66.596 0.395 8.03 41.86 10.14
9/14/2021 2:30:00 PM 19.4 66.92 0.393 8.05 8.56 10.08
9/14/2021 2:45:00 PM 18.38 65.084 0.366 7.57 11.86 9.65
9/14/2021 3:00:00 PM 19.57 67.226 0.385 8.03 12.5 10.24
9/14/2021 3:15:00 PM 19.84 67.712 0.385 8.11 14.42 10.35
9/14/2021 3:30:00 PM 19.97 67.946 0.378 8.12 8.39 10.4
9/14/2021 3:45:00 PM 20.04 68.07201 0.371 8.13 6.96 10.4
9/14/2021 4:00:00 PM 20.09 68.162 0.374 8.13 7.45 10.33
9/14/2021 4:15:00 PM 20.13 68.234 0.373 8.14 5.81 10.32
9/14/2021 4:30:00 PM 20.2 68.36 0.371 8.15 5.34 10.32
9/14/2021 4:45:00 PM 20.27 68.486 0.368 8.16 5.05 10.26
9/14/2021 5:00:00 PM 20.31 68.558 0.368 8.17 5.24 10.07
9/14/2021 5:15:00 PM 20.34 68.612 0.365 8.16 7.13 9.98
9/14/2021 5:30:00 PM 20.39 68.702 0.364 8.16 5.59 9.86
9/14/2021 5:45:00 PM 20.44 68.792 0.362 8.16 6.57 9.75
9/14/2021 6:00:00 PM 20.48 68.864 0.361 8.15 5.96 9.61
9/14/2021 6:15:00 PM 20.5 68.9 0.36 8.14 5.38 9.44
9/14/2021 6:30:00 PM 20.5 68.9 0.359 8.12 5.34 9.25
9/14/2021 6:45:00 PM 20.51 68.918 0.356 8.1 5.96 9.05
9/14/2021 7:00:00 PM 20.47 68.846 0.355 8.08 5.46 8.85
9/14/2021 7:15:00 PM 20.43 68.774 0.353 8.05 5.69 8.68
9/14/2021 7:30:00 PM 20.38 68.684 0.352 8.02 5.44 8.53
9/14/2021 7:45:00 PM 20.34 68.612 0.35 7.99 5.47 8.33
9/14/2021 8:00:00 PM 20.28 68.504 0.349 7.97 5.74 8.22
9/14/2021 8:15:00 PM 20.23 68.414 0.348 7.94 6.68 8.1
9/14/2021 8:30:00 PM 20.18 68.324 0.345 7.92 5.8 7.93
9/14/2021 8:45:00 PM 20.12 68.216 0.345 7.89 7.47 7.8
9/14/2021 9:00:00 PM 20.06 68.108 0.344 7.87 6 7.66
9/14/2021 9:15:00 PM 20.01 68.018 0.343 7.85 5.5 7.55
9/14/2021 9:30:00 PM 19.96 67.92799 0.343 7.83 5.51 7.48
9/14/2021 9:45:00 PM 19.91 67.838 0.343 7.81 5.77 7.38
9/14/2021 10:00:00 PM 19.86 67.748 0.343 7.79 5.51 7.3
9/14/2021 10:15:00 PM 19.8 67.64 0.343 7.77 5.67 7.19
9/14/2021 10:30:00 PM 19.75 67.55 0.344 7.76 5.81 7.18
9/14/2021 10:45:00 PM 19.71 67.478 0.344 7.75 5.7 7.08
9/14/2021 11:00:00 PM 19.66 67.388 0.345 7.74 5.68 7.01
9/14/2021 11:15:00 PM 19.59 67.262 0.346 7.72 5.87 6.99
9/14/2021 11:30:00 PM 19.55 67.19 0.345 7.71 6.41 6.97
9/14/2021 11:45:00 PM 19.5 67.1 0.345 7.71 5.81 6.96
9/15/2021 12:00:00 AM 19.45 67.01 0.345 7.7 5.82 6.9
9/15/2021 12:15:00 AM 19.4 66.92 0.345 7.69 5.99 6.92
9/15/2021 12:30:00 AM 19.35 66.83 0.346 7.68 6.21 6.87
9/15/2021 12:45:00 AM 19.29 66.722 0.346 7.67 6.03 6.85
9/15/2021 1:00:00 AM 19.24 66.632 0.346 7.66 6.17 6.82
9/15/2021 1:15:00 AM 19.19 66.542 0.346 7.66 6.15 6.83
9/15/2021 1:30:00 AM 19.13 66.434 0.347 7.65 6.03 6.77
9/15/2021 1:45:00 AM 19.09 66.362 0.346 7.64 6.28 6.75
9/15/2021 2:00:00 AM 19.04 66.272 0.347 7.64 6.34 6.75
9/15/2021 2:15:00 AM 19.01 66.218 0.347 7.64 6.54 6.75
9/15/2021 2:30:00 AM 18.96 66.128 0.347 7.63 6.85 6.76
9/15/2021 2:45:00 AM 18.93 66.074 0.348 7.62 6.71 6.75
9/15/2021 3:00:00 AM 18.89 66.002 0.348 7.62 6.72 6.75
9/15/2021 3:15:00 AM 18.85 65.93 0.349 7.62 6.52 6.75
9/15/2021 3:30:00 AM 18.8 65.84 0.35 7.62 6.38 6.72
9/15/2021 3:45:00 AM 18.77 65.786 0.351 7.62 6.51 6.73
9/15/2021 4:00:00 AM 18.73 65.714 0.353 7.61 6.68 6.75
9/15/2021 4:15:00 AM 18.68 65.624 0.353 7.61 6.85 6.75
9/15/2021 4:30:00 AM 18.65 65.57 0.355 7.61 6.86 6.74
9/15/2021 4:45:00 AM 18.62 65.516 0.355 7.61 7.08 6.72
9/15/2021 5:00:00 AM 18.58 65.444 0.357 7.61 7.27 6.71
9/15/2021 5:15:00 AM 18.55 65.39 0.358 7.6 6.95 6.69
9/15/2021 5:30:00 AM 18.51 65.318 0.358 7.61 7 6.75
9/15/2021 5:45:00 AM 18.46 65.228 0.359 7.61 6.99 6.78
9/15/2021 6:00:00 AM 18.42 65.156 0.359 7.61 6.73 6.75
9/15/2021 6:15:00 AM 18.39 65.102 0.359 7.6 6.9 6.75
9/15/2021 6:30:00 AM 18.36 65.048 0.36 7.6 7 6.8
9/15/2021 6:45:00 AM 18.32 64.976 0.361 7.6 6.97 6.74
9/15/2021 7:00:00 AM 18.29 64.922 0.361 7.6 6.87 6.74
9/15/2021 7:15:00 AM 18.27 64.886 0.361 7.6 6.84 6.8
9/15/2021 7:30:00 AM 18.25 64.85 0.36 7.6 6.81 6.79
9/15/2021 7:45:00 AM 18.23 64.814 0.359 7.6 6.63 6.88
9/15/2021 8:00:00 AM 18.22 64.796 0.36 7.61 6.42 6.98
9/15/2021 8:15:00 AM 18.19 64.742 0.36 7.61 6.52 6.95
9/15/2021 8:30:00 AM 18.2 64.76 0.359 7.62 6.73 7.04
9/15/2021 8:45:00 AM 18.19 64.742 0.359 7.62 6.86 7.16
9/15/2021 9:00:00 AM 18.2 64.76 0.359 7.63 6.19 7.28
9/15/2021 9:15:00 AM 18.21 64.778 0.359 7.64 6.02 7.26
9/15/2021 9:30:00 AM 18.22 64.796 0.359 7.65 5.92 7.46
9/15/2021 9:45:00 AM 18.26 64.868 0.36 7.66 6 7.61
9/15/2021 10:00:00 AM 18.33 64.994 0.36 7.68 6 7.84
9/15/2021 10:15:00 AM 18.42 65.156 0.36 7.71 5.85 8.09
9/15/2021 10:30:00 AM 18.51 65.318 0.359 7.73 5.89 8.32
9/15/2021 10:45:00 AM 18.57 65.426 0.361 7.75 5.67 8.46
9/15/2021 11:00:00 AM 18.72 65.696 0.36 7.78 5.77 8.74
9/15/2021 11:15:00 AM 18.81 65.858 0.36 7.81 5.69 8.92
9/15/2021 11:30:00 AM 18.9 66.02 0.361 7.83 5.56 9.05
9/15/2021 11:45:00 AM 18.97 66.146 0.361 7.84 5.56 9.15
9/15/2021 12:00:00 PM 19.03 66.254 0.36 7.86 5.52 9.25
9/15/2021 12:15:00 PM 19.07 66.326 0.361 7.87 5.44 9.28
9/15/2021 12:30:00 PM 19.09 66.362 0.362 7.87 5.32 9.2
9/15/2021 12:45:00 PM 19.1 66.38 0.362 7.87 5.41 9.16
9/15/2021 1:00:00 PM 19.12 66.416 0.36 7.87 5.41 9.09
9/15/2021 1:15:00 PM 19.15 66.47 0.361 7.89 5.54 9.17
9/15/2021 1:30:00 PM 19.16 66.488 0.363 7.9 5.4 9.26
9/15/2021 1:45:00 PM 19.17 66.506 0.361 7.91 5.29 9.29
9/15/2021 2:00:00 PM 19.21 66.578 0.362 7.92 5.36 9.31
9/15/2021 2:15:00 PM 19.19 66.542 0.363 7.91 5.31 9.2
9/15/2021 2:30:00 PM 19.15 66.47 0.362 7.89 5.3 9.01
9/15/2021 2:45:00 PM 19.12 66.416 0.364 7.88 5.13 8.91
9/15/2021 3:00:00 PM 19.11 66.398 0.363 7.88 5.23 8.94
9/15/2021 3:15:00 PM 19.11 66.398 0.362 7.89 5.17 8.97
9/15/2021 3:30:00 PM 19.08 66.344 0.361 7.89 5.32 8.81
9/15/2021 3:45:00 PM 19.06 66.308 0.36 7.9 5.64 8.89
9/15/2021 4:00:00 PM 19.08 66.344 0.361 7.91 5.5 8.91
9/15/2021 4:15:00 PM 19.09 66.362 0.361 7.91 5.59 8.9
9/15/2021 4:30:00 PM 19.11 66.398 0.362 7.91 5.77 8.84
9/15/2021 4:45:00 PM 19.12 66.416 0.362 7.9 5.82 8.76
9/15/2021 5:00:00 PM 19.1 66.38 0.362 7.89 5.74 8.58
9/15/2021 5:15:00 PM 19.11 66.398 0.361 7.88 5.81 8.46
9/15/2021 5:30:00 PM 19.1 66.38 0.359 7.87 5.73 8.4
9/15/2021 5:45:00 PM 19.07 66.326 0.36 7.86 5.77 8.32
9/15/2021 6:00:00 PM 19.04 66.272 0.36 7.85 5.76 8.24
9/15/2021 6:15:00 PM 19.03 66.254 0.359 7.85 5.92 8.2
9/15/2021 6:30:00 PM 19 66.2 0.36 7.84 5.86 8.13
9/15/2021 6:45:00 PM 18.96 66.128 0.36 7.83 7.07 8.04
9/15/2021 7:00:00 PM 18.92 66.056 0.359 7.81 6.49 7.91
9/15/2021 7:15:00 PM 18.88 65.984 0.359 7.8 6.14 7.83
9/15/2021 7:30:00 PM 18.84 65.912 0.357 7.78 6.22 7.74
9/15/2021 7:45:00 PM 18.8 65.84 0.356 7.77 6.33 7.64
9/15/2021 8:00:00 PM 18.74 65.732 0.356 7.75 6.66 7.58
9/15/2021 8:15:00 PM 18.69 65.642 0.356 7.74 6.64 7.49
9/15/2021 8:30:00 PM 18.63 65.534 0.355 7.72 6.76 7.43
9/15/2021 8:45:00 PM 18.58 65.444 0.355 7.72 6.72 7.34
9/15/2021 9:00:00 PM 18.52 65.336 0.356 7.71 6.64 7.31
9/15/2021 9:15:00 PM 17.41 63.338 0.337 7.26 6.1 6.84
9/15/2021 9:30:00 PM 18.26 64.868 0.355 7.64 6.47 7.17
9/15/2021 9:45:00 PM 18.34 65.012 0.357 7.68 6.66 7.18
9/15/2021 10:00:00 PM 18.29 64.922 0.359 7.68 6.3 7.13
9/15/2021 10:15:00 PM 18.26 64.868 0.358 7.68 6.42 7.17
9/15/2021 10:30:00 PM 18.22 64.796 0.359 7.67 6.45 7.16
9/15/2021 10:45:00 PM 18.16 64.688 0.359 7.67 6.46 7.14
9/15/2021 11:00:00 PM 18.13 64.634 0.359 7.66 6.35 7.13
9/15/2021 11:15:00 PM 18.08 64.544 0.36 7.66 6.8 7.1
9/15/2021 11:30:00 PM 18.06 64.508 0.36 7.66 6.45 7.12
9/15/2021 11:45:00 PM 18.02 64.436 0.36 7.65 6.29 7.1
9/16/2021 12:00:00 AM 17.97 64.346 0.361 7.65 6.42 7.1
9/16/2021 12:15:00 AM 17.94 64.292 0.361 7.65 6.32 7.06
9/16/2021 12:30:00 AM 17.92 64.256 0.361 7.64 6.22 7.09
9/16/2021 12:45:00 AM 17.89 64.202 0.361 7.64 6.63 7.08
9/16/2021 1:00:00 AM 17.85 64.13 0.361 7.64 6.32 7.06
9/16/2021 1:15:00 AM 17.83 64.094 0.362 7.63 6.35 7.08
9/16/2021 1:30:00 AM 17.8 64.04 0.361 7.63 6.81 7.08
9/16/2021 1:45:00 AM 17.78 64.004 0.36 7.63 6.65 7.1
9/16/2021 2:00:00 AM 17.76 63.968 0.36 7.63 6.8 7.09
9/16/2021 2:15:00 AM 17.74 63.932 0.359 7.63 7.01 7.1
9/16/2021 2:30:00 AM 17.73 63.914 0.358 7.63 7.33 7.11
9/16/2021 2:45:00 AM 17.72 63.896 0.358 7.63 7.2 7.12
9/16/2021 3:00:00 AM 17.72 63.896 0.356 7.63 6.91 7.15
9/16/2021 3:15:00 AM 17.7 63.86 0.355 7.63 6.93 7.16
9/16/2021 3:30:00 AM 17.68 63.824 0.354 7.63 7.12 7.19
9/16/2021 3:45:00 AM 17.65 63.77 0.354 7.63 7.57 7.21
9/16/2021 4:00:00 AM 17.63 63.734 0.353 7.63 7.55 7.23
9/16/2021 4:15:00 AM 17.62 63.716 0.351 7.64 7.43 7.24
9/16/2021 4:30:00 AM 17.58 63.644 0.351 7.63 7.62 7.25
9/16/2021 4:45:00 AM 17.56 63.608 0.35 7.63 8.39 7.26
9/16/2021 5:00:00 AM 17.54 63.572 0.349 7.64 8.88 7.28
9/16/2021 5:15:00 AM 17.51 63.518 0.349 7.63 8.32 7.29
9/16/2021 5:30:00 AM 17.5 63.5 0.348 7.64 8.24 7.31
9/16/2021 5:45:00 AM 17.48 63.464 0.347 7.64 7.65 7.31
9/16/2021 6:00:00 AM 17.45 63.41 0.347 7.64 7.65 7.32
9/16/2021 6:15:00 AM 17.43 63.374 0.347 7.64 7.67 7.29
9/16/2021 6:30:00 AM 17.41 63.338 0.346 7.64 8.2 7.34
9/16/2021 6:45:00 AM 17.38 63.284 0.345 7.64 8.97 7.34
9/16/2021 7:00:00 AM 17.36 63.248 0.345 7.64 8.13 7.36
9/16/2021 7:15:00 AM 17.32 63.176 0.344 7.64 9.36 7.33
9/16/2021 7:30:00 AM 17.29 63.122 0.342 7.63 7.92 7.31
9/16/2021 7:45:00 AM 17.25 63.05 0.341 7.64 7.47 7.36
9/16/2021 8:00:00 AM 17.21 62.978 0.34 7.64 7.28 7.44
9/16/2021 8:15:00 AM 17.18 62.924 0.338 7.64 6.95 7.41
9/16/2021 8:30:00 AM 17.15 62.87 0.337 7.65 7.03 7.48
9/16/2021 8:45:00 AM 17.12 62.816 0.337 7.64 6.83 7.55
9/16/2021 9:00:00 AM 17.1 62.78 0.335 7.66 6.91 7.63
9/16/2021 9:15:00 AM 17.08 62.744 0.334 7.66 6.73 7.76
9/16/2021 9:30:00 AM 17.06 62.708 0.334 7.67 6.73 7.84
9/16/2021 9:45:00 AM 17.06 62.708 0.333 7.67 6.39 7.96
9/16/2021 10:00:00 AM 17.05 62.69 0.333 7.69 6.28 8.1
9/16/2021 10:15:00 AM 17.04 62.672 0.332 7.7 6.17 8.16
9/16/2021 10:30:00 AM 17.07 62.726 0.332 7.71 6.73 8.33
9/16/2021 10:45:00 AM 17.12 62.816 0.331 7.74 6.25 8.49
9/16/2021 11:00:00 AM 17.17 62.906 0.331 7.76 6.24 8.68
9/16/2021 11:15:00 AM 17.28 63.104 0.33 7.78 6.23 8.88
9/16/2021 11:30:00 AM 17.37 63.266 0.33 7.8 6.13 9
9/16/2021 11:45:00 AM 17.4 63.32 0.33 7.81 6.19 9.07
9/16/2021 12:00:00 PM 17.43 63.374 0.329 7.82 6.19 9.14
9/16/2021 12:15:00 PM 17.48 63.464 0.329 7.84 6.16 9.34
9/16/2021 12:30:00 PM 17.54 63.572 0.328 7.87 6.13 9.51
9/16/2021 12:45:00 PM 17.59 63.662 0.328 7.89 6 9.59
9/16/2021 1:00:00 PM 17.66 63.788 0.328 7.91 5.85 9.73
9/16/2021 1:15:00 PM 17.77 63.986 0.328 7.94 5.82 9.81
9/16/2021 1:30:00 PM 17.85 64.13 0.327 7.95 5.89 9.93
9/16/2021 1:45:00 PM 17.92 64.256 0.328 7.96 5.92 9.97
9/16/2021 2:00:00 PM 17.95 64.31 0.327 7.97 5.93 9.97
9/16/2021 2:15:00 PM 18.04 64.472 0.327 7.98 5.9 10.03
9/16/2021 2:30:00 PM 18.17 64.706 0.328 8 5.74 10.1
9/16/2021 2:45:00 PM 18.3 64.94 0.327 8.02 5.77 10.12
9/16/2021 3:00:00 PM 18.39 65.102 0.328 8.02 5.86 10.13
9/16/2021 3:15:00 PM 18.46 65.228 0.329 8.03 5.73 10.09
9/16/2021 3:30:00 PM 18.53 65.354 0.329 8.04 5.84 10.12
9/16/2021 3:45:00 PM 18.61 65.498 0.329 8.04 5.7 10.11
9/16/2021 4:00:00 PM 18.73 65.714 0.329 8.06 5.54 10.17
9/16/2021 4:15:00 PM 18.79 65.82201 0.33 8.06 6.03 10.08
9/16/2021 4:30:00 PM 18.89 66.002 0.329 8.08 6.05 10.07
9/16/2021 4:45:00 PM 18.95 66.11 0.33 8.08 5.56 10.06
9/16/2021 5:00:00 PM 19 66.2 0.33 8.08 5.53 9.97
9/16/2021 5:15:00 PM 19.04 66.272 0.331 8.08 5.63 9.88
9/16/2021 5:30:00 PM 19.07 66.326 0.331 8.07 5.68 9.67
9/16/2021 5:45:00 PM 19.11 66.398 0.331 8.07 6.01 9.69
9/16/2021 6:00:00 PM 19.15 66.47 0.331 8.06 5.61 9.53
9/16/2021 6:15:00 PM 19.19 66.542 0.332 8.06 5.52 9.43
9/16/2021 6:30:00 PM 19.2 66.56 0.333 8.04 7.46 9.29
9/16/2021 6:45:00 PM 19.22 66.596 0.333 8.01 5.69 9.12
9/16/2021 7:00:00 PM 19.23 66.614 0.334 8 5.52 8.99
9/16/2021 7:15:00 PM 19.24 66.632 0.335 7.98 5.63 8.85
9/16/2021 7:30:00 PM 19.2 66.56 0.336 7.95 6.58 8.59
9/16/2021 7:45:00 PM 19.2 66.56 0.337 7.93 5.8 8.52
9/16/2021 8:00:00 PM 19.21 66.578 0.336 7.92 6.57 8.34
9/16/2021 8:15:00 PM 19.19 66.542 0.337 7.89 5.99 8.19
9/16/2021 8:30:00 PM 19.18 66.524 0.338 7.88 5.87 8.02
9/16/2021 8:45:00 PM 19.16 66.488 0.338 7.86 6.07 7.97
9/16/2021 9:00:00 PM 19.14 66.452 0.338 7.84 6.04 7.79
9/16/2021 9:15:00 PM 19.12 66.416 0.339 7.82 6.18 7.75
9/16/2021 9:30:00 PM 19.08 66.344 0.339 7.8 6.45 7.66
9/16/2021 9:45:00 PM 19.05 66.29 0.34 7.79 6.06 7.58
9/16/2021 10:00:00 PM 19.02 66.236 0.34 7.77 5.95 7.55
9/16/2021 10:15:00 PM 18.98 66.164 0.34 7.76 80.94 7.47
9/16/2021 10:30:00 PM 18.94 66.092 0.34 7.74 16.75 7.43
9/16/2021 10:45:00 PM 18.9 66.02 0.342 7.73 7.56 7.35
9/16/2021 11:00:00 PM 18.87 65.966 0.342 7.72 6.23 7.31
9/16/2021 11:15:00 PM 18.82 65.876 0.343 7.72 6.19 7.22
9/16/2021 11:30:00 PM 18.78 65.804 0.345 7.7 6.37 7.2
9/16/2021 11:45:00 PM 18.72 65.696 0.345 7.7 6.41 7.2
9/17/2021 12:00:00 AM 18.68 65.624 0.345 7.69 6.75 7.17
9/17/2021 12:15:00 AM 18.64 65.552 0.346 7.68 6.96 7.06
9/17/2021 12:30:00 AM 18.57 65.426 0.348 7.67 6.84 7.11
9/17/2021 12:45:00 AM 18.54 65.372 0.348 7.67 7.11 7.12
9/17/2021 1:00:00 AM 18.5 65.3 0.349 7.66 6.6 7.1
9/17/2021 1:15:00 AM 18.46 65.228 0.349 7.66 6.58 7.08
9/17/2021 1:30:00 AM 18.4 65.12 0.349 7.66 6.43 7.06
9/17/2021 1:45:00 AM 18.35 65.03 0.35 7.64 6.39 7.06
9/17/2021 2:00:00 AM 18.3 64.94 0.351 7.64 6.42 7.04
9/17/2021 2:15:00 AM 18.25 64.85 0.352 7.64 6.45 7.04
9/17/2021 2:30:00 AM 18.22 64.796 0.35 7.63 6.65 7.04
9/17/2021 2:45:00 AM 18.17 64.706 0.351 7.63 6.94 7.01
9/17/2021 3:00:00 AM 18.13 64.634 0.351 7.63 6.98 6.99
9/17/2021 3:15:00 AM 18.09 64.562 0.351 7.62 7.28 7.01
9/17/2021 3:30:00 AM 18.06 64.508 0.351 7.61 7.1 7.01
9/17/2021 3:45:00 AM 18.02 64.436 0.351 7.61 7.45 6.99
9/17/2021 4:00:00 AM 18.01 64.418 0.351 7.61 7.27 6.99
9/17/2021 4:15:00 AM 18 64.4 0.351 7.61 7.14 7.01
9/17/2021 4:30:00 AM 17.96 64.328 0.351 7.61 6.77 7.01
9/17/2021 4:45:00 AM 17.93 64.274 0.352 7.61 6.75 6.99
9/17/2021 5:00:00 AM 17.91 64.238 0.354 7.61 6.85 7.01
9/17/2021 5:15:00 AM 17.9 64.22 0.355 7.61 6.61 7.03
9/17/2021 5:30:00 AM 17.87 64.166 0.355 7.61 7.01 7.02
9/17/2021 5:45:00 AM 17.84 64.112 0.356 7.6 6.89 7.03
9/17/2021 6:00:00 AM 17.81 64.058 0.357 7.61 7.46 7.03
9/17/2021 6:15:00 AM 17.79 64.022 0.358 7.6 7.61 7.05
9/17/2021 6:30:00 AM 17.77 63.986 0.359 7.61 9.38 7.04
9/17/2021 6:45:00 AM 17.74 63.932 0.359 7.6 7.76 6.96
9/17/2021 7:00:00 AM 17.72 63.896 0.36 7.6 7.41 6.99
9/17/2021 7:15:00 AM 17.69 63.842 0.36 7.61 7.04 7.04
9/17/2021 7:30:00 AM 17.68 63.824 0.361 7.61 6.78 7.02
9/17/2021 7:45:00 AM 17.66 63.788 0.361 7.61 6.64 7.03
9/17/2021 8:00:00 AM 17.63 63.734 0.362 7.61 6.42 7.06
9/17/2021 8:15:00 AM 17.62 63.716 0.361 7.61 6.52 7.09
9/17/2021 8:30:00 AM 17.6 63.68 0.362 7.61 6.23 7.16
9/17/2021 8:45:00 AM 17.59 63.662 0.361 7.62 6.14 7.17
9/17/2021 9:00:00 AM 17.57 63.626 0.362 7.62 6.37 7.19
9/17/2021 9:15:00 AM 17.57 63.626 0.362 7.62 6.01 7.23
9/17/2021 9:30:00 AM 17.57 63.626 0.362 7.63 5.75 7.29
9/17/2021 9:45:00 AM 17.6 63.68 0.362 7.64 5.72 7.49
9/17/2021 10:00:00 AM 17.63 63.734 0.361 7.66 5.8 7.69
9/17/2021 10:15:00 AM 17.66 63.788 0.361 7.67 5.72 7.83
9/17/2021 10:30:00 AM 17.73 63.914 0.362 7.69 5.83 7.94
9/17/2021 10:45:00 AM 17.79 64.022 0.361 7.71 5.85 8.12
9/17/2021 11:00:00 AM 17.82 64.076 0.362 7.72 5.79 8.23
9/17/2021 11:15:00 AM 17.9 64.22 0.362 7.74 5.76 8.46
9/17/2021 11:30:00 AM 17.95 64.31 0.363 7.76 5.55 8.62
9/17/2021 11:45:00 AM 18.03 64.454 0.362 7.79 5.63 8.82
9/17/2021 12:00:00 PM 18.07 64.526 0.361 7.79 5.69 8.87
9/17/2021 12:15:00 PM 18.13 64.634 0.362 7.82 5.58 8.99
9/17/2021 12:30:00 PM 18.22 64.796 0.361 7.85 5.47 9.26
9/17/2021 12:45:00 PM 18.31 64.958 0.362 7.87 5.63 9.44
9/17/2021 1:00:00 PM 18.37 65.066 0.362 7.89 5.34 9.56
9/17/2021 1:15:00 PM 18.42 65.156 0.362 7.91 5.41 9.61
9/17/2021 1:30:00 PM 18.46 65.228 0.362 7.92 5.53 9.61
9/17/2021 1:45:00 PM 18.52 65.336 0.362 7.93 5.4 9.72
9/17/2021 2:00:00 PM 18.6 65.48 0.362 7.95 5.39 9.87
9/17/2021 2:15:00 PM 18.67 65.606 0.362 7.97 5.34 9.96
9/17/2021 2:30:00 PM 18.72 65.696 0.362 7.99 5.37 9.97
9/17/2021 2:45:00 PM 18.76 65.768 0.362 7.99 5.24 10.02
9/17/2021 3:00:00 PM 18.78 65.804 0.362 8 5.17 10.02
9/17/2021 3:15:00 PM 18.82 65.876 0.363 8.01 5.54 10.05
9/17/2021 3:30:00 PM 18.85 65.93 0.363 8.03 5.14 10.03
9/17/2021 3:45:00 PM 18.89 66.002 0.363 8.04 5.11 10.08
9/17/2021 4:00:00 PM 18.93 66.074 0.362 8.05 5.32 10.1
9/17/2021 4:15:00 PM 18.98 66.164 0.362 8.06 5.1 10.12
9/17/2021 4:30:00 PM 19.04 66.272 0.361 8.09 5.03 10.21
9/17/2021 4:45:00 PM 19.08 66.344 0.362 8.09 5.17 10.25
9/17/2021 5:00:00 PM 19.12 66.416 0.361 8.1 5.37 10.2
9/17/2021 5:15:00 PM 19.14 66.452 0.362 8.1 5.15 10.09
9/17/2021 5:30:00 PM 19.13 66.434 0.363 8.08 5.05 10
9/17/2021 5:45:00 PM 19.15 66.47 0.362 8.07 5 9.88
9/17/2021 6:00:00 PM 19.16 66.488 0.362 8.07 5.03 9.75
9/17/2021 6:15:00 PM 19.17 66.506 0.362 8.06 5.31 9.66
9/17/2021 6:30:00 PM 19.17 66.506 0.362 8.06 5 9.55
9/17/2021 6:45:00 PM 19.17 66.506 0.363 8.04 5.1 9.42
9/17/2021 7:00:00 PM 19.16 66.488 0.363 8.03 4.99 9.26
9/17/2021 7:15:00 PM 19.12 66.416 0.366 8.01 5.04 9.09
9/17/2021 7:30:00 PM 19.13 66.434 0.365 7.99 5.51 8.91
9/17/2021 7:45:00 PM 19.1 66.38 0.365 7.97 5.31 8.72
9/17/2021 8:00:00 PM 19.07 66.326 0.366 7.95 5.39 8.57
9/17/2021 8:15:00 PM 19.03 66.254 0.366 7.93 5.53 8.41
9/17/2021 8:30:00 PM 18.98 66.164 0.367 7.9 5.8 8.25
9/17/2021 8:45:00 PM 18.95 66.11 0.366 7.89 5.5 8.13
9/17/2021 9:00:00 PM 18.91 66.038 0.367 7.87 5.52 8.01
9/17/2021 9:15:00 PM 18.87 65.966 0.368 7.85 5.89 7.9
9/17/2021 9:30:00 PM 18.83 65.894 0.368 7.84 5.75 7.79
9/17/2021 9:45:00 PM 18.8 65.84 0.368 7.83 5.79 7.71
9/17/2021 10:00:00 PM 18.76 65.768 0.368 7.81 5.7 7.62
9/17/2021 10:15:00 PM 18.72 65.696 0.367 7.8 5.9 7.56
9/17/2021 10:30:00 PM 18.69 65.642 0.368 7.79 6.07 7.49
9/17/2021 10:45:00 PM 18.65 65.57 0.368 7.77 6.18 7.44
9/17/2021 11:00:00 PM 18.61 65.498 0.368 7.76 6.23 7.36
9/17/2021 11:15:00 PM 18.57 65.426 0.369 7.75 6.1 7.33
9/17/2021 11:30:00 PM 18.52 65.336 0.369 7.74 5.81 7.27
9/17/2021 11:45:00 PM 18.48 65.264 0.369 7.73 5.81 7.2
9/18/2021 12:00:00 AM 18.44 65.192 0.37 7.71 5.78 7.17
9/18/2021 12:15:00 AM 18.4 65.12 0.37 7.71 5.72 7.14
9/18/2021 12:30:00 AM 18.36 65.048 0.369 7.7 5.7 7.12
9/18/2021 12:45:00 AM 18.33 64.994 0.371 7.69 6 7.09
9/18/2021 1:00:00 AM 18.3 64.94 0.37 7.68 5.79 7.08
9/18/2021 1:15:00 AM 18.26 64.868 0.371 7.68 6.15 7.05
9/18/2021 1:30:00 AM 18.22 64.796 0.37 7.67 6.05 7.03
9/18/2021 1:45:00 AM 18.2 64.76 0.371 7.66 5.67 7.01
9/18/2021 2:00:00 AM 18.17 64.706 0.371 7.66 5.82 7
9/18/2021 2:15:00 AM 18.12 64.616 0.371 7.65 5.99 6.96
9/18/2021 2:30:00 AM 18.08 64.544 0.372 7.64 6.68 6.92
9/18/2021 2:45:00 AM 18.06 64.508 0.373 7.64 6.61 6.92
9/18/2021 3:00:00 AM 18.05 64.49 0.372 7.63 6.32 6.94
9/18/2021 3:15:00 AM 18.01 64.418 0.374 7.64 6.66 6.93
9/18/2021 3:30:00 AM 17.97 64.346 0.375 7.63 7.06 6.92
9/18/2021 3:45:00 AM 17.91 64.238 0.375 7.62 6.97 6.89
9/18/2021 4:00:00 AM 17.93 64.274 0.375 7.63 6.47 6.92
9/18/2021 4:15:00 AM 17.89 64.202 0.376 7.62 6.67 6.88
9/18/2021 4:30:00 AM 17.87 64.166 0.376 7.62 6.59 6.93
9/18/2021 4:45:00 AM 17.86 64.148 0.377 7.63 6.68 6.94
9/18/2021 5:00:00 AM 17.82 64.076 0.378 7.62 6.52 6.92
9/18/2021 5:15:00 AM 17.78 64.004 0.378 7.62 6.8 6.93
9/18/2021 5:30:00 AM 17.74 63.932 0.38 7.62 6.86 6.9
9/18/2021 5:45:00 AM 17.72 63.896 0.38 7.61 6.81 6.92
9/18/2021 6:00:00 AM 17.68 63.824 0.381 7.62 6.99 6.93
9/18/2021 6:15:00 AM 17.66 63.788 0.381 7.62 7.16 6.95
9/18/2021 6:30:00 AM 17.62 63.716 0.381 7.61 7.62 6.94
9/18/2021 6:45:00 AM 17.59 63.662 0.381 7.62 7.51 6.94
9/18/2021 7:00:00 AM 17.56 63.608 0.381 7.62 6.89 6.96
9/18/2021 7:15:00 AM 17.53 63.554 0.382 7.62 6.9 7.01
9/18/2021 7:30:00 AM 17.53 63.554 0.381 7.62 7.83 7.03
9/18/2021 7:45:00 AM 17.49 63.482 0.382 7.62 6.94 7.04
9/18/2021 8:00:00 AM 17.48 63.464 0.382 7.63 6.72 7.08
9/18/2021 8:15:00 AM 17.48 63.464 0.382 7.63 6.89 7.14
9/18/2021 8:30:00 AM 17.47 63.446 0.382 7.63 6.99 7.21
9/18/2021 8:45:00 AM 17.46 63.428 0.382 7.64 6.7 7.29
9/18/2021 9:00:00 AM 17.48 63.464 0.38 7.65 6.51 7.38
9/18/2021 9:15:00 AM 17.49 63.482 0.38 7.66 6.14 7.43
9/18/2021 9:30:00 AM 17.53 63.554 0.379 7.67 6.04 7.59
9/18/2021 9:45:00 AM 17.52 63.536 0.38 7.67 5.84 7.63
9/18/2021 10:00:00 AM 17.61 63.698 0.379 7.69 5.92 7.78
9/18/2021 10:15:00 AM 17.67 63.806 0.378 7.7 5.95 7.96
9/18/2021 10:30:00 AM 17.73 63.914 0.378 7.72 5.75 8.09
9/18/2021 10:45:00 AM 17.82 64.076 0.376 7.74 5.62 8.33
9/18/2021 11:00:00 AM 17.94 64.292 0.374 7.77 6.15 8.56
9/18/2021 11:15:00 AM 18.06 64.508 0.373 7.8 5.89 8.79
9/18/2021 11:30:00 AM 18.16 64.688 0.374 7.81 5.76 8.98
9/18/2021 11:45:00 AM 18.26 64.868 0.373 7.84 6.55 9.13
9/18/2021 12:00:00 PM 18.37 65.066 0.372 7.86 5.9 9.34
9/18/2021 12:15:00 PM 18.5 65.3 0.371 7.89 5.77 9.5
9/18/2021 12:30:00 PM 18.6 65.48 0.371 7.9 5.56 9.57
9/18/2021 12:45:00 PM 18.72 65.696 0.37 7.93 5.43 9.74
9/18/2021 1:00:00 PM 18.77 65.786 0.37 7.94 5.7 9.81
9/18/2021 1:15:00 PM 18.82 65.876 0.37 7.94 5.49 9.69
9/18/2021 1:30:00 PM 18.91 66.038 0.368 7.97 5.29 9.91
9/18/2021 1:45:00 PM 18.98 66.164 0.368 7.99 5.42 10.1
9/18/2021 2:00:00 PM 19.06 66.308 0.367 8.01 5.37 10.16
9/18/2021 2:15:00 PM 19.09 66.362 0.367 8.01 5.37 9.97
9/18/2021 2:30:00 PM 19.04 66.272 0.369 7.99 5.36 9.84
9/18/2021 2:45:00 PM 19.05 66.29 0.369 8 5.55 9.89
9/18/2021 3:00:00 PM 19.15 66.47 0.366 8.02 5.54 9.97
9/18/2021 3:15:00 PM 19.21 66.578 0.367 8.03 5.59 10.08
9/18/2021 3:30:00 PM 19.23 66.614 0.366 8.03 5.46 10.06
9/18/2021 3:45:00 PM 19.25 66.65 0.365 8.04 5.69 10.01
9/18/2021 4:00:00 PM 19.24 66.632 0.365 8.04 5.31 9.92
9/18/2021 4:15:00 PM 19.26 66.668 0.366 8.04 5.25 9.79
9/18/2021 4:30:00 PM 19.34 66.812 0.366 8.05 5.19 9.81
9/18/2021 4:45:00 PM 19.39 66.902 0.367 8.06 5.05 9.86
9/18/2021 5:00:00 PM 19.49 67.082 0.366 8.08 5.02 9.85
9/18/2021 5:15:00 PM 19.55 67.19 0.366 8.08 5.21 9.89
9/18/2021 5:30:00 PM 19.59 67.262 0.366 8.07 5.18 9.78
9/18/2021 5:45:00 PM 19.66 67.388 0.364 8.07 5.18 9.66
9/18/2021 6:00:00 PM 19.73 67.514 0.365 8.07 5.24 9.55
9/18/2021 6:15:00 PM 19.75 67.55 0.365 8.06 5.25 9.38
9/18/2021 6:30:00 PM 19.76 67.568 0.366 8.06 5.15 9.25
9/18/2021 6:45:00 PM 19.77 67.586 0.366 8.05 5.16 9.13
9/18/2021 7:00:00 PM 19.75 67.55 0.365 8.03 5.17 8.98
9/18/2021 7:15:00 PM 19.76 67.568 0.365 8.03 5.02 8.85
9/18/2021 7:30:00 PM 19.71 67.478 0.366 8.01 4.96 8.66
9/18/2021 7:45:00 PM 19.67 67.406 0.365 7.98 5.02 8.49
9/18/2021 8:00:00 PM 19.63 67.334 0.366 7.97 5.32 8.32
9/18/2021 8:15:00 PM 19.59 67.262 0.365 7.94 8.32 8.16
9/18/2021 8:30:00 PM 19.53 67.154 0.364 7.92 5.68 8.02
9/18/2021 8:45:00 PM 19.52 67.136 0.363 7.91 5.39 7.98
9/18/2021 9:00:00 PM 19.47 67.046 0.362 7.89 5.48 7.87
9/18/2021 9:15:00 PM 19.39 66.902 0.361 7.88 5.54 7.76
9/18/2021 9:30:00 PM 19.35 66.83 0.359 7.86 5.5 7.68
9/18/2021 9:45:00 PM 19.27 66.686 0.359 7.84 5.69 7.61
9/18/2021 10:00:00 PM 19.22 66.596 0.356 7.83 5.98 7.55
9/18/2021 10:15:00 PM 19.16 66.488 0.357 7.82 5.8 7.48
9/18/2021 10:30:00 PM 19.08 66.344 0.357 7.8 5.92 7.41
9/18/2021 10:45:00 PM 19.01 66.218 0.357 7.78 5.86 7.33
9/18/2021 11:00:00 PM 18.93 66.074 0.357 7.77 6.05 7.3
9/18/2021 11:15:00 PM 18.86 65.948 0.356 7.76 6.25 7.24
9/18/2021 11:30:00 PM 18.81 65.858 0.355 7.75 6.21 7.21
9/18/2021 11:45:00 PM 18.77 65.786 0.354 7.74 6.16 7.2
9/19/2021 12:00:00 AM 18.71 65.67799 0.354 7.73 6.18 7.18
9/19/2021 12:15:00 AM 18.65 65.57 0.353 7.72 6.24 7.14
9/19/2021 12:30:00 AM 18.58 65.444 0.353 7.71 6.19 7.09
9/19/2021 12:45:00 AM 18.52 65.336 0.352 7.7 6.41 7.08
9/19/2021 1:00:00 AM 18.45 65.21 0.352 7.69 6.46 7.04
9/19/2021 1:15:00 AM 18.4 65.12 0.352 7.68 6.7 7.04
9/19/2021 1:30:00 AM 18.34 65.012 0.35 7.67 6.8 7.02
9/19/2021 1:45:00 AM 18.26 64.868 0.349 7.66 6.83 7.01
9/19/2021 2:00:00 AM 18.19 64.742 0.349 7.65 7.04 7.01
9/19/2021 2:15:00 AM 18.12 64.616 0.348 7.65 6.99 7.01
9/19/2021 2:30:00 AM 18.03 64.454 0.349 7.65 7.1 7
9/19/2021 2:45:00 AM 17.98 64.364 0.348 7.64 7.26 7.01
9/19/2021 3:00:00 AM 17.91 64.238 0.348 7.63 7.09 7
9/19/2021 3:15:00 AM 17.85 64.13 0.348 7.63 7.01 7.02
9/19/2021 3:30:00 AM 17.78 64.004 0.348 7.63 7.04 7.02
9/19/2021 3:45:00 AM 17.72 63.896 0.348 7.62 7.06 7.03
9/19/2021 4:00:00 AM 17.65 63.77 0.349 7.62 7.09 7.03
9/19/2021 4:15:00 AM 17.61 63.698 0.349 7.62 7.1 7.04
9/19/2021 4:30:00 AM 17.54 63.572 0.349 7.62 7.05 7.06
9/19/2021 4:45:00 AM 17.47 63.446 0.35 7.62 7.01 7.07
9/19/2021 5:00:00 AM 17.42 63.356 0.35 7.62 6.95 7.09
9/19/2021 5:15:00 AM 17.35 63.23 0.351 7.62 6.84 7.07
9/19/2021 5:30:00 AM 17.29 63.122 0.351 7.61 7.05 7.09
9/19/2021 5:45:00 AM 17.25 63.05 0.351 7.61 6.92 7.11
9/19/2021 6:00:00 AM 17.19 62.942 0.352 7.61 6.78 7.13
9/19/2021 6:15:00 AM 17.13 62.834 0.352 7.61 7.13 7.13
9/19/2021 6:30:00 AM 17.08 62.744 0.353 7.61 7.02 7.13
9/19/2021 6:45:00 AM 17.03 62.654 0.353 7.61 6.93 7.13
9/19/2021 7:00:00 AM 16.98 62.564 0.353 7.61 6.82 7.1
9/19/2021 7:15:00 AM 16.93 62.474 0.354 7.61 7.1 7.13
9/19/2021 7:30:00 AM 16.9 62.42 0.354 7.61 7.03 7.08
9/19/2021 7:45:00 AM 16.87 62.366 0.354 7.61 6.93 7.13
9/19/2021 8:00:00 AM 16.84 62.312 0.355 7.62 7.38 7.13
9/19/2021 8:15:00 AM 16.8 62.24 0.355 7.62 7.53 7.28
9/19/2021 8:30:00 AM 16.78 62.204 0.356 7.63 7.28 7.35
9/19/2021 8:45:00 AM 16.76 62.168 0.357 7.63 6.95 7.44
9/19/2021 9:00:00 AM 16.75 62.15 0.357 7.64 6.6 7.54
9/19/2021 9:15:00 AM 16.74 62.132 0.359 7.65 6.25 7.59
9/19/2021 9:30:00 AM 16.73 62.114 0.36 7.66 6.16 7.68
9/19/2021 9:45:00 AM 16.72 62.096 0.361 7.67 6 7.71
9/19/2021 10:00:00 AM 16.71 62.078 0.362 7.68 6.12 7.83
9/19/2021 10:15:00 AM 16.73 62.114 0.361 7.68 6.84 7.9
9/19/2021 10:30:00 AM 16.77 62.186 0.362 7.7 6.29 8.1
9/19/2021 10:45:00 AM 16.81 62.258 0.364 7.72 6 8.16
9/19/2021 11:00:00 AM 16.84 62.312 0.364 7.73 5.71 8.33
9/19/2021 11:15:00 AM 16.92 62.456 0.364 7.75 5.86 8.48
9/19/2021 11:30:00 AM 16.99 62.582 0.365 7.76 5.72 8.6
9/19/2021 11:45:00 AM 17.11 62.798 0.365 7.79 5.84 8.82
9/19/2021 12:00:00 PM 17.22 62.996 0.366 7.81 5.6 8.94
9/19/2021 12:15:00 PM 17.35 63.23 0.364 7.84 5.31 9.06
9/19/2021 12:30:00 PM 17.48 63.464 0.365 7.85 6.21 9.24
9/19/2021 12:45:00 PM 17.6 63.68 0.365 7.88 5.71 9.34
9/19/2021 1:00:00 PM 17.74 63.932 0.365 7.9 12.45 9.52
9/19/2021 1:15:00 PM 17.81 64.058 0.366 7.9 7.26 9.48
9/19/2021 1:30:00 PM 17.97 64.346 0.365 7.93 5.74 9.77
9/19/2021 1:45:00 PM 18.08 64.544 0.364 7.95 5.44 9.87
9/19/2021 2:00:00 PM 18.17 64.706 0.364 7.97 5.44 9.88
9/19/2021 2:15:00 PM 18.26 64.868 0.364 7.98 5.2 9.93
9/19/2021 2:30:00 PM 18.34 65.012 0.364 7.99 5.24 9.99
9/19/2021 2:45:00 PM 18.39 65.102 0.364 7.99 5.57 9.99
9/19/2021 3:00:00 PM 18.49 65.282 0.363 8.02 5.31 10.01
9/19/2021 3:15:00 PM 18.53 65.354 0.364 8.02 5.17 9.97
9/19/2021 3:30:00 PM 18.57 65.426 0.363 8.03 5.26 10.07
9/19/2021 3:45:00 PM 18.66 65.588 0.362 8.05 5.26 10.03
9/19/2021 4:00:00 PM 18.69 65.642 0.362 8.05 5.33 10.05
9/19/2021 4:15:00 PM 18.73 65.714 0.361 8.06 5.3 10.11
9/19/2021 4:30:00 PM 18.76 65.768 0.362 8.07 6.74 9.94
9/19/2021 4:45:00 PM 18.77 65.786 0.362 8.06 5.4 9.92
9/19/2021 5:00:00 PM 18.79 65.82201 0.363 8.06 5.12 9.89
9/19/2021 5:15:00 PM 18.82 65.876 0.362 8.07 5.01 9.76
9/19/2021 5:30:00 PM 18.83 65.894 0.364 8.06 5.16 9.69
9/19/2021 5:45:00 PM 18.86 65.948 0.364 8.06 5.05 9.65
9/19/2021 6:00:00 PM 18.84 65.912 0.364 8.04 5.03 9.48
9/19/2021 6:15:00 PM 18.84 65.912 0.364 8.04 7.26 9.34
9/19/2021 6:30:00 PM 18.84 65.912 0.365 8.03 5.38 9.34
9/19/2021 6:45:00 PM 18.81 65.858 0.365 8.02 5.11 9.18
9/19/2021 7:00:00 PM 18.75 65.75 0.366 7.99 5.04 8.96
9/19/2021 7:15:00 PM 18.7 65.66 0.367 7.98 4.97 8.84
9/19/2021 7:30:00 PM 18.65 65.57 0.368 7.96 5.09 8.69
9/19/2021 7:45:00 PM 18.59 65.462 0.368 7.94 6.43 8.53
9/19/2021 8:00:00 PM 18.54 65.372 0.367 7.93 5.37 8.38
9/19/2021 8:15:00 PM 18.5 65.3 0.369 7.91 5.46 8.26
9/19/2021 8:30:00 PM 18.41 65.138 0.37 7.89 5.46 8.12
9/19/2021 8:45:00 PM 18.35 65.03 0.37 7.87 5.4 7.97
9/19/2021 9:00:00 PM 18.28 64.904 0.369 7.86 5.75 7.88
9/19/2021 9:15:00 PM 18.2 64.76 0.371 7.84 5.88 7.75
9/19/2021 9:30:00 PM 18.13 64.634 0.372 7.83 5.65 7.67
9/19/2021 9:45:00 PM 18.06 64.508 0.373 7.81 5.51 7.62
9/19/2021 10:00:00 PM 17.98 64.364 0.372 7.8 5.71 7.5
9/19/2021 10:15:00 PM 17.88 64.184 0.373 7.78 5.71 7.43
9/19/2021 10:30:00 PM 17.8 64.04 0.373 7.77 5.62 7.4
9/19/2021 10:45:00 PM 17.72 63.896 0.374 7.77 5.66 7.31
9/19/2021 11:00:00 PM 17.64 63.752 0.374 7.75 5.62 7.29
9/19/2021 11:15:00 PM 17.54 63.572 0.374 7.74 5.85 7.29
9/19/2021 11:30:00 PM 17.46 63.428 0.374 7.74 5.92 7.26
9/19/2021 11:45:00 PM 17.37 63.266 0.374 7.73 5.71 7.24
9/20/2021 12:00:00 AM 17.28 63.104 0.375 7.72 5.79 7.23
9/20/2021 12:15:00 AM 17.2 62.96 0.375 7.71 6.05 7.21
9/20/2021 12:30:00 AM 17.1 62.78 0.376 7.7 6.14 7.17
9/20/2021 12:45:00 AM 17.02 62.636 0.376 7.7 5.94 7.18
9/20/2021 1:00:00 AM 16.91 62.438 0.377 7.69 5.95 7.14
9/20/2021 1:15:00 AM 16.83 62.294 0.376 7.69 6.29 7.14
9/20/2021 1:30:00 AM 16.75 62.15 0.378 7.68 6.11 7.13
9/20/2021 1:45:00 AM 16.66 61.988 0.379 7.67 6.23 7.12
9/20/2021 2:00:00 AM 16.59 61.862 0.378 7.67 6.06 7.12
9/20/2021 2:15:00 AM 16.51 61.718 0.378 7.67 5.96 7.14
9/20/2021 2:30:00 AM 16.43 61.574 0.378 7.66 6.11 7.15
9/20/2021 2:45:00 AM 16.36 61.448 0.378 7.66 6.28 7.15
9/20/2021 3:00:00 AM 16.27 61.286 0.379 7.66 5.98 7.12
9/20/2021 3:15:00 AM 16.21 61.178 0.377 7.66 6.33 7.17
9/20/2021 3:30:00 AM 16.11 60.998 0.378 7.65 6.34 7.17
9/20/2021 3:45:00 AM 16.04 60.872 0.378 7.64 6.23 7.18
9/20/2021 4:00:00 AM 15.97 60.746 0.378 7.65 6.6 7.19
9/20/2021 4:15:00 AM 15.88 60.584 0.379 7.64 6.47 7.2
9/20/2021 4:30:00 AM 15.81 60.458 0.378 7.64 6.25 7.2
9/20/2021 4:45:00 AM 15.73 60.314 0.38 7.63 6.37 7.22
9/20/2021 5:00:00 AM 15.64 60.152 0.38 7.63 6.56 7.2
9/20/2021 5:15:00 AM 15.56 60.008 0.381 7.63 6.58 7.2
9/20/2021 5:30:00 AM 15.5 59.9 0.38 7.63 6.36 7.24
9/20/2021 5:45:00 AM 15.42 59.756 0.381 7.63 6.47 7.25
9/20/2021 6:00:00 AM 15.34 59.612 0.382 7.63 6.26 7.25
9/20/2021 6:15:00 AM 15.28 59.504 0.382 7.62 6.5 7.26
9/20/2021 6:30:00 AM 15.21 59.378 0.382 7.63 6.63 7.25
9/20/2021 6:45:00 AM 15.13 59.234 0.383 7.62 6.54 7.26
9/20/2021 7:00:00 AM 15.09 59.162 0.382 7.62 6.93 7.3
9/20/2021 7:15:00 AM 15.03 59.054 0.383 7.63 7.14 7.35
9/20/2021 7:30:00 AM 14.99 58.982 0.383 7.63 6.56 7.37
9/20/2021 7:45:00 AM 14.95 58.91 0.383 7.63 6.32 7.45
9/20/2021 8:00:00 AM 14.9 58.82 0.384 7.63 6.21 7.47
9/20/2021 8:15:00 AM 14.87 58.766 0.384 7.64 6.37 7.55
9/20/2021 8:30:00 AM 14.86 58.748 0.384 7.64 6.24 7.64
9/20/2021 8:45:00 AM 14.84 58.712 0.384 7.65 6.11 7.71
9/20/2021 9:00:00 AM 14.84 58.712 0.385 7.66 5.95 7.84
9/20/2021 9:15:00 AM 14.83 58.694 0.385 7.67 5.58 7.96
9/20/2021 9:30:00 AM 14.83 58.694 0.385 7.68 5.43 8.01
9/20/2021 9:45:00 AM 14.85 58.73 0.386 7.69 5.3 8.12
9/20/2021 10:00:00 AM 14.86 58.748 0.386 7.69 5.19 8.17
9/20/2021 10:15:00 AM 14.91 58.838 0.387 7.7 5.28 8.27
9/20/2021 10:30:00 AM 15 59 0.386 7.72 5.21 8.43
9/20/2021 10:45:00 AM 15.07 59.126 0.386 7.73 5.63 8.57
9/20/2021 11:00:00 AM 15.17 59.306 0.387 7.75 5.55 8.75
9/20/2021 11:15:00 AM 15.3 59.54 0.386 7.78 5.3 9.05
9/20/2021 11:30:00 AM 15.39 59.702 0.386 7.81 5.14 9.24
9/20/2021 11:45:00 AM 15.47 59.846 0.385 7.82 5.34 9.27
9/20/2021 12:00:00 PM 15.6 60.08 0.386 7.83 5.19 9.38
9/20/2021 12:15:00 PM 15.75 60.35 0.386 7.85 5.1 9.55
9/20/2021 12:30:00 PM 15.9 60.62 0.385 7.87 5.06 9.7
9/20/2021 12:45:00 PM 16.05 60.89 0.385 7.88 5.32 9.83
9/20/2021 1:00:00 PM 16.22 61.196 0.385 7.9 5.07 9.93
9/20/2021 1:15:00 PM 16.39 61.502 0.385 7.92 4.85 10.04
9/20/2021 1:30:00 PM 16.56 61.808 0.386 7.93 5.01 10.13
9/20/2021 1:45:00 PM 16.68 62.024 0.387 7.95 4.85 10.17
9/20/2021 2:00:00 PM 16.81 62.258 0.386 7.96 10.16 10.23
9/20/2021 2:15:00 PM 16.98 62.564 0.386 7.98 6.5 10.34
9/20/2021 2:30:00 PM 17.07 62.726 0.385 7.98 5.42 10.33
9/20/2021 2:45:00 PM 17.19 62.942 0.385 8 5.38 10.4
9/20/2021 3:00:00 PM 17.31 63.158 0.385 8.01 4.98 10.46
9/20/2021 3:15:00 PM 17.46 63.428 0.384 8.04 4.88 10.5
9/20/2021 3:30:00 PM 17.55 63.59 0.384 8.05 5.43 10.57
9/20/2021 3:45:00 PM 17.6 63.68 0.383 8.05 5.07 10.58
9/20/2021 4:00:00 PM 17.67 63.806 0.383 8.06 4.85 10.55
9/20/2021 4:15:00 PM 17.7 63.86 0.384 8.06 4.81 10.57
9/20/2021 4:30:00 PM 17.8 64.04 0.383 8.08 4.85 10.56
9/20/2021 4:45:00 PM 17.79 64.022 0.385 8.06 4.78 10.47
9/20/2021 5:00:00 PM 17.88 64.184 0.383 8.09 4.79 10.43
9/20/2021 5:15:00 PM 17.92 64.256 0.381 8.09 4.84 10.36
9/20/2021 5:30:00 PM 17.94 64.292 0.382 8.08 4.91 10.31
9/20/2021 5:45:00 PM 17.96 64.328 0.381 8.07 5.65 10.18
9/20/2021 6:00:00 PM 17.99 64.382 0.382 8.08 4.85 10.04
9/20/2021 6:15:00 PM 18.01 64.418 0.381 8.07 4.77 9.95
9/20/2021 6:30:00 PM 18.05 64.49 0.382 8.07 4.7 9.85
9/20/2021 6:45:00 PM 18.06 64.508 0.382 8.06 4.69 9.72
9/20/2021 7:00:00 PM 18.06 64.508 0.383 8.05 4.73 9.56
9/20/2021 7:15:00 PM 18.01 64.418 0.382 8.02 4.97 9.35
9/20/2021 7:30:00 PM 17.99 64.382 0.382 8 4.67 9.16
9/20/2021 7:45:00 PM 17.98 64.364 0.382 7.99 4.76 8.99
9/20/2021 8:00:00 PM 17.97 64.346 0.383 7.97 4.8 8.82
9/20/2021 8:15:00 PM 17.92 64.256 0.385 7.94 4.9 8.62
9/20/2021 8:30:00 PM 17.91 64.238 0.385 7.93 5.02 8.52
9/20/2021 8:45:00 PM 17.88 64.184 0.385 7.92 5.05 8.4
9/20/2021 9:00:00 PM 17.84 64.112 0.384 7.9 5.05 8.28
9/20/2021 9:15:00 PM 17.8 64.04 0.387 7.88 5.06 8.11
9/20/2021 9:30:00 PM 17.78 64.004 0.385 7.87 4.94 8
9/20/2021 9:45:00 PM 17.73 63.914 0.385 7.85 5.11 7.87
9/20/2021 10:00:00 PM 17.7 63.86 0.387 7.84 5.1 7.79
9/20/2021 10:15:00 PM 17.67 63.806 0.387 7.83 5.34 7.69
9/20/2021 10:30:00 PM 17.6 63.68 0.388 7.81 5.38 7.58
9/20/2021 10:45:00 PM 17.57 63.626 0.388 7.8 6.56 7.54
9/20/2021 11:00:00 PM 17.52 63.536 0.388 7.79 12.56 7.46
9/20/2021 11:15:00 PM 17.39 63.302 0.391 7.77 6.56 7.32
9/20/2021 11:30:00 PM 17.38 63.284 0.389 7.77 5.43 7.35
9/20/2021 11:45:00 PM 17.33 63.194 0.389 7.76 5.03 7.31
9/21/2021 12:00:00 AM 17.29 63.122 0.389 7.76 5.15 7.28
9/21/2021 12:15:00 AM 17.2 62.96 0.39 7.74 5.24 7.25
9/21/2021 12:30:00 AM 17.15 62.87 0.39 7.74 5.33 7.2
9/21/2021 12:45:00 AM 17.08 62.744 0.391 7.73 5.35 7.18
9/21/2021 1:00:00 AM 17 62.6 0.391 7.72 5.29 7.09
9/21/2021 1:15:00 AM 16.96 62.528 0.391 7.71 5.39 7.11
9/21/2021 1:30:00 AM 16.89 62.402 0.391 7.7 5.24 7.11
9/21/2021 1:45:00 AM 16.85 62.33 0.391 7.7 5.4 7.08
9/21/2021 2:00:00 AM 16.79 62.222 0.394 7.7 5.45 7.08
9/21/2021 2:15:00 AM 16.74 62.132 0.394 7.69 5.87 7.07
9/21/2021 2:30:00 AM 16.7 62.06 0.394 7.68 6.07 7.07
9/21/2021 2:45:00 AM 16.65 61.97 0.394 7.68 5.82 7.05
9/21/2021 3:00:00 AM 16.59 61.862 0.395 7.68 5.69 7.05
9/21/2021 3:15:00 AM 16.5 61.7 0.397 7.66 5.71 6.99
9/21/2021 3:30:00 AM 16.49 61.682 0.395 7.67 6.5 7.04
9/21/2021 3:45:00 AM 16.45 61.61 0.396 7.67 5.83 7.05
9/21/2021 4:00:00 AM 16.38 61.484 0.396 7.66 7.08 7.02
9/21/2021 4:15:00 AM 16.35 61.43 0.396 7.65 6.32 7.03
9/21/2021 4:30:00 AM 16.3 61.34 0.396 7.66 5.92 7.02
9/21/2021 4:45:00 AM 16.28 61.304 0.396 7.65 5.91 7.05
9/21/2021 5:00:00 AM 16.22 61.196 0.397 7.65 6.25 7.03
9/21/2021 5:15:00 AM 16.16 61.088 0.398 7.64 6.16 7.03
9/21/2021 5:30:00 AM 16.13 61.034 0.396 7.64 6.09 7.07
9/21/2021 5:45:00 AM 16.09 60.962 0.397 7.65 6.03 7.07
9/21/2021 6:00:00 AM 16.03 60.854 0.397 7.64 5.95 7.05
9/21/2021 6:15:00 AM 15.97 60.746 0.398 7.64 6.06 7.05
9/21/2021 6:30:00 AM 15.93 60.674 0.397 7.64 6.47 7.09
9/21/2021 6:45:00 AM 15.87 60.566 0.398 7.64 8.91 7.08
9/21/2021 7:00:00 AM 15.83 60.494 0.399 7.64 6.46 7.05
9/21/2021 7:15:00 AM 15.78 60.404 0.4 7.64 6.39 7.08
9/21/2021 7:30:00 AM 15.77 60.386 0.399 7.64 5.98 7.14
9/21/2021 7:45:00 AM 15.75 60.35 0.4 7.64 5.88 7.17
9/21/2021 8:00:00 AM 15.73 60.314 0.401 7.65 5.94 7.21
9/21/2021 8:15:00 AM 15.72 60.296 0.4 7.64 6.2 7.24
9/21/2021 8:30:00 AM 15.73 60.314 0.4 7.66 6.61 7.4
9/21/2021 8:45:00 AM 15.77 60.386 0.4 7.67 6.14 7.52
9/21/2021 9:00:00 AM 15.78 60.404 0.402 7.68 5.81 7.59
9/21/2021 9:15:00 AM 15.8 60.44 0.403 7.69 5.43 7.75
9/21/2021 9:30:00 AM 15.81 60.458 0.402 7.7 5.34 7.78
9/21/2021 9:45:00 AM 15.83 60.494 0.402 7.7 5.24 7.91
9/21/2021 10:00:00 AM 15.85 60.53 0.404 7.71 5.3 8.05
9/21/2021 10:15:00 AM 15.91 60.638 0.406 7.72 5.08 8.22
9/21/2021 10:30:00 AM 16.01 60.818 0.404 7.75 5.18 8.46
9/21/2021 10:45:00 AM 16.09 60.962 0.404 7.77 4.97 8.59
9/21/2021 11:00:00 AM 16.17 61.106 0.404 7.79 5.13 8.8
9/21/2021 11:15:00 AM 16.15 61.07 0.407 7.78 4.9 8.73
9/21/2021 11:30:00 AM 16.23 61.214 0.407 7.8 5.17 8.99
9/21/2021 11:45:00 AM 16.34 61.412 0.407 7.82 5.41 9.18
9/21/2021 12:00:00 PM 16.51 61.718 0.403 7.85 5.03 9.46
9/21/2021 12:15:00 PM 16.36 61.448 0.41 7.8 4.82 8.9
9/21/2021 12:30:00 PM 16.64 61.952 0.404 7.87 4.84 9.49
9/21/2021 12:45:00 PM 16.71 62.078 0.406 7.88 4.61 9.56
9/21/2021 1:00:00 PM 16.93 62.474 0.406 7.91 4.68 9.8
9/21/2021 1:15:00 PM 17.02 62.636 0.405 7.93 4.63 9.98
9/21/2021 1:30:00 PM 16.92 62.456 0.412 7.89 5.55 9.77
9/21/2021 1:45:00 PM 17.3 63.14 0.399 8 5.49 10.45
9/21/2021 2:00:00 PM 17.25 63.05 0.401 7.98 4.74 10.17
9/21/2021 2:15:00 PM 17.24 63.032 0.404 7.97 4.52 10.24
9/21/2021 2:30:00 PM 17.37 63.266 0.399 8.01 4.74 10.47
9/21/2021 2:45:00 PM 17.44 63.392 0.397 8.03 4.82 10.49
9/21/2021 3:00:00 PM 17.5 63.5 0.397 8.05 4.78 10.6
9/21/2021 3:15:00 PM 17.55 63.59 0.396 8.06 4.71 10.71
9/21/2021 3:30:00 PM 17.62 63.716 0.396 8.08 5.66 10.67
9/21/2021 3:45:00 PM 17.65 63.77 0.396 8.08 4.88 10.7
9/21/2021 4:00:00 PM 17.73 63.914 0.394 8.1 6.71 10.72
9/21/2021 4:15:00 PM 17.77 63.986 0.392 8.11 5.01 10.75
9/21/2021 4:30:00 PM 17.77 63.986 0.394 8.1 4.68 10.7
9/21/2021 4:45:00 PM 17.75 63.95 0.392 8.1 5.06 10.59
9/21/2021 5:00:00 PM 17.72 63.896 0.393 8.09 4.96 10.42
9/21/2021 5:15:00 PM 17.66 63.788 0.394 8.07 4.67 10.26
9/21/2021 5:30:00 PM 17.61 63.698 0.394 8.05 4.72 9.94
9/21/2021 5:45:00 PM 17.61 63.698 0.394 8.05 4.87 10.03
9/21/2021 6:00:00 PM 17.62 63.716 0.392 8.06 4.84 10.02
9/21/2021 6:15:00 PM 17.62 63.716 0.391 8.06 6.09 9.91
9/21/2021 6:30:00 PM 17.61 63.698 0.392 8.05 4.77 9.78
9/21/2021 6:45:00 PM 17.54 63.572 0.394 8.02 4.51 9.54
9/21/2021 7:00:00 PM 17.58 63.644 0.392 8.03 4.84 9.51
9/21/2021 7:15:00 PM 17.59 63.662 0.392 8.02 4.67 9.36
9/21/2021 7:30:00 PM 17.47 63.446 0.396 7.96 5.21 9.03
9/21/2021 7:45:00 PM 17.54 63.572 0.394 7.96 4.83 8.98
9/21/2021 8:00:00 PM 17.51 63.518 0.395 7.94 4.75 8.75
9/21/2021 8:15:00 PM 17.46 63.428 0.397 7.92 4.68 8.6
9/21/2021 8:30:00 PM 17.5 63.5 0.395 7.92 4.97 8.55
9/21/2021 8:45:00 PM 17.46 63.428 0.395 7.89 4.81 8.37
9/21/2021 9:00:00 PM 17.45 63.41 0.395 7.88 4.82 8.27
9/21/2021 9:15:00 PM 17.4 63.32 0.398 7.86 5 8.11
9/21/2021 9:30:00 PM 17.34 63.212 0.398 7.84 5.05 7.93
9/21/2021 9:45:00 PM 17.37 63.266 0.397 7.84 5.02 7.9
9/21/2021 10:00:00 PM 17.37 63.266 0.397 7.83 5.06 7.82
9/21/2021 10:15:00 PM 17.31 63.158 0.399 7.81 5.06 7.7
9/21/2021 10:30:00 PM 17.32 63.176 0.398 7.81 5.23 7.64
9/21/2021 10:45:00 PM 17.28 63.104 0.398 7.8 5.24 7.58
9/21/2021 11:00:00 PM 17.26 63.068 0.398 7.79 5.28 7.5
9/21/2021 11:15:00 PM 17.23 63.014 0.399 7.78 5.17 7.44
9/21/2021 11:30:00 PM 17.2 62.96 0.4 7.76 5.1 7.35
9/21/2021 11:45:00 PM 16.98 62.564 0.408 7.72 5.16 7.08
9/22/2021 12:00:00 AM 17.08 62.744 0.403 7.74 5.47 7.19
9/22/2021 12:15:00 AM 17.06 62.708 0.403 7.73 5.5 7.14
9/22/2021 12:30:00 AM 17.04 62.672 0.403 7.72 5.51 7.13
9/22/2021 12:45:00 AM 17.02 62.636 0.403 7.72 5.27 7.1
9/22/2021 1:00:00 AM 16.91 62.438 0.408 7.69 5.1 6.97
9/22/2021 1:15:00 AM 16.96 62.528 0.405 7.71 5.19 7.01
9/22/2021 1:30:00 AM 16.91 62.438 0.408 7.69 5.14 6.99
9/22/2021 1:45:00 AM 16.92 62.456 0.406 7.69 5.2 7.01
9/22/2021 2:00:00 AM 16.88 62.384 0.407 7.69 5.12 6.92
9/22/2021 2:15:00 AM 16.92 62.456 0.406 7.69 5.14 6.96
9/22/2021 2:30:00 AM 16.89 62.402 0.406 7.68 5.11 6.94
9/22/2021 2:45:00 AM 16.89 62.402 0.406 7.68 5.06 6.95
9/22/2021 3:00:00 AM 16.85 62.33 0.405 7.68 5.17 6.92
9/22/2021 3:15:00 AM 16.8 62.24 0.406 7.67 5.66 6.84
9/22/2021 3:30:00 AM 16.82 62.276 0.405 7.67 5.45 6.89
9/22/2021 3:45:00 AM 16.7 62.06 0.408 7.64 5.45 6.82
9/22/2021 4:00:00 AM 16.74 62.132 0.408 7.66 5.51 6.8
9/22/2021 4:15:00 AM 16.76 62.168 0.407 7.66 5.42 6.87
9/22/2021 4:30:00 AM 16.75 62.15 0.407 7.66 5.37 6.84
9/22/2021 4:45:00 AM 16.75 62.15 0.405 7.65 5.31 6.86
9/22/2021 5:00:00 AM 16.74 62.132 0.406 7.65 5.52 6.86
9/22/2021 5:15:00 AM 16.69 62.042 0.407 7.64 5.42 6.83
9/22/2021 5:30:00 AM 16.7 62.06 0.408 7.64 5.33 6.82
9/22/2021 5:45:00 AM 16.7 62.06 0.407 7.64 5.45 6.82
9/22/2021 6:00:00 AM 16.65 61.97 0.409 7.64 5.46 6.78
9/22/2021 6:15:00 AM 16.65 61.97 0.409 7.64 9.21 6.79
9/22/2021 6:30:00 AM 16.67 62.006 0.409 7.64 6.21 6.8
9/22/2021 6:45:00 AM 16.66 61.988 0.409 7.64 5.65 6.81
9/22/2021 7:00:00 AM 16.65 61.97 0.409 7.64 5.74 6.82
9/22/2021 7:15:00 AM 16.65 61.97 0.409 7.64 5.76 6.82
9/22/2021 7:30:00 AM 16.62 61.916 0.41 7.63 5.99 6.83
9/22/2021 7:45:00 AM 16.64 61.952 0.41 7.64 6.04 6.88
9/22/2021 8:00:00 AM 16.65 61.97 0.411 7.64 6.26 6.88
9/22/2021 8:15:00 AM 16.67 62.006 0.412 7.64 6.12 6.92
9/22/2021 8:30:00 AM 16.69 62.042 0.412 7.64 5.8 6.98
9/22/2021 8:45:00 AM 16.72 62.096 0.41 7.65 5.51 7.05
9/22/2021 9:00:00 AM 16.68 62.024 0.413 7.65 5.53 6.99
9/22/2021 9:15:00 AM 16.71 62.078 0.413 7.65 5.38 7.16
9/22/2021 9:30:00 AM 16.75 62.15 0.413 7.67 5.16 7.28
9/22/2021 9:45:00 AM 16.77 62.186 0.412 7.68 4.88 7.37
9/22/2021 10:00:00 AM 16.8 62.24 0.412 7.68 5.57 7.47
9/22/2021 10:15:00 AM 16.82 62.276 0.413 7.69 5.03 7.58
9/22/2021 10:30:00 AM 16.89 62.402 0.413 7.71 10.38 7.73
9/22/2021 10:45:00 AM 16.92 62.456 0.413 7.71 7.42 7.83
9/22/2021 11:00:00 AM 16.96 62.528 0.412 7.73 6.24 7.96
9/22/2021 11:15:00 AM 16.81 62.258 0.418 7.71 8.93 7.83
9/22/2021 11:30:00 AM 17 62.6 0.413 7.74 7.38 8.16
9/22/2021 11:45:00 AM 16.96 62.528 0.413 7.74 5.65 8.1
9/22/2021 12:00:00 PM 17.07 62.726 0.411 7.76 5.05 8.27
9/22/2021 12:15:00 PM 16.88 62.384 0.421 7.72 4.44 8.06
9/22/2021 12:30:00 PM 17.03 62.654 0.419 7.77 4.49 8.57
9/22/2021 12:45:00 PM 17.28 63.104 0.412 7.82 4.53 8.92
9/22/2021 1:00:00 PM 17.13 62.834 0.421 7.78 4.34 8.74
9/22/2021 1:15:00 PM 17.14 62.852 0.422 7.79 4.23 8.71
9/22/2021 1:30:00 PM 17.43 63.374 0.414 7.84 4.2 9.16
9/22/2021 1:45:00 PM 17.54 63.572 0.413 7.86 4.32 9.38
9/22/2021 2:00:00 PM 17.6 63.68 0.409 7.89 4.23 9.4
9/22/2021 2:15:00 PM 17.61 63.698 0.412 7.89 4.25 9.46
9/22/2021 2:30:00 PM 17.66 63.788 0.408 7.9 4.12 9.37
9/22/2021 2:45:00 PM 17.52 63.536 0.412 7.85 4.29 9.08
9/22/2021 3:00:00 PM 17.76 63.968 0.406 7.92 4.29 9.51
9/22/2021 3:15:00 PM 17.61 63.698 0.413 7.9 4.32 9.36
9/22/2021 3:30:00 PM 17.81 64.058 0.405 7.94 4.51 9.56
9/22/2021 3:45:00 PM 17.86 64.148 0.403 7.96 4.38 9.68
9/22/2021 4:00:00 PM 17.88 64.184 0.404 7.95 4.39 9.68
9/22/2021 4:15:00 PM 17.87 64.166 0.405 7.96 4.79 9.7
9/22/2021 4:30:00 PM 18.03 64.454 0.402 8 4.25 9.89
9/22/2021 4:45:00 PM 18.06 64.508 0.4 8 4.45 9.8
9/22/2021 5:00:00 PM 18.04 64.472 0.4 7.99 4.36 9.65
9/22/2021 5:15:00 PM 18.1 64.58 0.4 7.99 4.33 9.61
9/22/2021 5:30:00 PM 18.08 64.544 0.401 7.98 4.21 9.52
9/22/2021 5:45:00 PM 18.1 64.58 0.399 7.98 4.23 9.44
9/22/2021 6:00:00 PM 18.03 64.454 0.4 7.95 4.35 9.22
9/22/2021 6:15:00 PM 17.9 64.22 0.404 7.9 4.21 8.89
9/22/2021 6:30:00 PM 17.9 64.22 0.402 7.89 4.27 8.76
9/22/2021 6:45:00 PM 17.89 64.202 0.404 7.89 4.27 8.57
9/22/2021 7:00:00 PM 17.95 64.31 0.4 7.89 4.39 8.6
9/22/2021 7:15:00 PM 17.91 64.238 0.401 7.88 4.7 8.51
9/22/2021 7:30:00 PM 17.95 64.31 0.399 7.88 5.72 8.47
9/22/2021 7:45:00 PM 17.81 64.058 0.403 7.84 4.98 8.18
9/22/2021 8:00:00 PM 17.95 64.31 0.399 7.86 4.55 8.27
9/22/2021 8:15:00 PM 17.81 64.058 0.405 7.82 4.69 8
9/22/2021 8:30:00 PM 17.87 64.166 0.407 7.82 4.62 8.04
9/22/2021 8:45:00 PM 17.95 64.31 0.4 7.84 4.76 7.97
9/22/2021 9:00:00 PM 17.96 64.328 0.4 7.82 4.62 7.9
9/22/2021 9:15:00 PM 17.91 64.238 0.402 7.8 4.77 7.71
9/22/2021 9:30:00 PM 17.97 64.346 0.4 7.8 4.58 7.64
9/22/2021 9:45:00 PM 17.89 64.202 0.403 7.77 4.87 7.48
9/22/2021 10:00:00 PM 17.94 64.292 0.401 7.78 4.83 7.4
9/22/2021 10:15:00 PM 17.91 64.238 0.402 7.76 5 7.34
9/22/2021 10:30:00 PM 17.8 64.04 0.405 7.74 4.93 7.05
9/22/2021 10:45:00 PM 17.74 63.932 0.408 7.72 4.88 7.01
9/22/2021 11:00:00 PM 17.81 64.058 0.406 7.72 4.85 7
9/22/2021 11:15:00 PM 17.82 64.076 0.404 7.71 4.85 6.94
9/22/2021 11:30:00 PM 17.77 63.986 0.406 7.71 4.9 6.85
9/22/2021 11:45:00 PM 17.82 64.076 0.407 7.71 4.74 6.87
9/23/2021 12:00:00 AM 17.66 63.788 0.413 7.67 4.87 6.68
9/23/2021 12:15:00 AM 17.68 63.824 0.41 7.68 4.99 6.67
9/23/2021 12:30:00 AM 17.69 63.842 0.409 7.67 4.97 6.53
9/23/2021 12:45:00 AM 17.68 63.824 0.408 7.67 4.92 6.52
9/23/2021 1:00:00 AM 17.35 63.23 0.421 7.61 4.92 6.29
9/23/2021 1:15:00 AM 17.56 63.608 0.412 7.65 5.07 6.42
9/23/2021 1:30:00 AM 17.65 63.77 0.411 7.66 5.35 6.5
9/23/2021 1:45:00 AM 17.64 63.752 0.411 7.65 5.54 6.56
9/23/2021 2:00:00 AM 17.51 63.518 0.414 7.64 5.05 6.33
9/23/2021 2:15:00 AM 17.65 63.77 0.409 7.66 5.25 6.46
9/23/2021 2:30:00 AM 17.11 62.798 0.428 7.57 4.88 5.99
9/23/2021 2:45:00 AM 17.26 63.068 0.421 7.6 5.24 6
9/23/2021 3:00:00 AM 17 62.6 0.428 7.57 5.16 5.89
9/23/2021 3:15:00 AM 17.27 63.086 0.421 7.61 5.25 6.22
9/23/2021 3:30:00 AM 17.46 63.428 0.416 7.61 5.67 6.36
9/23/2021 3:45:00 AM 17.23 63.014 0.422 7.6 5.1 6.25
9/23/2021 4:00:00 AM 17.52 63.536 0.413 7.63 5.17 6.43
9/23/2021 4:15:00 AM 17.29 63.122 0.419 7.6 5.01 6.19
9/23/2021 4:30:00 AM 17.33 63.194 0.419 7.61 5.75 6.3
9/23/2021 4:45:00 AM 17.28 63.104 0.418 7.61 6.17 6.11
9/23/2021 5:00:00 AM 17.23 63.014 0.419 7.59 6.22 6.22
9/23/2021 5:15:00 AM 17.36 63.248 0.414 7.61 10.61 6.23
9/23/2021 5:30:00 AM 17.45 63.41 0.412 7.63 49.98 6.38
9/23/2021 5:45:00 AM 17.38 63.284 0.415 7.62 12.22 6.35
9/23/2021 6:00:00 AM 17.4 63.32 0.415 7.61 6.56 6.33
9/23/2021 6:15:00 AM 17.44 63.392 0.412 7.62 5.9 6.45
9/23/2021 6:30:00 AM 17.29 63.122 0.415 7.61 6.04 6.17
9/23/2021 6:45:00 AM 17.48 63.464 0.411 7.63 5.68 6.43
9/23/2021 7:00:00 AM 17.48 63.464 0.41 7.64 5.75 6.51
9/23/2021 7:15:00 AM 17.3 63.14 0.417 7.61 7.22 6.44
9/23/2021 7:30:00 AM 17.44 63.392 0.411 7.63 6.56 6.55
9/23/2021 7:45:00 AM 17.37 63.266 0.418 7.63 5.76 6.56
9/23/2021 8:00:00 AM 17.46 63.428 0.413 7.64 5.35 6.63
9/23/2021 8:15:00 AM 17.5 63.5 0.412 7.65 5.32 6.65
9/23/2021 8:30:00 AM 17.45 63.41 0.412 7.64 5.32 6.65
9/23/2021 8:45:00 AM 17.46 63.428 0.412 7.64 5.63 6.66
9/23/2021 9:00:00 AM 17.49 63.482 0.411 7.65 5.46 6.73
9/23/2021 9:15:00 AM 17.4 63.32 0.414 7.64 5.21 6.72
9/23/2021 9:30:00 AM 17.35 63.23 0.413 7.64 5.23 6.67
9/23/2021 9:45:00 AM 17.48 63.464 0.406 7.67 5.57 6.88
9/23/2021 10:00:00 AM 17.49 63.482 0.403 7.67 5.35 6.9
9/23/2021 10:15:00 AM 17.54 63.572 0.399 7.69 5.91 7.1
9/23/2021 10:30:00 AM 17.51 63.518 0.398 7.69 6.01 7.15
9/23/2021 10:45:00 AM 17.46 63.428 0.392 7.72 6.57 7.32
9/23/2021 11:00:00 AM 17.47 63.446 0.385 7.73 8.35 7.52
9/23/2021 11:15:00 AM 17.5 63.5 0.38 7.76 8.27 7.64
9/23/2021 11:30:00 AM 17.55 63.59 0.379 7.77 8.09 7.73
9/23/2021 11:45:00 AM 17.58 63.644 0.379 7.77 7.8 7.78
9/23/2021 12:00:00 PM 17.59 63.662 0.377 7.77 7.83 7.79
9/23/2021 12:15:00 PM 17.54 63.572 0.373 7.77 7.57 7.84
9/23/2021 12:30:00 PM 17.51 63.518 0.369 7.77 8.23 7.85
9/23/2021 12:45:00 PM 17.45 63.41 0.363 7.76 9.13 7.89
9/23/2021 1:00:00 PM 17.43 63.374 0.357 7.75 9.46 7.94
9/23/2021 1:15:00 PM 17.48 63.464 0.349 7.75 10.11 7.99
9/23/2021 1:30:00 PM 17.54 63.572 0.34 7.74 11.07 8
9/23/2021 1:45:00 PM 17.63 63.734 0.336 7.73 25.7 8
9/23/2021 2:00:00 PM 17.74 63.932 0.344 7.7 29.75 7.99
9/23/2021 2:15:00 PM 17.75 63.95 0.341 7.69 26.15 8.01
9/23/2021 2:30:00 PM 17.8 64.04 0.331 7.7 35.36 8.08
9/23/2021 2:45:00 PM 17.91 64.238 0.319 7.72 29.97 8.17
9/23/2021 3:00:00 PM 18.08 64.544 0.305 7.75 38.43 8.23
9/23/2021 3:15:00 PM 18.17 64.706 0.286 7.74 45.18 8.2
9/23/2021 3:30:00 PM 18.13 64.634 0.249 7.7 74.53 8.17
9/23/2021 3:45:00 PM 17.99 64.382 0.204 7.61 91.02 8.18
9/23/2021 4:00:00 PM 17.85 64.13 0.172 7.53 101.49 8.2
9/23/2021 4:15:00 PM 17.77 63.986 0.153 7.45 141.91 8.19
9/23/2021 4:30:00 PM 17.78 64.004 0.141 7.4 146.91 8.19
9/23/2021 4:45:00 PM 17.82 64.076 0.133 7.35 155.82 8.18
9/23/2021 5:00:00 PM 17.85 64.13 0.128 7.33 169.1 8.17
9/23/2021 5:15:00 PM 17.87 64.166 0.126 7.31 156.02 8.16
9/23/2021 5:30:00 PM 17.88 64.184 0.124 7.3 156.01 8.15
9/23/2021 5:45:00 PM 17.87 64.166 0.123 7.29 155.77 8.14
9/23/2021 6:00:00 PM 17.85 64.13 0.123 7.27 155.64 8.12
9/23/2021 6:15:00 PM 17.82 64.076 0.121 7.27 160.22 8.11
9/23/2021 6:30:00 PM 17.78 64.004 0.12 7.25 162.47 8.09
9/23/2021 6:45:00 PM 17.74 63.932 0.118 7.25 162.1 8.06
9/23/2021 7:00:00 PM 17.7 63.86 0.116 7.24 161.79 8.05
9/23/2021 7:15:00 PM 17.67 63.806 0.115 7.24 157.09 8.02
9/23/2021 7:30:00 PM 17.64 63.752 0.114 7.23 157.37 8
9/23/2021 7:45:00 PM 17.61 63.698 0.114 7.22 152.04 7.98
9/23/2021 8:00:00 PM 17.56 63.608 0.114 7.23 148.75 7.95
9/23/2021 8:15:00 PM 17.52 63.536 0.115 7.22 144.46 7.93
9/23/2021 8:30:00 PM 17.48 63.464 0.115 7.2 134.61 7.91
9/23/2021 8:45:00 PM 17.44 63.392 0.116 7.22 125.18 7.89
9/23/2021 9:00:00 PM 17.39 63.302 0.117 7.22 119.24 7.87
9/23/2021 9:15:00 PM 17.35 63.23 0.118 7.2 110.34 7.87
9/23/2021 9:30:00 PM 17.3 63.14 0.119 7.21 105.63 7.86
9/23/2021 9:45:00 PM 17.24 63.032 0.121 7.22 104.71 7.83
9/23/2021 10:00:00 PM 17.19 62.942 0.121 7.21 98.99 7.83
9/23/2021 10:15:00 PM 17.14 62.852 0.122 7.22 91.36 7.83
9/23/2021 10:30:00 PM 17.08 62.744 0.123 7.21 88.86 7.82
9/23/2021 10:45:00 PM 17.02 62.636 0.124 7.22 85.04 7.82
9/23/2021 11:00:00 PM 16.96 62.528 0.125 7.23 83.34 7.83
9/23/2021 11:15:00 PM 16.89 62.402 0.126 7.23 84.04 7.83
9/23/2021 11:30:00 PM 16.81 62.258 0.125 7.24 78.94 7.83
9/23/2021 11:45:00 PM 16.75 62.15 0.112 7.24 78.03 7.84
9/24/2021 12:00:00 AM 16.66 61.988 0.087 7.24 75.15 7.82
9/24/2021 12:15:00 AM 16.58 61.844 0.072 7.25 71.95 7.83
9/24/2021 12:30:00 AM 16.5 61.7 0.072 7.26 72.57 7.85
9/24/2021 12:45:00 AM 16.42 61.556 0.072 7.25 70.59 7.83
9/24/2021 1:00:00 AM 16.34 61.412 0.073 7.26 68.17 7.85
9/24/2021 1:15:00 AM 16.26 61.268 0.127 7.25 88.33 7.89
9/24/2021 1:30:00 AM 16.18 61.124 0.138 7.26 66.52 7.91
9/24/2021 1:45:00 AM 16.09 60.962 0.142 7.26 60.63 7.91
9/24/2021 2:00:00 AM 16.01 60.818 0.144 7.26 59.34 7.92
9/24/2021 2:15:00 AM 15.94 60.692 0.145 7.27 57.9 7.96
9/24/2021 2:30:00 AM 15.87 60.566 0.146 7.27 57.67 7.98
9/24/2021 2:45:00 AM 15.79 60.422 0.148 7.28 56.52 7.99
9/24/2021 3:00:00 AM 15.72 60.296 0.148 7.28 55.03 8.03
9/24/2021 3:15:00 AM 15.66 60.188 0.149 7.28 56.22 8.05
9/24/2021 3:30:00 AM 15.59 60.062 0.151 7.29 59.81 8.08
9/24/2021 3:45:00 AM 15.51 59.918 0.154 7.29 55.69 8.09
9/24/2021 4:00:00 AM 15.45 59.81 0.155 7.3 52.62 8.12
9/24/2021 4:15:00 AM 15.4 59.72 0.155 7.31 50.55 8.15
9/24/2021 4:30:00 AM 15.33 59.594 0.157 7.32 64.77 8.17
9/24/2021 4:45:00 AM 15.24 59.432 0.161 7.32 52.21 8.17
9/24/2021 5:00:00 AM 15.19 59.342 0.162 7.32 49.2 8.21
9/24/2021 5:15:00 AM 15.12 59.216 0.163 7.33 47.04 8.21
9/24/2021 5:30:00 AM 15.06 59.108 0.165 7.33 48.12 8.24
9/24/2021 5:45:00 AM 15 59 0.166 7.34 44.88 8.26
9/24/2021 6:00:00 AM 14.92 58.856 0.17 7.34 45.42 8.25
9/24/2021 6:15:00 AM 14.86 58.748 0.173 7.35 43.2 8.27
9/24/2021 6:30:00 AM 14.81 58.658 0.173 7.36 41.35 8.31
9/24/2021 6:45:00 AM 14.74 58.532 0.177 7.35 43.92 8.31
9/24/2021 7:00:00 AM 14.68 58.424 0.178 7.37 42.48 8.31
9/24/2021 7:15:00 AM 14.63 58.334 0.18 7.37 40.57 8.34
9/24/2021 7:30:00 AM 14.59 58.262 0.18 7.39 38.87 8.37
9/24/2021 7:45:00 AM 14.55 58.19 0.182 7.38 40.05 8.4
9/24/2021 8:00:00 AM 14.52 58.136 0.184 7.4 37.86 8.4
9/24/2021 8:15:00 AM 14.48 58.064 0.184 7.4 35.52 8.43
9/24/2021 8:30:00 AM 14.45 58.01 0.187 7.41 35.33 8.45
9/24/2021 8:45:00 AM 14.42 57.956 0.189 7.41 32.52 8.45
9/24/2021 9:00:00 AM 14.41 57.938 0.19 7.41 32.45 8.47
9/24/2021 9:15:00 AM 14.4 57.92 0.192 7.41 31.53 8.51
9/24/2021 9:30:00 AM 14.39 57.902 0.193 7.42 31.34 8.52
9/24/2021 9:45:00 AM 14.38 57.884 0.196 7.43 30.76 8.56
9/24/2021 10:00:00 AM 14.42 57.956 0.195 7.44 30.19 8.6
9/24/2021 10:15:00 AM 14.47 58.046 0.195 7.44 29.05 8.66
9/24/2021 10:30:00 AM 14.51 58.118 0.196 7.44 28.65 8.7
9/24/2021 10:45:00 AM 14.57 58.226 0.196 7.46 27.21 8.76
9/24/2021 11:00:00 AM 14.64 58.352 0.196 7.48 26.85 8.82
9/24/2021 11:15:00 AM 14.66 58.388 0.198 7.49 27.21 8.84
9/24/2021 11:30:00 AM 14.68 58.424 0.198 7.5 27.56 8.86
9/24/2021 11:45:00 AM 14.71 58.478 0.199 7.5 26.24 8.9
9/24/2021 12:00:00 PM 14.77 58.586 0.2 7.51 25.79 8.9
9/24/2021 12:15:00 PM 14.85 58.73 0.201 7.52 26.04 8.95
9/24/2021 12:30:00 PM 14.96 58.928 0.2 7.52 25.28 9.02
9/24/2021 12:45:00 PM 15.04 59.072 0.202 7.54 24.26 9.04
9/24/2021 1:00:00 PM 15.12 59.216 0.203 7.54 24.83 9.08
9/24/2021 1:15:00 PM 15.21 59.378 0.203 7.56 23.99 9.08
9/24/2021 1:30:00 PM 15.29 59.522 0.204 7.56 23.56 9.09
9/24/2021 1:45:00 PM 15.32 59.576 0.205 7.56 22.56 9.06
9/24/2021 2:00:00 PM 15.41 59.738 0.204 7.58 22.54 9.13
9/24/2021 2:15:00 PM 15.47 59.846 0.21 7.56 21.73 9.11
9/24/2021 2:30:00 PM 15.6 60.08 0.206 7.59 21.83 9.13
9/24/2021 2:45:00 PM 15.68 60.224 0.204 7.6 22.22 9.14
9/24/2021 3:00:00 PM 15.76 60.368 0.205 7.6 21.55 9.16
9/24/2021 3:15:00 PM 15.81 60.458 0.207 7.59 20.41 9.09
9/24/2021 3:30:00 PM 15.9 60.62 0.207 7.6 19.76 9.08
9/24/2021 3:45:00 PM 15.95 60.71 0.21 7.6 20.73 9
9/24/2021 4:00:00 PM 16.06 60.908 0.208 7.61 20.68 8.99
9/24/2021 4:15:00 PM 16.12 61.016 0.214 7.61 19.75 8.92
9/24/2021 4:30:00 PM 16.22 61.196 0.213 7.61 20.11 8.9
9/24/2021 4:45:00 PM 16.28 61.304 0.218 7.62 19.2 8.8
9/24/2021 5:00:00 PM 16.4 61.52 0.216 7.63 20.05 8.83
9/24/2021 5:15:00 PM 16.4 61.52 0.222 7.61 20.37 8.74
9/24/2021 5:30:00 PM 16.46 61.628 0.22 7.62 21.5 8.77
9/24/2021 5:45:00 PM 16.5 61.7 0.219 7.63 20.91 8.78
9/24/2021 6:00:00 PM 16.45 61.61 0.223 7.62 20.17 8.65
9/24/2021 6:15:00 PM 16.46 61.628 0.223 7.61 19.66 8.67
9/24/2021 6:30:00 PM 16.37 61.466 0.229 7.59 20.69 8.52
9/24/2021 6:45:00 PM 16.41 61.538 0.227 7.59 19.66 8.48
9/24/2021 7:00:00 PM 16.4 61.52 0.229 7.58 41.89 8.44
9/24/2021 7:15:00 PM 16.29 61.322 0.236 7.55 22.88 8.18
9/24/2021 7:30:00 PM 16.34 61.412 0.237 7.57 19.99 8.16
9/24/2021 7:45:00 PM 16.22 61.196 0.245 7.52 20.39 8.1
9/24/2021 8:00:00 PM 16.33 61.394 0.233 7.56 21.12 8.22
9/24/2021 8:15:00 PM 16.36 61.448 0.229 7.57 21.15 8.27
9/24/2021 8:30:00 PM 16.3 61.34 0.234 7.56 20.32 8.22
9/24/2021 8:45:00 PM 16.28 61.304 0.231 7.56 21.6 8.29
9/24/2021 9:00:00 PM 16.22 61.196 0.23 7.55 22.15 8.21
9/24/2021 9:15:00 PM 16.1 60.98 0.24 7.53 21.68 8.11
9/24/2021 9:30:00 PM 16 60.8 0.244 7.53 21.61 8.14
9/24/2021 9:45:00 PM 15.98 60.764 0.24 7.53 21.66 8.17
9/24/2021 10:00:00 PM 15.51 59.918 0.284 7.46 18.83 7.59
9/24/2021 10:15:00 PM 15.71 60.278 0.256 7.5 18.97 7.78
9/24/2021 10:30:00 PM 15.76 60.368 0.244 7.52 21.47 8.03
9/24/2021 10:45:00 PM 15.71 60.278 0.242 7.52 22.39 8.12
9/24/2021 11:00:00 PM 15.59 60.062 0.245 7.5 21.63 7.99
9/24/2021 11:15:00 PM 15.44 59.792 0.25 7.49 21.71 7.87
9/24/2021 11:30:00 PM 15.43 59.774 0.245 7.5 21.46 8
9/24/2021 11:45:00 PM 15.35 59.63 0.25 7.49 21.91 7.98
9/25/2021 12:00:00 AM 15.39 59.702 0.238 7.52 22.77 8.16
9/25/2021 12:15:00 AM 15.28 59.504 0.246 7.51 22.06 8.18
9/25/2021 12:30:00 AM 15.24 59.432 0.24 7.52 23.62 8.2
9/25/2021 12:45:00 AM 15.14 59.252 0.246 7.5 22.22 8.13
9/25/2021 1:00:00 AM 15.1 59.18 0.242 7.51 22.46 8.21
9/25/2021 1:15:00 AM 15.03 59.054 0.244 7.52 21.82 8.27
9/25/2021 1:30:00 AM 14.96 58.928 0.245 7.51 21.6 8.24
9/25/2021 1:45:00 AM 14.91 58.838 0.246 7.51 21.29 8.29
9/25/2021 2:00:00 AM 14.84 58.712 0.245 7.51 20.62 8.29
9/25/2021 2:15:00 AM 14.78 58.604 0.246 7.52 21.65 8.3
9/25/2021 2:30:00 AM 14.6 58.28 0.26 7.48 19.82 8.03
9/25/2021 2:45:00 AM 14.58 58.244 0.257 7.5 19.41 8.14
9/25/2021 3:00:00 AM 14.54 58.172 0.255 7.5 18.88 8.2
9/25/2021 3:15:00 AM 14.52 58.136 0.253 7.52 19.48 8.31
9/25/2021 3:30:00 AM 14.49 58.082 0.248 7.52 20.08 8.38
9/25/2021 3:45:00 AM 14.43 57.974 0.25 7.52 20.22 8.38
9/25/2021 4:00:00 AM 14.36 57.848 0.255 7.52 41.4 8.33
9/25/2021 4:15:00 AM 14.28 57.704 0.258 7.5 22.66 8.24
9/25/2021 4:30:00 AM 14.26 57.668 0.255 7.52 21.14 8.31
9/25/2021 4:45:00 AM 14.21 57.578 0.256 7.52 21.6 8.33
9/25/2021 5:00:00 AM 14.18 57.524 0.255 7.52 20.03 8.37
9/25/2021 5:15:00 AM 14.1 57.38 0.262 7.51 18.02 8.26
9/25/2021 5:30:00 AM 14.04 57.272 0.267 7.5 18.23 8.25
9/25/2021 5:45:00 AM 14.03 57.254 0.258 7.52 19.7 8.37
9/25/2021 6:00:00 AM 14.03 57.254 0.266 7.51 19.26 8.37
9/25/2021 6:15:00 AM 14.07 57.326 0.257 7.53 18.95 8.41
9/25/2021 6:30:00 AM 14.03 57.254 0.255 7.53 18.87 8.39
9/25/2021 6:45:00 AM 14 57.2 0.254 7.53 18.59 8.43
9/25/2021 7:00:00 AM 13.92 57.056 0.258 7.52 77.56 8.34
9/25/2021 7:15:00 AM 13.91 57.038 0.254 7.53 26.33 8.47
9/25/2021 7:30:00 AM 13.84 56.912 0.259 7.53 18.58 8.37
9/25/2021 7:45:00 AM 13.79 56.822 0.262 7.52 16.31 8.34
9/25/2021 8:00:00 AM 13.79 56.822 0.257 7.53 16.54 8.53
9/25/2021 8:15:00 AM 13.75 56.75 0.26 7.53 15.92 8.59
9/25/2021 8:30:00 AM 13.72 56.696 0.258 7.54 15.92 8.58
9/25/2021 8:45:00 AM 13.65 56.57 0.266 7.53 14.38 8.34
9/25/2021 9:00:00 AM 13.67 56.606 0.26 7.54 14.88 8.61
9/25/2021 9:15:00 AM 13.66 56.588 0.26 7.55 14.42 8.64
9/25/2021 9:30:00 AM 13.67 56.606 0.261 7.56 14.03 8.7
9/25/2021 9:45:00 AM 13.64 56.552 0.266 7.55 13.31 8.6
9/25/2021 10:00:00 AM 13.66 56.588 0.269 7.55 13.37 8.66
9/25/2021 10:15:00 AM 13.68 56.624 0.269 7.56 13.5 8.7
9/25/2021 10:30:00 AM 13.77 56.786 0.263 7.59 12.92 8.94
9/25/2021 10:45:00 AM 13.82 56.876 0.263 7.6 12.47 8.97
9/25/2021 11:00:00 AM 13.92 57.056 0.261 7.61 12.63 9.12
9/25/2021 11:15:00 AM 14.03 57.254 0.262 7.63 12.2 9.21
9/25/2021 11:30:00 AM 14.13 57.434 0.263 7.65 12.25 9.29
9/25/2021 11:45:00 AM 14.25 57.65 0.263 7.66 11.95 9.4
9/25/2021 12:00:00 PM 14.35 57.83 0.264 7.67 11.81 9.36
9/25/2021 12:15:00 PM 14.52 58.136 0.261 7.7 11.39 9.5
9/25/2021 12:30:00 PM 14.61 58.298 0.266 7.68 10.73 9.39
9/25/2021 12:45:00 PM 14.75 58.55 0.269 7.7 11.06 9.49
9/25/2021 1:00:00 PM 14.93 58.874 0.266 7.73 10.86 9.57
9/25/2021 1:15:00 PM 15.08 59.144 0.269 7.73 10.76 9.57
9/25/2021 1:30:00 PM 15.19 59.342 0.27 7.71 11.68 9.33
9/25/2021 1:45:00 PM 15.4 59.72 0.269 7.76 10.52 9.65
9/25/2021 2:00:00 PM 15.54 59.972 0.272 7.77 10.39 9.75
9/25/2021 2:15:00 PM 15.71 60.278 0.267 7.79 10.41 9.79
9/25/2021 2:30:00 PM 15.83 60.494 0.269 7.8 10.29 9.82
9/25/2021 2:45:00 PM 15.85 60.53 0.278 7.77 10.26 9.62
9/25/2021 3:00:00 PM 16.01 60.818 0.273 7.8 10 9.71
9/25/2021 3:15:00 PM 16.08 60.944 0.273 7.8 10.23 9.69
9/25/2021 3:30:00 PM 16.12 61.016 0.274 7.77 9.98 9.51
9/25/2021 3:45:00 PM 16.29 61.322 0.27 7.82 10.31 9.72
9/25/2021 4:00:00 PM 16.35 61.43 0.271 7.82 10.38 9.57
9/25/2021 4:15:00 PM 16.48 61.664 0.264 7.86 10.26 9.64
9/25/2021 4:30:00 PM 16.5 61.7 0.269 7.83 9.95 9.59
9/25/2021 4:45:00 PM 16.58 61.844 0.268 7.84 10.35 9.56
9/25/2021 5:00:00 PM 16.61 61.898 0.268 7.83 10.1 9.46
9/25/2021 5:15:00 PM 16.65 61.97 0.268 7.82 10.42 9.4
9/25/2021 5:30:00 PM 16.69 62.042 0.269 7.83 10.54 9.38
9/25/2021 5:45:00 PM 16.68 62.024 0.274 7.81 10.25 9.26
9/25/2021 6:00:00 PM 16.72 62.096 0.273 7.8 10.56 9.16
9/25/2021 6:15:00 PM 16.75 62.15 0.272 7.8 10.49 9.11
9/25/2021 6:30:00 PM 16.78 62.204 0.27 7.8 10.69 9.01
9/25/2021 6:45:00 PM 16.74 62.132 0.274 7.77 10.57 8.88
9/25/2021 7:00:00 PM 16.72 62.096 0.275 7.74 10.59 8.76
9/25/2021 7:15:00 PM 16.66 61.988 0.278 7.72 11.15 8.63
9/25/2021 7:30:00 PM 16.62 61.916 0.28 7.7 11.35 8.51
9/25/2021 7:45:00 PM 16.63 61.934 0.277 7.7 11.39 8.47
9/25/2021 8:00:00 PM 16.63 61.934 0.275 7.7 11.57 8.45
9/25/2021 8:15:00 PM 16.53 61.754 0.282 7.68 11.07 8.34
9/25/2021 8:30:00 PM 16.53 61.754 0.274 7.67 12.02 8.32
9/25/2021 8:45:00 PM 16.49 61.682 0.272 7.67 11.71 8.28
9/25/2021 9:00:00 PM 16.45 61.61 0.27 7.66 11.82 8.26
9/25/2021 9:15:00 PM 16.37 61.466 0.271 7.64 12.43 8.23
9/25/2021 9:30:00 PM 16.33 61.394 0.269 7.65 12.28 8.21
9/25/2021 9:45:00 PM 16.24 61.232 0.271 7.63 11.84 8.17
9/25/2021 10:00:00 PM 16.2 61.16 0.268 7.63 12.21 8.17
9/25/2021 10:15:00 PM 16.15 61.07 0.268 7.61 12.44 8.15
9/25/2021 10:30:00 PM 16.08 60.944 0.269 7.61 12.84 8.08
9/25/2021 10:45:00 PM 16.02 60.836 0.271 7.6 12.35 8.07
9/25/2021 11:00:00 PM 15.99 60.782 0.269 7.61 12.36 8.06
9/25/2021 11:15:00 PM 15.93 60.674 0.273 7.58 13.75 8.03
9/25/2021 11:30:00 PM 15.91 60.638 0.272 7.59 13.09 8.03
9/25/2021 11:45:00 PM 15.87 60.566 0.272 7.58 12.69 8.03
9/26/2021 12:00:00 AM 15.84 60.512 0.272 7.59 12.29 8.05
9/26/2021 12:15:00 AM 15.82 60.476 0.272 7.58 12.21 8.03
9/26/2021 12:30:00 AM 15.78 60.404 0.273 7.58 12.04 8.02
9/26/2021 12:45:00 AM 15.72 60.296 0.275 7.57 11.99 7.97
9/26/2021 1:00:00 AM 15.71 60.278 0.273 7.58 11.96 8.03
9/26/2021 1:15:00 AM 15.69 60.242 0.271 7.58 12.43 8.06
9/26/2021 1:30:00 AM 15.64 60.152 0.272 7.58 12.21 8.04
9/26/2021 1:45:00 AM 15.59 60.062 0.273 7.58 11.97 8.03
9/26/2021 2:00:00 AM 15.55 59.99 0.273 7.57 12.24 8.02
9/26/2021 2:15:00 AM 15.51 59.918 0.275 7.57 12.15 8.04
9/26/2021 2:30:00 AM 15.47 59.846 0.275 7.57 12.26 8.06
9/26/2021 2:45:00 AM 15.43 59.774 0.277 7.57 12.04 8.05
9/26/2021 3:00:00 AM 15.41 59.738 0.276 7.57 12.09 8.04
9/26/2021 3:15:00 AM 15.35 59.63 0.28 7.56 15.14 8.03
9/26/2021 3:30:00 AM 15.29 59.522 0.284 7.55 12.77 8.03
9/26/2021 3:45:00 AM 15.32 59.576 0.276 7.57 12.46 8.09
9/26/2021 4:00:00 AM 15.26 59.468 0.279 7.57 12.35 8.05
9/26/2021 4:15:00 AM 15.23 59.414 0.278 7.57 14.52 8.07
9/26/2021 4:30:00 AM 15.16 59.288 0.279 7.57 12.93 8.09
9/26/2021 4:45:00 AM 15.14 59.252 0.276 7.58 12.76 8.1
9/26/2021 5:00:00 AM 15.08 59.144 0.279 7.57 12.93 8.12
9/26/2021 5:15:00 AM 15.04 59.072 0.278 7.57 12.86 8.13
9/26/2021 5:30:00 AM 14.96 58.928 0.283 7.57 12.73 8.1
9/26/2021 5:45:00 AM 14.95 58.91 0.281 7.57 12.89 8.14
9/26/2021 6:00:00 AM 14.9 58.82 0.282 7.57 13.04 8.13
9/26/2021 6:15:00 AM 14.89 58.802 0.279 7.57 12.92 8.15
9/26/2021 6:30:00 AM 14.83 58.694 0.281 7.57 12.91 8.15
9/26/2021 6:45:00 AM 14.81 58.658 0.279 7.58 13.11 8.17
9/26/2021 7:00:00 AM 14.75 58.55 0.282 7.57 12.34 8.14
9/26/2021 7:15:00 AM 14.73 58.514 0.28 7.58 12.32 8.18
9/26/2021 7:30:00 AM 14.69 58.442 0.281 7.58 12.08 8.2
9/26/2021 7:45:00 AM 14.64 58.352 0.281 7.57 11.91 8.2
9/26/2021 8:00:00 AM 14.62 58.316 0.28 7.58 11.83 8.25
9/26/2021 8:15:00 AM 14.59 58.262 0.283 7.58 11.51 8.32
9/26/2021 8:30:00 AM 14.53 58.154 0.286 7.58 11.49 8.34
9/26/2021 8:45:00 AM 14.5 58.1 0.286 7.59 11.15 8.39
9/26/2021 9:00:00 AM 14.49 58.082 0.281 7.6 11.11 8.44
9/26/2021 9:15:00 AM 14.46 58.028 0.281 7.6 10.88 8.49
9/26/2021 9:30:00 AM 14.44 57.992 0.28 7.61 11.12 8.55
9/26/2021 9:45:00 AM 14.43 57.974 0.281 7.62 10.57 8.62
9/26/2021 10:00:00 AM 14.44 57.992 0.282 7.62 10.29 8.71
9/26/2021 10:15:00 AM 14.48 58.064 0.281 7.64 10.08 8.81
9/26/2021 10:30:00 AM 14.51 58.118 0.283 7.65 10.01 8.87
9/26/2021 10:45:00 AM 14.57 58.226 0.283 7.66 9.86 9
9/26/2021 11:00:00 AM 14.65 58.37 0.283 7.67 9.83 9.12
9/26/2021 11:15:00 AM 14.72 58.496 0.282 7.69 9.98 9.19
9/26/2021 11:30:00 AM 14.79 58.622 0.281 7.71 9.74 9.31
9/26/2021 11:45:00 AM 14.86 58.748 0.282 7.72 9.84 9.37
9/26/2021 12:00:00 PM 14.93 58.874 0.282 7.73 9.39 9.41
9/26/2021 12:15:00 PM 15.05 59.09 0.28 7.75 9.37 9.57
9/26/2021 12:30:00 PM 15.17 59.306 0.28 7.77 9.35 9.68
9/26/2021 12:45:00 PM 15.24 59.432 0.283 7.77 9.34 9.73
9/26/2021 1:00:00 PM 15.35 59.63 0.281 7.8 9.18 9.77
9/26/2021 1:15:00 PM 15.49 59.882 0.279 7.82 10.13 9.91
9/26/2021 1:30:00 PM 15.59 60.062 0.279 7.84 9.31 9.94
9/26/2021 1:45:00 PM 15.69 60.242 0.28 7.85 9.41 9.97
9/26/2021 2:00:00 PM 15.74 60.332 0.283 7.85 8.91 9.98
9/26/2021 2:15:00 PM 15.84 60.512 0.279 7.88 8.61 10.01
9/26/2021 2:30:00 PM 15.9 60.62 0.279 7.88 8.47 10.01
9/26/2021 2:45:00 PM 16.01 60.818 0.279 7.89 8.38 10.04
9/26/2021 3:00:00 PM 16.09 60.962 0.279 7.91 8.44 10.05
9/26/2021 3:15:00 PM 16.15 61.07 0.28 7.91 8.26 10.06
9/26/2021 3:30:00 PM 16.19 61.142 0.279 7.91 8.23 10.01
9/26/2021 3:45:00 PM 16.21 61.178 0.281 7.91 8.14 10
9/26/2021 4:00:00 PM 16.27 61.286 0.278 7.93 8.09 10.01
9/26/2021 4:15:00 PM 16.31 61.358 0.278 7.94 8.14 10.01
9/26/2021 4:30:00 PM 16.32 61.376 0.279 7.93 8.12 9.95
9/26/2021 4:45:00 PM 16.3 61.34 0.281 7.9 8.03 9.83
9/26/2021 5:00:00 PM 16.3 61.34 0.281 7.89 8.02 9.72
9/26/2021 5:15:00 PM 16.32 61.376 0.279 7.9 7.99 9.68
9/26/2021 5:30:00 PM 16.33 61.394 0.279 7.9 8.09 9.64
9/26/2021 5:45:00 PM 16.33 61.394 0.28 7.88 7.84 9.58
9/26/2021 6:00:00 PM 16.31 61.358 0.282 7.86 7.88 9.44
9/26/2021 6:15:00 PM 16.31 61.358 0.28 7.85 9.77 9.37
9/26/2021 6:30:00 PM 16.32 61.376 0.279 7.85 9.23 9.27
9/26/2021 6:45:00 PM 16.29 61.322 0.282 7.83 7.94 9.17
9/26/2021 7:00:00 PM 16.28 61.304 0.282 7.81 7.88 9.03
9/26/2021 7:15:00 PM 16.28 61.304 0.283 7.8 8.1 8.95
9/26/2021 7:30:00 PM 16.27 61.286 0.283 7.79 8.35 8.87
9/26/2021 7:45:00 PM 16.24 61.232 0.284 7.77 8.33 8.75
9/26/2021 8:00:00 PM 16.19 61.142 0.286 7.75 8.83 8.65
9/26/2021 8:15:00 PM 16.19 61.142 0.284 7.75 8.72 8.59
9/26/2021 8:30:00 PM 16.17 61.106 0.285 7.74 8.44 8.52
9/26/2021 8:45:00 PM 16.13 61.034 0.285 7.72 8.74 8.46
9/26/2021 9:00:00 PM 16.1 60.98 0.285 7.71 9.14 8.41
9/26/2021 9:15:00 PM 16.06 60.908 0.286 7.71 8.73 8.37
9/26/2021 9:30:00 PM 16.01 60.818 0.286 7.7 8.86 8.33
9/26/2021 9:45:00 PM 15.96 60.728 0.288 7.69 9.33 8.27
9/26/2021 10:00:00 PM 15.91 60.638 0.288 7.68 9.18 8.25
9/26/2021 10:15:00 PM 15.85 60.53 0.289 7.67 9.22 8.22
9/26/2021 10:30:00 PM 15.79 60.422 0.289 7.67 9.38 8.19
9/26/2021 10:45:00 PM 15.71 60.278 0.29 7.66 9.22 8.16
9/26/2021 11:00:00 PM 15.63 60.134 0.291 7.65 9.65 8.12
9/26/2021 11:15:00 PM 15.55 59.99 0.292 7.64 9.5 8.13
9/26/2021 11:30:00 PM 15.49 59.882 0.291 7.64 9.55 8.12
9/26/2021 11:45:00 PM 15.41 59.738 0.292 7.63 9.76 8.09
9/27/2021 12:00:00 AM 15.35 59.63 0.292 7.63 9.59 8.07
9/27/2021 12:15:00 AM 15.28 59.504 0.292 7.62 9.53 8.08
9/27/2021 12:30:00 AM 15.22 59.396 0.292 7.62 9.56 8.09
9/27/2021 12:45:00 AM 15.17 59.306 0.292 7.61 9.97 8.07
9/27/2021 1:00:00 AM 15.13 59.234 0.292 7.61 9.84 8.08
9/27/2021 1:15:00 AM 15.08 59.144 0.292 7.6 9.56 8.06
9/27/2021 1:30:00 AM 15.05 59.09 0.292 7.6 9.36 8.07
9/27/2021 1:45:00 AM 15.01 59.018 0.292 7.6 9.73 8.09
9/27/2021 2:00:00 AM 14.97 58.946 0.292 7.6 9.83 8.09
9/27/2021 2:15:00 AM 14.94 58.892 0.292 7.6 9.82 8.1
9/27/2021 2:30:00 AM 14.9 58.82 0.294 7.59 9.93 8.09
9/27/2021 2:45:00 AM 14.88 58.784 0.295 7.6 9.87 8.09
9/27/2021 3:00:00 AM 14.85 58.73 0.296 7.6 9.5 8.1
9/27/2021 3:15:00 AM 14.82 58.676 0.297 7.6 9.69 8.12
9/27/2021 3:30:00 AM 14.79 58.622 0.298 7.6 9.95 8.1
9/27/2021 3:45:00 AM 14.76 58.568 0.299 7.6 9.92 8.12
9/27/2021 4:00:00 AM 14.74 58.532 0.3 7.6 10.68 8.12
9/27/2021 4:15:00 AM 14.72 58.496 0.299 7.6 10.22 8.14
9/27/2021 4:30:00 AM 14.69 58.442 0.3 7.6 10.11 8.13
9/27/2021 4:45:00 AM 14.66 58.388 0.3 7.6 10.06 8.14
9/27/2021 5:00:00 AM 14.63 58.334 0.3 7.59 10.08 8.14
9/27/2021 5:15:00 AM 14.61 58.298 0.3 7.6 10.21 8.15
9/27/2021 5:30:00 AM 14.58 58.244 0.3 7.59 10.37 8.14
9/27/2021 5:45:00 AM 14.55 58.19 0.3 7.59 10.09 8.14
9/27/2021 6:00:00 AM 14.52 58.136 0.3 7.59 10.17 8.15
9/27/2021 6:15:00 AM 14.5 58.1 0.3 7.59 10.31 8.16
9/27/2021 6:30:00 AM 14.48 58.064 0.3 7.59 10.52 8.16
9/27/2021 6:45:00 AM 14.45 58.01 0.299 7.58 10.36 8.17
9/27/2021 7:00:00 AM 14.42 57.956 0.299 7.59 10.5 8.17
9/27/2021 7:15:00 AM 14.4 57.92 0.299 7.59 9.99 8.17
9/27/2021 7:30:00 AM 14.38 57.884 0.299 7.58 10.89 8.18
9/27/2021 7:45:00 AM 14.35 57.83 0.299 7.58 11.51 8.17
9/27/2021 8:00:00 AM 14.33 57.794 0.299 7.58 9.8 8.18
9/27/2021 8:15:00 AM 14.31 57.758 0.299 7.58 9.41 8.19
9/27/2021 8:30:00 AM 14.3 57.74 0.299 7.58 10.3 8.21
9/27/2021 8:45:00 AM 14.3 57.74 0.299 7.58 9.38 8.25
9/27/2021 9:00:00 AM 14.3 57.74 0.3 7.59 9.01 8.3
9/27/2021 9:15:00 AM 14.31 57.758 0.3 7.59 8.84 8.38
9/27/2021 9:30:00 AM 14.32 57.776 0.301 7.6 8.49 8.44
9/27/2021 9:45:00 AM 14.35 57.83 0.301 7.61 8.73 8.52
9/27/2021 10:00:00 AM 14.41 57.938 0.302 7.63 9.44 8.64
9/27/2021 10:15:00 AM 14.46 58.028 0.303 7.64 9.56 8.76
9/27/2021 10:30:00 AM 14.51 58.118 0.303 7.66 8.77 8.88
9/27/2021 10:45:00 AM 14.55 58.19 0.303 7.68 8.58 9
9/27/2021 11:00:00 AM 14.62 58.316 0.304 7.69 8.94 9.14
9/27/2021 11:15:00 AM 14.71 58.478 0.305 7.71 8.25 9.27
9/27/2021 11:30:00 AM 14.79 58.622 0.306 7.73 8.66 9.37
9/27/2021 11:45:00 AM 14.88 58.784 0.307 7.75 8.63 9.46
9/27/2021 12:00:00 PM 14.99 58.982 0.307 7.76 7.73 9.56
9/27/2021 12:15:00 PM 15.1 59.18 0.308 7.79 7.74 9.68
9/27/2021 12:30:00 PM 15.24 59.432 0.309 7.81 8.45 9.79
9/27/2021 12:45:00 PM 15.38 59.684 0.309 7.83 8.45 9.91
9/27/2021 1:00:00 PM 15.53 59.954 0.31 7.85 11.57 10.02
9/27/2021 1:15:00 PM 15.68 60.224 0.311 7.88 7.93 10.14
9/27/2021 1:30:00 PM 15.81 60.458 0.311 7.9 7.62 10.24
9/27/2021 1:45:00 PM 15.93 60.674 0.311 7.92 7.27 10.32
9/27/2021 2:00:00 PM 16.04 60.872 0.312 7.94 7.23 10.4
9/27/2021 2:15:00 PM 16.17 61.106 0.313 7.97 6.9 10.48
9/27/2021 2:30:00 PM 16.3 61.34 0.312 7.99 6.77 10.56
9/27/2021 2:45:00 PM 16.4 61.52 0.312 8.01 6.78 10.58
9/27/2021 3:00:00 PM 16.5 61.7 0.312 8.03 6.54 10.59
9/27/2021 3:15:00 PM 16.58 61.844 0.312 8.04 16.24 10.56
9/27/2021 3:30:00 PM 16.66 61.988 0.312 8.05 9.21 10.56
9/27/2021 3:45:00 PM 16.75 62.15 0.312 8.07 9.24 10.56
9/27/2021 4:00:00 PM 16.83 62.294 0.311 8.07 6.77 10.56
9/27/2021 4:15:00 PM 16.91 62.438 0.311 8.08 7.07 10.53
9/27/2021 4:30:00 PM 16.97 62.546 0.311 8.07 6.46 10.46
9/27/2021 4:45:00 PM 17.03 62.654 0.311 8.08 6.58 10.39
9/27/2021 5:00:00 PM 17.06 62.708 0.311 8.07 7.28 10.29
9/27/2021 5:15:00 PM 17.1 62.78 0.31 8.07 6.4 10.19
9/27/2021 5:30:00 PM 17.11 62.798 0.31 8.06 6.23 10.07
9/27/2021 5:45:00 PM 17.11 62.798 0.31 8.04 6.25 9.95
9/27/2021 6:00:00 PM 17.11 62.798 0.31 8.03 6.14 9.82
9/27/2021 6:15:00 PM 17.1 62.78 0.309 8.01 6.26 9.68
9/27/2021 6:30:00 PM 17.08 62.744 0.309 7.99 6.18 9.52
9/27/2021 6:45:00 PM 17.05 62.69 0.309 7.96 6.41 9.34
9/27/2021 7:00:00 PM 17.02 62.636 0.309 7.94 6.51 9.19
9/27/2021 7:15:00 PM 17 62.6 0.309 7.91 6.71 9.05
9/27/2021 7:30:00 PM 16.97 62.546 0.308 7.9 6.76 8.92
9/27/2021 7:45:00 PM 16.93 62.474 0.308 7.87 6.81 8.8
9/27/2021 8:00:00 PM 16.91 62.438 0.308 7.85 7.13 8.68
9/27/2021 8:15:00 PM 16.87 62.366 0.309 7.83 7.39 8.56
9/27/2021 8:30:00 PM 16.85 62.33 0.309 7.81 7.17 8.47
9/27/2021 8:45:00 PM 16.82 62.276 0.309 7.78 7.1 8.37
9/27/2021 9:00:00 PM 16.79 62.222 0.309 7.77 7.14 8.29
9/27/2021 9:15:00 PM 16.77 62.186 0.31 7.75 7.12 8.22
9/27/2021 9:30:00 PM 16.76 62.168 0.311 7.74 7.26 8.15
9/27/2021 9:45:00 PM 16.73 62.114 0.311 7.72 7.34 8.08
9/27/2021 10:00:00 PM 16.7 62.06 0.312 7.71 7.79 8.02
9/27/2021 10:15:00 PM 16.67 62.006 0.312 7.7 7.63 7.91
9/27/2021 10:30:00 PM 16.62 61.916 0.313 7.69 7.35 7.92
9/27/2021 10:45:00 PM 16.58 61.844 0.314 7.68 7.43 7.87
9/27/2021 11:00:00 PM 16.55 61.79 0.313 7.66 7.48 7.82
9/27/2021 11:15:00 PM 16.5 61.7 0.314 7.65 7.57 7.8
9/27/2021 11:30:00 PM 16.45 61.61 0.314 7.65 7.44 7.77
9/27/2021 11:45:00 PM 16.4 61.52 0.315 7.64 7.79 7.74
9/28/2021 12:00:00 AM 16.35 61.43 0.316 7.63 8.56 7.71
9/28/2021 12:15:00 AM 16.3 61.34 0.317 7.63 8.16 7.71
9/28/2021 12:30:00 AM 16.26 61.268 0.318 7.62 8.05 7.69
9/28/2021 12:45:00 AM 16.21 61.178 0.319 7.62 7.94 7.67
9/28/2021 1:00:00 AM 16.18 61.124 0.32 7.62 8.04 7.66
9/28/2021 1:15:00 AM 16.13 61.034 0.321 7.61 8.15 7.66
9/28/2021 1:30:00 AM 16.07 60.926 0.323 7.61 11.08 7.65
9/28/2021 1:45:00 AM 16.03 60.854 0.323 7.6 8.54 7.65
9/28/2021 2:00:00 AM 16 60.8 0.323 7.61 8.02 7.65
9/28/2021 2:15:00 AM 15.95 60.71 0.324 7.6 7.92 7.64
9/28/2021 2:30:00 AM 15.91 60.638 0.324 7.6 7.85 7.64
9/28/2021 2:45:00 AM 15.87 60.566 0.325 7.59 8.31 7.63
9/28/2021 3:00:00 AM 15.84 60.512 0.325 7.6 7.76 7.63
9/28/2021 3:15:00 AM 15.81 60.458 0.325 7.6 8.4 7.63
9/28/2021 3:30:00 AM 15.77 60.386 0.326 7.6 8.38 7.65
9/28/2021 3:45:00 AM 15.73 60.314 0.326 7.59 8.27 7.62
9/28/2021 4:00:00 AM 15.69 60.242 0.326 7.59 8.23 7.63
9/28/2021 4:15:00 AM 15.66 60.188 0.326 7.59 8.31 7.64
9/28/2021 4:30:00 AM 15.62 60.116 0.325 7.59 8.73 7.62
9/28/2021 4:45:00 AM 15.58 60.044 0.326 7.58 8.48 7.63
9/28/2021 5:00:00 AM 15.54 59.972 0.325 7.58 8.62 7.64
9/28/2021 5:15:00 AM 15.49 59.882 0.325 7.58 8.45 7.65
9/28/2021 5:30:00 AM 15.45 59.81 0.324 7.58 8.59 7.66
9/28/2021 5:45:00 AM 15.41 59.738 0.323 7.58 8.71 7.69
9/28/2021 6:00:00 AM 15.37 59.666 0.322 7.57 9.2 7.7
9/28/2021 6:15:00 AM 15.32 59.576 0.323 7.57 8.94 7.67
9/28/2021 6:30:00 AM 15.27 59.486 0.324 7.57 8.99 7.7
9/28/2021 6:45:00 AM 15.24 59.432 0.323 7.57 9.04 7.7
9/28/2021 7:00:00 AM 15.2 59.36 0.323 7.57 9.18 7.73
9/28/2021 7:15:00 AM 15.17 59.306 0.324 7.58 10.82 7.72
9/28/2021 7:30:00 AM 15.14 59.252 0.324 7.57 8.67 7.74
9/28/2021 7:45:00 AM 15.13 59.234 0.325 7.58 8.73 7.75
9/28/2021 8:00:00 AM 15.11 59.198 0.325 7.57 10.11 7.73
9/28/2021 8:15:00 AM 15.1 59.18 0.325 7.58 7.7 7.72
9/28/2021 8:30:00 AM 15.08 59.144 0.325 7.58 7.4 7.75
9/28/2021 8:45:00 AM 13.34 56.012 0.289 6.71 6.46 6.84
9/28/2021 9:00:00 AM 14.8 58.64 0.314 7.47 9.74 7.8
9/28/2021 9:15:00 AM 15.01 59.018 0.317 7.59 10.09 8
9/28/2021 9:30:00 AM 15.05 59.09 0.317 7.6 10.49 8
9/28/2021 9:45:00 AM 15.05 59.09 0.316 7.61 10.32 8.02
9/28/2021 10:00:00 AM 15.04 59.072 0.314 7.61 10.22 8.02
9/28/2021 10:15:00 AM 15.02 59.036 0.313 7.59 10.46 8.04
9/28/2021 10:30:00 AM 15.01 59.018 0.311 7.6 12.15 7.98
9/28/2021 10:45:00 AM 14.99 58.982 0.311 7.59 9.74 7.99
9/28/2021 11:00:00 AM 14.97 58.946 0.313 7.59 9.01 8
9/28/2021 11:15:00 AM 14.96 58.928 0.315 7.59 8.85 8
9/28/2021 11:30:00 AM 14.98 58.964 0.315 7.6 8.74 8.09
9/28/2021 11:45:00 AM 14.98 58.964 0.315 7.59 9.08 8.07
9/28/2021 12:00:00 PM 15 59 0.315 7.59 9 8.22
9/28/2021 12:15:00 PM 15.02 59.036 0.32 7.59 9.49 8.26
9/28/2021 12:30:00 PM 15.06 59.108 0.33 7.6 9.33 8.42
9/28/2021 12:45:00 PM 15.11 59.198 0.341 7.62 8.93 8.61
9/28/2021 1:00:00 PM 15.15 59.27 0.352 7.64 9.06 8.77
9/28/2021 1:15:00 PM 15.21 59.378 0.36 7.66 8.81 8.9
9/28/2021 1:30:00 PM 15.31 59.558 0.37 7.68 8.4 9.07
9/28/2021 1:45:00 PM 15.42 59.756 0.38 7.7 10.01 9.21
9/28/2021 2:00:00 PM 15.53 59.954 0.388 7.72 8.28 9.37
9/28/2021 2:15:00 PM 15.6 60.08 0.394 7.73 8.33 9.4
9/28/2021 2:30:00 PM 15.65 60.17 0.394 7.75 7.61 9.47
9/28/2021 2:45:00 PM 15.69 60.242 0.393 7.76 7.3 9.56
9/28/2021 3:00:00 PM 15.76 60.368 0.39 7.78 7.46 9.65
9/28/2021 3:15:00 PM 15.81 60.458 0.385 7.79 6.93 9.69
9/28/2021 3:30:00 PM 15.81 60.458 0.379 7.79 7.27 9.64
9/28/2021 3:45:00 PM 15.82 60.476 0.373 7.8 6.86 9.61
9/28/2021 4:00:00 PM 15.84 60.512 0.366 7.81 7.39 9.66
9/28/2021 4:15:00 PM 15.86 60.548 0.36 7.83 6.67 9.76
9/28/2021 4:30:00 PM 15.89 60.602 0.355 7.84 6.59 9.79
9/28/2021 4:45:00 PM 15.91 60.638 0.352 7.84 6.63 9.73
9/28/2021 5:00:00 PM 15.95 60.71 0.348 7.85 6.76 9.67
9/28/2021 5:15:00 PM 15.98 60.764 0.345 7.86 6.42 9.7
9/28/2021 5:30:00 PM 15.99 60.782 0.343 7.86 6.26 9.62
9/28/2021 5:45:00 PM 15.98 60.764 0.34 7.86 6.55 9.55
9/28/2021 6:00:00 PM 16 60.8 0.338 7.86 6.29 9.49
9/28/2021 6:15:00 PM 15.99 60.782 0.336 7.85 6.33 9.41
9/28/2021 6:30:00 PM 15.96 60.728 0.334 7.84 6.28 9.32
9/28/2021 6:45:00 PM 15.92 60.656 0.332 7.83 6.3 9.21
9/28/2021 7:00:00 PM 15.88 60.584 0.331 7.82 6.57 9.09
9/28/2021 7:15:00 PM 15.83 60.494 0.329 7.81 6.49 9.01
9/28/2021 7:30:00 PM 15.76 60.368 0.328 7.79 6.65 8.92
9/28/2021 7:45:00 PM 15.7 60.26 0.325 7.78 6.94 8.83
9/28/2021 8:00:00 PM 15.63 60.134 0.323 7.76 7.27 8.73
9/28/2021 8:15:00 PM 15.57 60.026 0.32 7.75 7.29 8.64
9/28/2021 8:30:00 PM 15.49 59.882 0.317 7.73 7.39 8.48
9/28/2021 8:45:00 PM 15.42 59.756 0.315 7.72 7.42 8.44
9/28/2021 9:00:00 PM 15.36 59.648 0.312 7.7 7.7 8.41
9/28/2021 9:15:00 PM 15.3 59.54 0.31 7.69 7.46 8.35
9/28/2021 9:30:00 PM 15.24 59.432 0.309 7.68 7.25 8.34
9/28/2021 9:45:00 PM 15.18 59.324 0.307 7.67 7.65 8.29
9/28/2021 10:00:00 PM 15.12 59.216 0.306 7.66 7.71 8.23
9/28/2021 10:15:00 PM 15.06 59.108 0.305 7.65 7.47 8.18
9/28/2021 10:30:00 PM 15.01 59.018 0.304 7.64 7.36 8.16
9/28/2021 10:45:00 PM 14.96 58.928 0.302 7.64 7.35 8.17
9/28/2021 11:00:00 PM 14.9 58.82 0.302 7.63 7.31 8.13
9/28/2021 11:15:00 PM 14.86 58.748 0.301 7.62 7.62 8.13
9/28/2021 11:30:00 PM 14.81 58.658 0.301 7.61 7.88 8.1
9/28/2021 11:45:00 PM 14.76 58.568 0.301 7.61 7.78 8.06
9/29/2021 12:00:00 AM 14.72 58.496 0.301 7.6 7.92 8.05
9/29/2021 12:15:00 AM 14.67 58.406 0.301 7.6 7.8 8.04
9/29/2021 12:30:00 AM 14.62 58.316 0.3 7.6 7.65 8.02
9/29/2021 12:45:00 AM 14.57 58.226 0.301 7.59 7.67 8.03
9/29/2021 1:00:00 AM 14.52 58.136 0.301 7.59 8.05 8.01
9/29/2021 1:15:00 AM 14.47 58.046 0.301 7.59 8.07 8.02
9/29/2021 1:30:00 AM 14.41 57.938 0.3 7.59 7.82 8.02
9/29/2021 1:45:00 AM 14.35 57.83 0.3 7.58 7.74 8.03
9/29/2021 2:00:00 AM 14.29 57.722 0.301 7.58 8 8.02
9/29/2021 2:15:00 AM 14.23 57.614 0.301 7.58 7.99 8.06
9/29/2021 2:30:00 AM 14.18 57.524 0.301 7.58 8.08 8.07
9/29/2021 2:45:00 AM 14.12 57.416 0.301 7.57 7.84 8.07
9/29/2021 3:00:00 AM 14.07 57.326 0.301 7.58 7.74 8.07
9/29/2021 3:15:00 AM 14.02 57.236 0.302 7.58 8.08 8.05
9/29/2021 3:30:00 AM 13.97 57.146 0.302 7.58 8.26 8.06
9/29/2021 3:45:00 AM 13.93 57.074 0.303 7.57 8.39 8.07
9/29/2021 4:00:00 AM 13.88 56.984 0.304 7.58 8.67 8.08
9/29/2021 4:15:00 AM 13.84 56.912 0.304 7.58 8.46 8.1
9/29/2021 4:30:00 AM 13.79 56.822 0.306 7.56 8.31 8.09
9/29/2021 4:45:00 AM 13.74 56.732 0.306 7.57 47.53 8.09
9/29/2021 5:00:00 AM 13.69 56.642 0.308 7.57 13.73 8.09
9/29/2021 5:15:00 AM 13.64 56.552 0.31 7.58 8.96 8.14
9/29/2021 5:30:00 AM 13.59 56.462 0.312 7.58 8.14 8.16
9/29/2021 5:45:00 AM 13.53 56.354 0.314 7.57 8.62 8.19
9/29/2021 6:00:00 AM 13.48 56.264 0.316 7.58 8.75 8.2
9/29/2021 6:15:00 AM 13.42 56.156 0.317 7.59 8.4 8.22
9/29/2021 6:30:00 AM 13.36 56.048 0.318 7.59 8.02 8.25
9/29/2021 6:45:00 AM 13.3 55.94 0.319 7.59 8.31 8.26
9/29/2021 7:00:00 AM 13.25 55.85 0.32 7.59 9.07 8.26
9/29/2021 7:15:00 AM 13.2 55.76 0.32 7.59 8.77 8.26
9/29/2021 7:30:00 AM 13.15 55.67 0.321 7.59 8.38 8.29
9/29/2021 7:45:00 AM 13.11 55.598 0.322 7.6 8.04 8.33
9/29/2021 8:00:00 AM 13.08 55.544 0.322 7.6 8.31 8.36
9/29/2021 8:15:00 AM 13.06 55.508 0.322 7.6 7.75 8.41
9/29/2021 8:30:00 AM 13.04 55.472 0.322 7.6 7.37 8.44
9/29/2021 8:45:00 AM 13.03 55.454 0.321 7.61 7.19 8.52
9/29/2021 9:00:00 AM 13.02 55.436 0.322 7.61 11.18 8.56
9/29/2021 9:15:00 AM 13.04 55.472 0.322 7.62 14.16 8.66
9/29/2021 9:30:00 AM 13.07 55.526 0.321 7.64 8.5 8.78
9/29/2021 9:45:00 AM 13.1 55.58 0.321 7.65 7.26 8.89
9/29/2021 10:00:00 AM 13.14 55.652 0.321 7.66 6.74 9
9/29/2021 10:15:00 AM 13.21 55.778 0.32 7.68 6.93 9.17
9/29/2021 10:30:00 AM 13.27 55.886 0.32 7.7 6.55 9.31
9/29/2021 10:45:00 AM 13.34 56.012 0.319 7.71 6.86 9.43
9/29/2021 11:00:00 AM 13.41 56.138 0.319 7.72 6.83 9.55
9/29/2021 11:15:00 AM 13.48 56.264 0.319 7.74 7.33 9.65
9/29/2021 11:30:00 AM 13.57 56.426 0.318 7.76 6.57 9.76
9/29/2021 11:45:00 AM 13.64 56.552 0.318 7.77 7.13 9.85
9/29/2021 12:00:00 PM 13.72 56.696 0.317 7.78 6.22 9.95
9/29/2021 12:15:00 PM 13.81 56.858 0.317 7.8 6.36 10.05
9/29/2021 12:30:00 PM 13.88 56.984 0.317 7.81 6.37 10.05
9/29/2021 12:45:00 PM 13.97 57.146 0.317 7.83 6.18 10.18
9/29/2021 1:00:00 PM 14.04 57.272 0.317 7.84 7.47 10.25
9/29/2021 1:15:00 PM 14.09 57.362 0.318 7.85 6.29 10.31
9/29/2021 1:30:00 PM 14.11 57.398 0.318 7.86 6.35 10.3
9/29/2021 1:45:00 PM 14.14 57.452 0.319 7.86 7.32 10.27
9/29/2021 2:00:00 PM 14.21 57.578 0.318 7.88 6.36 10.36
9/29/2021 2:15:00 PM 14.26 57.668 0.319 7.89 6.06 10.37
9/29/2021 2:30:00 PM 14.31 57.758 0.319 7.9 5.96 10.39
9/29/2021 2:45:00 PM 14.34 57.812 0.319 7.9 6.07 10.39
9/29/2021 3:00:00 PM 14.38 57.884 0.32 7.91 5.99 10.35
9/29/2021 3:15:00 PM 14.41 57.938 0.321 7.91 5.95 10.27
9/29/2021 3:30:00 PM 14.44 57.992 0.322 7.9 5.7 10.22
9/29/2021 3:45:00 PM 14.48 58.064 0.323 7.91 6.56 10.18
9/29/2021 4:00:00 PM 14.54 58.172 0.324 7.92 5.68 10.2
9/29/2021 4:15:00 PM 14.6 58.28 0.324 7.94 5.7 10.21
9/29/2021 4:30:00 PM 14.64 58.352 0.326 7.93 5.67 10.16
9/29/2021 4:45:00 PM 14.68 58.424 0.325 7.94 5.66 10.14
9/29/2021 5:00:00 PM 14.71 58.478 0.325 7.93 5.55 10.1
9/29/2021 5:15:00 PM 14.73 58.514 0.325 7.94 5.59 10.07
9/29/2021 5:30:00 PM 14.74 58.532 0.325 7.94 6.45 10.04
9/29/2021 5:45:00 PM 14.72 58.496 0.326 7.93 5.93 9.92
9/29/2021 6:00:00 PM 14.71 58.478 0.327 7.92 5.75 9.82
9/29/2021 6:15:00 PM 14.7 58.46 0.327 7.9 6.88 9.76
9/29/2021 6:30:00 PM 14.68 58.424 0.327 7.89 5.66 9.66
9/29/2021 6:45:00 PM 14.64 58.352 0.329 7.87 5.62 9.53
9/29/2021 7:00:00 PM 14.61 58.298 0.328 7.85 5.77 9.4
9/29/2021 7:15:00 PM 14.58 58.244 0.328 7.84 5.79 9.26
9/29/2021 7:30:00 PM 14.54 58.172 0.328 7.81 5.75 9.12
9/29/2021 7:45:00 PM 14.51 58.118 0.329 7.8 6.06 9.04
9/29/2021 8:00:00 PM 14.48 58.064 0.33 7.79 5.91 8.96
9/29/2021 8:15:00 PM 14.46 58.028 0.33 7.78 5.93 8.88
9/29/2021 8:30:00 PM 14.44 57.992 0.331 7.77 6.15 8.82
9/29/2021 8:45:00 PM 14.43 57.974 0.331 7.76 6.28 8.75
9/29/2021 9:00:00 PM 14.4 57.92 0.333 7.75 6.16 8.68
9/29/2021 9:15:00 PM 14.38 57.884 0.335 7.74 6.52 8.62
9/29/2021 9:30:00 PM 14.37 57.866 0.334 7.73 6.36 8.58
9/29/2021 9:45:00 PM 14.36 57.848 0.334 7.73 6.52 8.53
9/29/2021 10:00:00 PM 14.35 57.83 0.334 7.72 6.42 8.47
9/29/2021 10:15:00 PM 14.34 57.812 0.334 7.71 6.54 8.42
9/29/2021 10:30:00 PM 14.32 57.776 0.333 7.7 6.58 8.36
9/29/2021 10:45:00 PM 14.3 57.74 0.334 7.69 6.46 8.3
9/29/2021 11:00:00 PM 14.29 57.722 0.332 7.68 6.51 8.29
9/29/2021 11:15:00 PM 14.27 57.686 0.332 7.67 6.46 8.26
9/29/2021 11:30:00 PM 14.24 57.632 0.333 7.67 6.54 8.23
9/29/2021 11:45:00 PM 14.22 57.596 0.333 7.66 6.96 8.17
9/30/2021 12:00:00 AM 14.19 57.542 0.334 7.65 6.89 8.15
9/30/2021 12:15:00 AM 14.17 57.506 0.335 7.64 6.86 8.14
9/30/2021 12:30:00 AM 14.15 57.47 0.335 7.64 6.97 8.12
9/30/2021 12:45:00 AM 14.13 57.434 0.335 7.64 6.9 8.13
9/30/2021 1:00:00 AM 14.1 57.38 0.336 7.64 6.82 8.1
9/30/2021 1:15:00 AM 14.07 57.326 0.336 7.64 6.71 8.1
9/30/2021 1:30:00 AM 14.05 57.29 0.336 7.63 6.69 8.11
9/30/2021 1:45:00 AM 14.02 57.236 0.337 7.63 6.6 8.09
9/30/2021 2:00:00 AM 13.99 57.182 0.338 7.62 19.56 8.09
9/30/2021 2:15:00 AM 13.96 57.128 0.337 7.61 8.71 8.07
9/30/2021 2:30:00 AM 13.94 57.092 0.338 7.62 7.06 8.08
9/30/2021 2:45:00 AM 13.91 57.038 0.338 7.62 6.79 8.08
9/30/2021 3:00:00 AM 13.88 56.984 0.338 7.61 7.02 8.08
9/30/2021 3:15:00 AM 13.85 56.93 0.34 7.61 7.17 8.09
9/30/2021 3:30:00 AM 13.82 56.876 0.34 7.6 7.38 8.1
9/30/2021 3:45:00 AM 13.81 56.858 0.339 7.61 6.98 8.1
9/30/2021 4:00:00 AM 13.79 56.822 0.339 7.61 7.09 8.11
9/30/2021 4:15:00 AM 13.76 56.768 0.339 7.61 6.89 8.09
9/30/2021 4:30:00 AM 13.73 56.714 0.34 7.6 7.01 8.08
9/30/2021 4:45:00 AM 13.71 56.678 0.338 7.61 8.45 8.09
9/30/2021 5:00:00 AM 13.69 56.642 0.339 7.61 7.51 8.1
9/30/2021 5:15:00 AM 13.67 56.606 0.34 7.61 7.39 8.11
9/30/2021 5:30:00 AM 13.64 56.552 0.341 7.6 7.5 8.1
9/30/2021 5:45:00 AM 13.6 56.48 0.345 7.6 7.27 8.06
9/30/2021 6:00:00 AM 13.59 56.462 0.342 7.61 7.25 8.1
9/30/2021 6:15:00 AM 13.55 56.39 0.344 7.61 8.56 8.08
9/30/2021 6:30:00 AM 13.5 56.3 0.346 7.6 7.22 8.1
9/30/2021 6:45:00 AM 13.46 56.228 0.345 7.6 7.24 8.12
9/30/2021 7:00:00 AM 13.44 56.192 0.344 7.61 7.8 8.15
9/30/2021 7:15:00 AM 13.4 56.12 0.344 7.61 7.29 8.15
9/30/2021 7:30:00 AM 13.35 56.03 0.345 7.61 7.85 8.19
9/30/2021 7:45:00 AM 13.31 55.958 0.347 7.61 6.96 8.2
9/30/2021 8:00:00 AM 13.29 55.922 0.345 7.61 6.56 8.22
9/30/2021 8:15:00 AM 13.27 55.886 0.346 7.61 7.72 8.25
9/30/2021 8:30:00 AM 13.26 55.868 0.345 7.61 6.76 8.3
9/30/2021 8:45:00 AM 13.26 55.868 0.344 7.62 7.07 8.38
9/30/2021 9:00:00 AM 13.23 55.814 0.347 7.62 6.55 8.4
9/30/2021 9:15:00 AM 13.24 55.832 0.343 7.64 6.36 8.53
9/30/2021 9:30:00 AM 13.26 55.868 0.343 7.65 6.22 8.62
9/30/2021 9:45:00 AM 13.26 55.868 0.343 7.65 6.61 8.76
9/30/2021 10:00:00 AM 13.31 55.958 0.342 7.68 6.26 8.94
9/30/2021 10:15:00 AM 13.33 55.994 0.344 7.69 6.43 9.03
9/30/2021